MYDAX CHILLER For M1 mirror 
            

Key: (Temperatures in Centigrade) 
A) System is ON or OFF
B) Actual Tank Temperature as sensed by the Output RTD                   
C) Set point Temperature 
D) Calculated temperature of the refrigerant line at the suction pressure transducer
E) Pressure in PSIg of the refrigerant line at the suction pressure transducer
F & G) Temperature in the refrigerant line at the Superheat and Condenser RTDs
H) Temperature in the refrigerant line at the Discharge RTD (2-stage design only)
I) Temperature in the refrigerant line at the Subcooler RTD (inactive)
J) Valve drives of evaporator 

----------- DATE ----------: A    B     C     D     E    F    G    H   I J

 last update: Thu May 19 01:56:33 PDT 2022
Thu May 19 01:55:44 PDT 2022 ON: 19.99 +20.0 20.04 -23.3 16.5 24.4 28.3 10 1 Alarm State:  0
Thu May 19 01:54:43 PDT 2022 ON: 20.00 +20.0 20.04 -23.2 16.6 24.3 28.3 10 1 Alarm State:  0
Thu May 19 01:53:41 PDT 2022 ON: 20.00 +20.0 20.05 -23.3 16.5 24.4 28.3 10 0 Alarm State:  0
Thu May 19 01:52:40 PDT 2022 ON: 20.00 +20.0 20.05 -23.2 16.6 24.3 28.3 9 0 Alarm State:  0
Thu May 19 01:51:38 PDT 2022 ON: 20.00 +20.0 20.04 -23.3 16.5 24.4 28.3 10 1 Alarm State:  0
Thu May 19 01:50:37 PDT 2022 ON: 20.00 +20.0 20.05 -23.3 16.5 24.4 28.3 10 0 Alarm State:  0
Thu May 19 01:49:35 PDT 2022 ON: 20.00 +20.0 20.06 -23.2 16.6 24.3 28.3 9 0 Alarm State:  0
Thu May 19 01:48:34 PDT 2022 ON: 19.99 +20.0 20.05 -23.2 16.6 24.3 28.3 10 0 Alarm State:  0
Thu May 19 01:47:32 PDT 2022 ON: 19.99 +20.0 20.04 -23.2 16.6 24.3 28.3 10 1 Alarm State:  0
Thu May 19 01:46:31 PDT 2022 ON: 19.99 +20.0 20.04 -23.2 16.6 24.3 28.3 10 1 Alarm State:  0
Thu May 19 01:45:29 PDT 2022 ON: 20.00 +20.0 20.04 -23.3 16.5 24.4 28.3 10 1 Alarm State:  0
Thu May 19 01:44:28 PDT 2022 ON: 20.00 +20.0 20.05 -23.2 16.6 24.3 28.3 9 1 Alarm State:  0
Thu May 19 01:43:26 PDT 2022 ON: 19.99 +20.0 20.03 -23.2 16.6 24.3 28.3 10 1 Alarm State:  0
Thu May 19 01:42:25 PDT 2022 ON: 20.00 +20.0 20.04 -23.0 16.8 24.2 28.4 10 1 Alarm State:  0
Thu May 19 01:41:23 PDT 2022 ON: 20.00 +20.0 20.06 -23.2 16.6 24.3 28.3 9 0 Alarm State:  0
Thu May 19 01:40:21 PDT 2022 ON: 19.99 +20.0 20.04 -23.3 16.4 24.5 28.3 10 1 Alarm State:  0
Thu May 19 01:39:20 PDT 2022 ON: 20.00 +20.0 20.04 -23.2 16.6 24.3 28.3 10 0 Alarm State:  0
Thu May 19 01:38:18 PDT 2022 ON: 20.00 +20.0 20.04 -23.2 16.6 24.3 28.3 10 1 Alarm State:  0
Thu May 19 01:37:17 PDT 2022 ON: 19.99 +20.0 20.06 -23.2 16.6 24.3 28.3 10 0 Alarm State:  0
Thu May 19 01:36:15 PDT 2022 ON: 20.00 +20.0 20.05 -23.3 16.5 24.4 28.3 9 0 Alarm State:  0
Thu May 19 01:35:14 PDT 2022 ON: 20.00 +20.0 20.04 -23.1 16.7 24.2 28.3 10 0 Alarm State:  0
Thu May 19 01:34:12 PDT 2022 ON: 20.01 +20.0 20.06 -23.3 16.5 24.4 28.3 10 0 Alarm State:  0
Thu May 19 01:33:11 PDT 2022 ON: 19.99 +20.0 20.05 -23.1 16.7 24.2 28.4 9 0 Alarm State:  0
Thu May 19 01:32:09 PDT 2022 ON: 19.99 +20.0 20.05 -23.3 16.5 24.4 28.3 10 0 Alarm State:  0
Thu May 19 01:31:08 PDT 2022 ON: 19.99 +20.0 20.03 -23.1 16.7 24.2 28.3 9 1 Alarm State:  0
Thu May 19 01:30:06 PDT 2022 ON: 19.99 +20.0 20.03 -23.3 16.5 24.4 28.3 9 1 Alarm State:  0
Thu May 19 01:29:05 PDT 2022 ON: 20.00 +20.0 20.05 -23.2 16.6 24.3 28.3 10 0 Alarm State:  0
Thu May 19 01:28:03 PDT 2022 ON: 20.00 +20.0 20.05 -23.3 16.5 24.4 28.3 9 0 Alarm State:  0
Thu May 19 01:27:02 PDT 2022 ON: 19.99 +20.0 20.04 -23.2 16.6 24.3 28.3 10 1 Alarm State:  0
Thu May 19 01:26:00 PDT 2022 ON: 20.00 +20.0 20.04 -23.2 16.6 24.3 28.3 10 1 Alarm State:  0
Thu May 19 01:24:59 PDT 2022 ON: 20.00 +20.0 20.06 -23.2 16.6 24.3 28.4 9 0 Alarm State:  0
Thu May 19 01:23:57 PDT 2022 ON: 19.99 +20.0 20.05 -23.2 16.6 24.3 28.3 10 1 Alarm State:  0
Thu May 19 01:22:56 PDT 2022 ON: 19.99 +20.0 20.03 -23.1 16.7 24.2 28.3 9 1 Alarm State:  0
Thu May 19 01:21:54 PDT 2022 ON: 20.00 +20.0 20.05 -23.3 16.5 24.4 28.3 10 0 Alarm State:  0
Thu May 19 01:20:53 PDT 2022 ON: 20.00 +20.0 20.05 -23.3 16.5 24.4 28.3 10 0 Alarm State:  0
Thu May 19 01:19:51 PDT 2022 ON: 19.99 +20.0 20.04 -23.0 16.8 24.2 28.3 9 1 Alarm State:  0
Thu May 19 01:18:50 PDT 2022 ON: 19.99 +20.0 20.03 -23.2 16.6 24.3 28.3 10 1 Alarm State:  0
Thu May 19 01:17:48 PDT 2022 ON: 20.00 +20.0 20.04 -23.3 16.5 24.4 28.3 10 0 Alarm State:  0
Thu May 19 01:16:47 PDT 2022 ON: 19.99 +20.0 20.03 -23.3 16.5 24.4 28.3 10 1 Alarm State:  0
Thu May 19 01:15:45 PDT 2022 ON: 20.00 +20.0 20.05 -23.4 16.3 24.6 28.3 10 0 Alarm State:  0
Thu May 19 01:14:44 PDT 2022 ON: 20.00 +20.0 20.05 -23.2 16.6 24.3 28.3 9 1 Alarm State:  0
Thu May 19 01:13:42 PDT 2022 ON: 19.99 +20.0 20.05 -23.3 16.5 24.4 28.3 10 0 Alarm State:  0
Thu May 19 01:12:41 PDT 2022 ON: 20.00 +20.0 20.05 -23.1 16.7 24.2 28.3 10 0 Alarm State:  0
Thu May 19 01:11:39 PDT 2022 ON: 20.00 +20.0 20.05 -23.1 16.7 24.2 28.3 9 0 Alarm State:  0
Thu May 19 01:10:38 PDT 2022 ON: 19.99 +20.0 20.05 -23.1 16.7 24.2 28.3 10 0 Alarm State:  0
Thu May 19 01:09:36 PDT 2022 ON: 19.99 +20.0 20.04 -23.2 16.6 24.3 28.3 10 1 Alarm State:  0
Thu May 19 01:08:35 PDT 2022 ON: 19.99 +20.0 20.03 -23.1 16.7 24.2 28.3 10 1 Alarm State:  0
Thu May 19 01:07:33 PDT 2022 ON: 20.00 +20.0 20.05 -23.1 16.7 24.2 28.4 10 0 Alarm State:  0
Thu May 19 01:06:32 PDT 2022 ON: 19.99 +20.0 20.05 -23.3 16.4 24.5 28.3 9 1 Alarm State:  0
Thu May 19 01:05:30 PDT 2022 ON: 19.99 +20.0 20.04 -23.2 16.6 24.3 28.3 10 1 Alarm State:  0
Thu May 19 01:04:29 PDT 2022 ON: 20.00 +20.0 20.04 -23.3 16.5 24.4 28.3 9 1 Alarm State:  0
Thu May 19 01:03:27 PDT 2022 ON: 19.99 +20.0 20.05 -23.3 16.5 24.4 28.3 9 0 Alarm State:  0
Thu May 19 01:02:26 PDT 2022 ON: 20.00 +20.0 20.05 -23.4 16.3 24.6 28.3 10 0 Alarm State:  0
Thu May 19 01:01:24 PDT 2022 ON: 19.99 +20.0 20.04 -23.1 16.7 24.2 28.3 10 1 Alarm State:  0
Thu May 19 01:00:23 PDT 2022 ON: 20.00 +20.0 20.04 -23.0 16.8 24.2 28.3 10 1 Alarm State:  0
Thu May 19 00:59:21 PDT 2022 ON: 20.00 +20.0 20.05 -23.2 16.6 24.3 28.3 10 0 Alarm State:  0
Thu May 19 00:58:20 PDT 2022 ON: 20.00 +20.0 20.06 -23.2 16.6 24.3 28.3 9 0 Alarm State:  0
Thu May 19 00:57:18 PDT 2022 ON: 19.98 +20.0 20.03 -23.1 16.7 24.2 28.3 10 1 Alarm State:  0
Thu May 19 00:56:17 PDT 2022 ON: 20.00 +20.0 20.05 -23.2 16.6 24.3 28.3 9 0 Alarm State:  0
Thu May 19 00:55:15 PDT 2022 ON: 20.00 +20.0 20.06 -23.1 16.7 24.2 28.3 9 0 Alarm State:  0
Thu May 19 00:54:14 PDT 2022 ON: 19.99 +20.0 20.05 -23.2 16.6 24.3 28.3 10 0 Alarm State:  0
Thu May 19 00:53:12 PDT 2022 ON: 20.00 +20.0 20.03 -23.1 16.7 24.2 28.3 9 1 Alarm State:  0
Thu May 19 00:52:11 PDT 2022 ON: 19.99 +20.0 20.04 -23.2 16.6 24.3 28.3 10 1 Alarm State:  0
Thu May 19 00:51:09 PDT 2022 ON: 19.99 +20.0 20.05 -23.2 16.6 24.3 28.3 10 1 Alarm State:  0
Thu May 19 00:50:08 PDT 2022 ON: 19.99 +20.0 20.04 -23.1 16.7 24.2 28.3 9 0 Alarm State:  0
Thu May 19 00:49:06 PDT 2022 ON: 20.00 +20.0 20.04 -23.2 16.6 24.3 28.3 10 1 Alarm State:  0
Thu May 19 00:48:05 PDT 2022 ON: 19.99 +20.0 20.04 -23.1 16.7 24.2 28.3 10 1 Alarm State:  0
Thu May 19 00:47:03 PDT 2022 ON: 20.00 +20.0 20.05 -23.2 16.6 24.3 28.3 9 0 Alarm State:  0
Thu May 19 00:46:02 PDT 2022 ON: 20.00 +20.0 20.04 -23.3 16.5 24.4 28.3 10 1 Alarm State:  0
Thu May 19 00:45:00 PDT 2022 ON: 19.99 +20.0 20.03 -23.3 16.5 24.4 28.3 9 1 Alarm State:  0
Thu May 19 00:43:59 PDT 2022 ON: 20.00 +20.0 20.04 -23.3 16.5 24.4 28.3 10 1 Alarm State:  0
Thu May 19 00:42:57 PDT 2022 ON: 20.00 +20.0 20.05 -23.3 16.5 24.4 28.3 10 0 Alarm State:  0
Thu May 19 00:41:56 PDT 2022 ON: 20.00 +20.0 20.03 -23.3 16.5 24.4 28.3 9 1 Alarm State:  0
Thu May 19 00:40:54 PDT 2022 ON: 20.00 +20.0 20.05 -23.3 16.5 24.4 28.3 10 0 Alarm State:  0
Thu May 19 00:39:53 PDT 2022 ON: 19.99 +20.0 20.03 -23.1 16.7 24.2 28.3 9 2 Alarm State:  0
Thu May 19 00:38:51 PDT 2022 ON: 19.99 +20.0 20.05 -23.2 16.6 24.3 28.3 9 0 Alarm State:  0
Thu May 19 00:37:50 PDT 2022 ON: 20.00 +20.0 20.06 -23.3 16.5 24.4 28.3 10 0 Alarm State:  0
Thu May 19 00:36:48 PDT 2022 ON: 20.00 +20.0 20.05 -23.3 16.5 24.4 28.3 10 0 Alarm State:  0
Thu May 19 00:35:46 PDT 2022 ON: 19.99 +20.0 20.04 -23.2 16.6 24.3 28.3 10 1 Alarm State:  0
Thu May 19 00:34:45 PDT 2022 ON: 20.00 +20.0 20.05 -23.1 16.7 24.2 28.3 10 0 Alarm State:  0
Thu May 19 00:33:43 PDT 2022 ON: 19.99 +20.0 20.05 -23.3 16.5 24.4 28.3 9 0 Alarm State:  0
Thu May 19 00:32:42 PDT 2022 ON: 20.00 +20.0 20.04 -23.1 16.7 24.2 28.3 10 1 Alarm State:  0
Thu May 19 00:31:40 PDT 2022 ON: 19.99 +20.0 20.03 -23.0 16.8 24.2 28.3 9 1 Alarm State:  0
Thu May 19 00:30:39 PDT 2022 ON: 20.00 +20.0 20.05 -23.2 16.6 24.3 28.3 9 0 Alarm State:  0
Thu May 19 00:29:37 PDT 2022 ON: 19.99 +20.0 20.03 -23.3 16.5 24.4 28.3 10 1 Alarm State:  0
Thu May 19 00:28:36 PDT 2022 ON: 19.99 +20.0 20.04 -23.3 16.4 24.5 28.3 10 1 Alarm State:  0
Thu May 19 00:27:34 PDT 2022 ON: 20.00 +20.0 20.04 -23.3 16.5 24.4 28.3 10 1 Alarm State:  0
Thu May 19 00:26:33 PDT 2022 ON: 20.00 +20.0 20.04 -23.2 16.6 24.3 28.3 10 1 Alarm State:  0
Thu May 19 00:25:31 PDT 2022 ON: 20.00 +20.0 20.06 -23.3 16.5 24.4 28.3 9 0 Alarm State:  0
Thu May 19 00:24:30 PDT 2022 ON: 19.99 +20.0 20.03 -23.0 16.8 24.2 28.3 10 1 Alarm State:  0
Thu May 19 00:23:28 PDT 2022 ON: 19.99 +20.0 20.04 -23.2 16.6 24.3 28.3 10 1 Alarm State:  0
Thu May 19 00:22:27 PDT 2022 ON: 20.00 +20.0 20.05 -23.1 16.7 24.2 28.3 9 0 Alarm State:  0
Thu May 19 00:21:25 PDT 2022 ON: 19.99 +20.0 20.05 -23.3 16.4 24.5 28.3 10 0 Alarm State:  0
Thu May 19 00:20:24 PDT 2022 ON: 20.00 +20.0 20.05 -23.3 16.5 24.4 28.3 10 0 Alarm State:  0
Thu May 19 00:19:22 PDT 2022 ON: 19.99 +20.0 20.03 -23.3 16.5 24.4 28.3 10 1 Alarm State:  0
Thu May 19 00:18:21 PDT 2022 ON: 20.00 +20.0 20.05 -23.3 16.5 24.4 28.3 10 0 Alarm State:  0
Thu May 19 00:17:19 PDT 2022 ON: 19.99 +20.0 20.04 -23.2 16.6 24.3 28.3 9 1 Alarm State:  0
Thu May 19 00:16:18 PDT 2022 ON: 19.99 +20.0 20.04 -23.2 16.6 24.3 28.3 10 1 Alarm State:  0
Thu May 19 00:15:16 PDT 2022 ON: 20.00 +20.0 20.04 -23.2 16.6 24.3 28.3 10 1 Alarm State:  0
Thu May 19 00:14:15 PDT 2022 ON: 20.00 +20.0 20.05 -23.2 16.6 24.3 28.3 9 0 Alarm State:  0
Thu May 19 00:13:13 PDT 2022 ON: 20.00 +20.0 20.05 -23.3 16.4 24.5 28.3 10 0 Alarm State:  0
Thu May 19 00:12:12 PDT 2022 ON: 19.99 +20.0 20.03 -23.2 16.6 24.3 28.3 10 2 Alarm State:  0
Thu May 19 00:11:10 PDT 2022 ON: 20.00 +20.0 20.04 -23.2 16.6 24.3 28.3 10 1 Alarm State:  0
Thu May 19 00:10:09 PDT 2022 ON: 19.99 +20.0 20.05 -23.2 16.6 24.3 28.3 10 0 Alarm State:  0
Thu May 19 00:09:07 PDT 2022 ON: 20.00 +20.0 20.05 -23.1 16.7 24.2 28.3 9 0 Alarm State:  0
Thu May 19 00:08:06 PDT 2022 ON: 19.99 +20.0 20.03 -23.1 16.7 24.2 28.3 10 1 Alarm State:  0
Thu May 19 00:07:04 PDT 2022 ON: 20.00 +20.0 20.06 -23.3 16.4 24.5 28.3 10 0 Alarm State:  0
Thu May 19 00:06:03 PDT 2022 ON: 20.00 +20.0 20.05 -23.0 16.8 24.2 28.3 9 0 Alarm State:  0
Thu May 19 00:05:01 PDT 2022 ON: 20.00 +20.0 20.06 -23.1 16.7 24.2 28.3 10 0 Alarm State:  0
Thu May 19 00:04:00 PDT 2022 ON: 19.99 +20.0 20.04 -23.2 16.6 24.3 28.3 9 1 Alarm State:  0
Thu May 19 00:02:58 PDT 2022 ON: 19.99 +20.0 20.03 -23.2 16.6 24.3 28.3 10 1 Alarm State:  0
Thu May 19 00:01:57 PDT 2022 ON: 20.00 +20.0 20.04 -23.3 16.4 24.5 28.3 10 1 Alarm State:  0
Thu May 19 00:00:55 PDT 2022 ON: 20.00 +20.0 20.04 -23.1 16.7 24.2 28.3 9 1 Alarm State:  0
Wed May 18 23:59:54 PDT 2022 ON: 19.99 +20.0 20.04 -23.1 16.7 24.2 28.3 10 1 Alarm State:  0
Wed May 18 23:58:52 PDT 2022 ON: 19.99 +20.0 20.03 -23.0 16.8 24.2 28.3 10 1 Alarm State:  0
Wed May 18 23:57:51 PDT 2022 ON: 19.99 +20.0 20.03 -23.2 16.6 24.3 28.3 9 1 Alarm State:  0
Wed May 18 23:56:49 PDT 2022 ON: 20.00 +20.0 20.04 -22.9 16.9 24.1 28.3 10 1 Alarm State:  0
Wed May 18 23:55:48 PDT 2022 ON: 19.99 +20.0 20.04 -23.0 16.8 24.2 28.3 9 1 Alarm State:  0
Wed May 18 23:54:46 PDT 2022 ON: 20.00 +20.0 20.06 -23.3 16.5 24.4 28.3 10 0 Alarm State:  0
Wed May 18 23:53:45 PDT 2022 ON: 20.00 +20.0 20.06 -23.2 16.6 24.3 28.3 9 0 Alarm State:  0
Wed May 18 23:52:43 PDT 2022 ON: 19.99 +20.0 20.04 -23.2 16.6 24.3 28.3 9 1 Alarm State:  0
Wed May 18 23:51:42 PDT 2022 ON: 20.00 +20.0 20.06 -23.2 16.6 24.3 28.3 10 0 Alarm State:  0
Wed May 18 23:50:40 PDT 2022 ON: 20.00 +20.0 20.05 -23.2 16.6 24.3 28.3 10 0 Alarm State:  0
Wed May 18 23:49:39 PDT 2022 ON: 19.99 +20.0 20.04 -23.3 16.5 24.4 28.3 10 1 Alarm State:  0
Wed May 18 23:48:37 PDT 2022 ON: 20.00 +20.0 20.04 -23.3 16.5 24.4 28.3 10 1 Alarm State:  0
Wed May 18 23:47:36 PDT 2022 ON: 20.00 +20.0 20.05 -23.1 16.7 24.2 28.3 9 0 Alarm State:  0
Wed May 18 23:46:34 PDT 2022 ON: 19.99 +20.0 20.04 -23.3 16.4 24.5 28.3 10 1 Alarm State:  0
Wed May 18 23:45:33 PDT 2022 ON: 19.99 +20.0 20.04 -23.1 16.7 24.2 28.3 10 1 Alarm State:  0
Wed May 18 23:44:31 PDT 2022 ON: 19.99 +20.0 20.05 -23.3 16.4 24.5 28.3 9 0 Alarm State:  0
Wed May 18 23:43:30 PDT 2022 ON: 19.99 +20.0 20.05 -23.3 16.5 24.4 28.3 10 0 Alarm State:  0
Wed May 18 23:42:28 PDT 2022 ON: 20.00 +20.0 20.05 -23.2 16.6 24.3 28.3 9 0 Alarm State:  0
Wed May 18 23:41:27 PDT 2022 ON: 20.00 +20.0 20.04 -23.1 16.7 24.2 28.3 9 1 Alarm State:  0
Wed May 18 23:40:25 PDT 2022 ON: 19.99 +20.0 20.05 -23.3 16.5 24.4 28.3 10 0 Alarm State:  0
Wed May 18 23:39:24 PDT 2022 ON: 19.99 +20.0 20.04 -23.0 16.8 24.2 28.4 9 1 Alarm State:  0
Wed May 18 23:38:22 PDT 2022 ON: 20.00 +20.0 20.05 -23.3 16.4 24.5 28.3 9 0 Alarm State:  0
Wed May 18 23:37:20 PDT 2022 ON: 19.99 +20.0 20.05 -23.3 16.5 24.4 28.4 10 0 Alarm State:  0
Wed May 18 23:36:19 PDT 2022 ON: 19.99 +20.0 20.05 -23.1 16.7 24.2 28.3 9 0 Alarm State:  0
Wed May 18 23:35:17 PDT 2022 ON: 20.00 +20.0 20.04 -23.2 16.6 24.3 28.3 10 1 Alarm State:  0
Wed May 18 23:34:16 PDT 2022 ON: 19.99 +20.0 20.03 -23.1 16.7 24.2 28.3 9 2 Alarm State:  0
Wed May 18 23:33:14 PDT 2022 ON: 19.99 +20.0 20.03 -23.4 16.3 24.6 28.3 10 1 Alarm State:  0
Wed May 18 23:32:13 PDT 2022 ON: 20.00 +20.0 20.04 -23.3 16.5 24.4 28.3 10 1 Alarm State:  0
Wed May 18 23:31:11 PDT 2022 ON: 19.99 +20.0 20.04 -23.1 16.7 24.2 28.3 9 1 Alarm State:  0
Wed May 18 23:30:10 PDT 2022 ON: 19.99 +20.0 20.04 -23.2 16.6 24.3 28.3 10 1 Alarm State:  0
Wed May 18 23:29:08 PDT 2022 ON: 20.00 +20.0 20.05 -23.3 16.5 24.4 28.3 10 0 Alarm State:  0
Wed May 18 23:28:07 PDT 2022 ON: 20.00 +20.0 20.06 -23.3 16.5 24.4 28.3 9 0 Alarm State:  0
Wed May 18 23:27:05 PDT 2022 ON: 19.99 +20.0 20.06 -23.1 16.7 24.2 28.4 10 0 Alarm State:  0
Wed May 18 23:26:04 PDT 2022 ON: 19.99 +20.0 20.03 -23.3 16.5 24.4 28.3 10 1 Alarm State:  0
Wed May 18 23:25:02 PDT 2022 ON: 19.99 +20.0 20.03 -23.2 16.6 24.3 28.3 10 1 Alarm State:  0
Wed May 18 23:24:01 PDT 2022 ON: 20.00 +20.0 20.05 -23.1 16.7 24.2 28.3 10 0 Alarm State:  0
Wed May 18 23:22:59 PDT 2022 ON: 19.99 +20.0 20.04 -23.2 16.6 24.3 28.3 9 1 Alarm State:  0
Wed May 18 23:21:58 PDT 2022 ON: 19.99 +20.0 20.04 -23.2 16.6 24.3 28.3 10 1 Alarm State:  0
Wed May 18 23:20:56 PDT 2022 ON: 19.99 +20.0 20.03 -23.2 16.6 24.3 28.3 10 1 Alarm State:  0
Wed May 18 23:19:55 PDT 2022 ON: 19.99 +20.0 20.05 -23.1 16.7 24.2 28.3 9 0 Alarm State:  0
Wed May 18 23:18:53 PDT 2022 ON: 20.00 +20.0 20.05 -23.3 16.5 24.4 28.3 10 0 Alarm State:  0
Wed May 18 23:17:52 PDT 2022 ON: 19.99 +20.0 20.03 -22.9 16.9 24.1 28.4 9 1 Alarm State:  0
Wed May 18 23:16:50 PDT 2022 ON: 19.99 +20.0 20.04 -23.3 16.4 24.5 28.3 10 1 Alarm State:  0
Wed May 18 23:15:49 PDT 2022 ON: 19.99 +20.0 20.04 -23.1 16.7 24.2 28.3 10 1 Alarm State:  0
Wed May 18 23:14:47 PDT 2022 ON: 19.99 +20.0 20.04 -23.2 16.6 24.3 28.3 9 1 Alarm State:  0
Wed May 18 23:13:46 PDT 2022 ON: 20.00 +20.0 20.05 -23.2 16.6 24.3 28.3 10 0 Alarm State:  0
Wed May 18 23:12:44 PDT 2022 ON: 19.99 +20.0 20.04 -23.3 16.5 24.4 28.3 10 1 Alarm State:  0
Wed May 18 23:11:43 PDT 2022 ON: 20.00 +20.0 20.06 -23.2 16.6 24.3 28.3 9 0 Alarm State:  0
Wed May 18 23:10:41 PDT 2022 ON: 20.00 +20.0 20.05 -23.3 16.5 24.4 28.3 10 0 Alarm State:  0
Wed May 18 23:09:40 PDT 2022 ON: 19.99 +20.0 20.04 -23.2 16.6 24.3 28.3 10 1 Alarm State:  0
Wed May 18 23:08:38 PDT 2022 ON: 19.99 +20.0 20.03 -23.3 16.5 24.4 28.3 10 1 Alarm State:  0
Wed May 18 23:07:37 PDT 2022 ON: 20.00 +20.0 20.06 -23.2 16.6 24.3 28.3 10 0 Alarm State:  0
Wed May 18 23:06:35 PDT 2022 ON: 19.99 +20.0 20.04 -23.0 16.8 24.2 28.4 9 1 Alarm State:  0
Wed May 18 23:05:34 PDT 2022 ON: 19.99 +20.0 20.04 -23.3 16.4 24.5 28.3 10 1 Alarm State:  0
Wed May 18 23:04:32 PDT 2022 ON: 20.00 +20.0 20.05 -23.2 16.6 24.3 28.4 9 0 Alarm State:  0
Wed May 18 23:03:31 PDT 2022 ON: 19.99 +20.0 20.04 -23.1 16.7 24.2 28.3 9 0 Alarm State:  0
Wed May 18 23:02:29 PDT 2022 ON: 20.00 +20.0 20.04 -23.1 16.7 24.2 28.3 10 1 Alarm State:  0
Wed May 18 23:01:28 PDT 2022 ON: 19.99 +20.0 20.04 -23.2 16.6 24.3 28.3 9 1 Alarm State:  0
Wed May 18 23:00:26 PDT 2022 ON: 20.00 +20.0 20.04 -23.2 16.6 24.3 28.3 10 1 Alarm State:  0
Wed May 18 22:59:25 PDT 2022 ON: 19.99 +20.0 20.04 -23.2 16.6 24.3 28.3 10 1 Alarm State:  0
Wed May 18 22:58:23 PDT 2022 ON: 20.00 +20.0 20.04 -23.3 16.4 24.5 28.3 9 0 Alarm State:  0
Wed May 18 22:57:22 PDT 2022 ON: 19.99 +20.0 20.04 -23.1 16.7 24.2 28.4 9 1 Alarm State:  0
Wed May 18 22:56:20 PDT 2022 ON: 19.99 +20.0 20.05 -23.3 16.5 24.4 28.4 10 1 Alarm State:  0
Wed May 18 22:55:19 PDT 2022 ON: 19.99 +20.0 20.05 -23.0 16.8 24.2 28.4 9 0 Alarm State:  0
Wed May 18 22:54:17 PDT 2022 ON: 19.99 +20.0 20.05 -23.3 16.5 24.4 28.3 10 0 Alarm State:  0
Wed May 18 22:53:16 PDT 2022 ON: 19.99 +20.0 20.04 -23.1 16.7 24.2 28.3 9 1 Alarm State:  0
Wed May 18 22:52:14 PDT 2022 ON: 20.00 +20.0 20.05 -23.3 16.5 24.4 28.3 10 0 Alarm State:  0
Wed May 18 22:51:13 PDT 2022 ON: 20.00 +20.0 20.05 -23.2 16.6 24.3 28.3 10 1 Alarm State:  0
Wed May 18 22:50:11 PDT 2022 ON: 20.00 +20.0 20.05 -23.3 16.5 24.4 28.3 9 0 Alarm State:  0
Wed May 18 22:49:10 PDT 2022 ON: 19.99 +20.0 20.04 -23.3 16.4 24.5 28.3 10 1 Alarm State:  0
Wed May 18 22:48:08 PDT 2022 ON: 20.00 +20.0 20.05 -23.1 16.7 24.2 28.3 10 0 Alarm State:  0
Wed May 18 22:47:07 PDT 2022 ON: 19.99 +20.0 20.05 -23.3 16.5 24.4 28.3 9 0 Alarm State:  0
Wed May 18 22:46:05 PDT 2022 ON: 20.00 +20.0 20.06 -23.3 16.5 24.4 28.3 10 0 Alarm State:  0
Wed May 18 22:45:04 PDT 2022 ON: 19.99 +20.0 20.04 -23.2 16.6 24.3 28.3 10 1 Alarm State:  0
Wed May 18 22:44:02 PDT 2022 ON: 19.99 +20.0 20.03 -23.3 16.5 24.4 28.3 10 1 Alarm State:  0
Wed May 18 22:43:01 PDT 2022 ON: 20.00 +20.0 20.05 -23.1 16.7 24.2 28.4 10 0 Alarm State:  0
Wed May 18 22:41:59 PDT 2022 ON: 20.00 +20.0 20.04 -23.2 16.6 24.3 28.3 9 1 Alarm State:  0
Wed May 18 22:40:58 PDT 2022 ON: 19.99 +20.0 20.04 -23.3 16.5 24.4 28.3 10 1 Alarm State:  0
Wed May 18 22:39:56 PDT 2022 ON: 19.99 +20.0 20.02 -23.2 16.6 24.3 28.3 10 2 Alarm State:  0
Wed May 18 22:38:55 PDT 2022 ON: 20.01 +20.0 20.06 -23.5 16.2 24.7 28.3 10 0 Alarm State:  0
Wed May 18 22:37:53 PDT 2022 ON: 20.00 +20.0 20.05 -23.2 16.6 24.3 28.3 10 0 Alarm State:  0
Wed May 18 22:36:52 PDT 2022 ON: 19.99 +20.0 20.05 -23.3 16.5 24.4 28.3 9 0 Alarm State:  0
Wed May 18 22:35:50 PDT 2022 ON: 19.99 +20.0 20.04 -23.1 16.7 24.2 28.4 10 1 Alarm State:  0
Wed May 18 22:34:49 PDT 2022 ON: 19.99 +20.0 20.02 -23.1 16.7 24.2 28.3 10 2 Alarm State:  0
Wed May 18 22:33:47 PDT 2022 ON: 20.00 +20.0 20.04 -23.2 16.6 24.3 28.4 9 1 Alarm State:  0
Wed May 18 22:32:45 PDT 2022 ON: 20.00 +20.0 20.04 -23.2 16.6 24.3 28.3 10 1 Alarm State:  0
Wed May 18 22:31:44 PDT 2022 ON: 20.00 +20.0 20.04 -23.1 16.7 24.2 28.4 9 1 Alarm State:  0
Wed May 18 22:30:42 PDT 2022 ON: 19.99 +20.0 20.04 -23.2 16.6 24.3 28.3 10 1 Alarm State:  0
Wed May 18 22:29:41 PDT 2022 ON: 20.00 +20.0 20.04 -23.1 16.7 24.2 28.3 10 1 Alarm State:  0
Wed May 18 22:28:39 PDT 2022 ON: 19.99 +20.0 20.05 -23.3 16.5 24.4 28.3 9 0 Alarm State:  0
Wed May 18 22:27:38 PDT 2022 ON: 20.00 +20.0 20.05 -23.2 16.6 24.3 28.4 10 0 Alarm State:  0
Wed May 18 22:26:36 PDT 2022 ON: 20.00 +20.0 20.04 -23.1 16.7 24.2 28.3 9 0 Alarm State:  0
Wed May 18 22:25:35 PDT 2022 ON: 20.00 +20.0 20.05 -23.0 16.8 24.2 28.4 9 0 Alarm State:  0
Wed May 18 22:24:33 PDT 2022 ON: 20.00 +20.0 20.05 -23.2 16.6 24.3 28.3 10 0 Alarm State:  0
Wed May 18 22:23:32 PDT 2022 ON: 20.01 +20.0 20.05 -23.1 16.7 24.2 28.3 10 0 Alarm State:  0
Wed May 18 22:22:30 PDT 2022 ON: 19.99 +20.0 20.05 -23.3 16.5 24.4 28.3 9 1 Alarm State:  0
Wed May 18 22:21:29 PDT 2022 ON: 19.99 +20.0 20.03 -23.1 16.7 24.2 28.3 10 1 Alarm State:  0
Wed May 18 22:20:27 PDT 2022 ON: 20.00 +20.0 20.04 -23.3 16.5 24.4 28.3 9 1 Alarm State:  0
Wed May 18 22:19:26 PDT 2022 ON: 19.99 +20.0 20.03 -23.2 16.6 24.3 28.3 10 1 Alarm State:  0
Wed May 18 22:18:24 PDT 2022 ON: 19.99 +20.0 20.03 -23.2 16.6 24.3 28.3 10 1 Alarm State:  0
Wed May 18 22:17:23 PDT 2022 ON: 19.99 +20.0 20.04 -22.9 16.9 24.1 28.4 9 1 Alarm State:  0
Wed May 18 22:16:21 PDT 2022 ON: 20.00 +20.0 20.05 -23.2 16.6 24.3 28.3 10 0 Alarm State:  0
Wed May 18 22:15:20 PDT 2022 ON: 20.00 +20.0 20.05 -23.2 16.6 24.3 28.3 10 1 Alarm State:  0
Wed May 18 22:14:18 PDT 2022 ON: 19.99 +20.0 20.05 -23.2 16.6 24.3 28.3 10 0 Alarm State:  0
Wed May 18 22:13:17 PDT 2022 ON: 20.00 +20.0 20.04 -23.2 16.6 24.3 28.3 10 0 Alarm State:  0
Wed May 18 22:12:15 PDT 2022 ON: 20.00 +20.0 20.05 -23.2 16.6 24.3 28.3 9 0 Alarm State:  0
Wed May 18 22:11:14 PDT 2022 ON: 20.01 +20.0 20.05 -23.3 16.5 24.4 28.3 10 0 Alarm State:  0
Wed May 18 22:10:12 PDT 2022 ON: 19.99 +20.0 20.04 -23.3 16.4 24.5 28.3 10 1 Alarm State:  0
Wed May 18 22:09:11 PDT 2022 ON: 19.99 +20.0 20.05 -23.3 16.5 24.4 28.3 9 0 Alarm State:  0
Wed May 18 22:08:09 PDT 2022 ON: 20.00 +20.0 20.05 -23.2 16.6 24.3 28.3 10 0 Alarm State:  0
Wed May 18 22:07:08 PDT 2022 ON: 19.99 +20.0 20.04 -23.2 16.6 24.3 28.3 9 1 Alarm State:  0
Wed May 18 22:06:06 PDT 2022 ON: 20.00 +20.0 20.04 -23.2 16.6 24.3 28.3 10 1 Alarm State:  0
Wed May 18 22:05:05 PDT 2022 ON: 20.00 +20.0 20.06 -23.3 16.5 24.4 28.4 10 0 Alarm State:  0
Wed May 18 22:04:03 PDT 2022 ON: 20.00 +20.0 20.04 -23.3 16.5 24.4 28.3 9 1 Alarm State:  0
Wed May 18 22:03:02 PDT 2022 ON: 20.00 +20.0 20.05 -23.3 16.5 24.4 28.3 10 0 Alarm State:  0
Wed May 18 22:02:00 PDT 2022 ON: 20.00 +20.0 20.05 -23.1 16.7 24.2 28.3 10 0 Alarm State:  0
Wed May 18 22:00:59 PDT 2022 ON: 20.00 +20.0 20.05 -23.1 16.7 24.2 28.3 9 0 Alarm State:  0
Wed May 18 21:59:57 PDT 2022 ON: 20.00 +20.0 20.05 -23.1 16.7 24.2 28.4 10 0 Alarm State:  0
Wed May 18 21:58:56 PDT 2022 ON: 19.99 +20.0 20.05 -23.3 16.4 24.5 28.3 10 1 Alarm State:  0
Wed May 18 21:57:54 PDT 2022 ON: 19.99 +20.0 20.04 -23.3 16.5 24.4 28.3 10 1 Alarm State:  0
Wed May 18 21:56:53 PDT 2022 ON: 20.00 +20.0 20.05 -23.3 16.5 24.4 28.3 10 0 Alarm State:  0
Wed May 18 21:55:51 PDT 2022 ON: 20.00 +20.0 20.05 -23.2 16.6 24.3 28.3 9 0 Alarm State:  0
Wed May 18 21:54:50 PDT 2022 ON: 19.99 +20.0 20.03 -23.2 16.6 24.3 28.3 10 1 Alarm State:  0
Wed May 18 21:53:48 PDT 2022 ON: 20.00 +20.0 20.05 -23.3 16.4 24.5 28.3 10 0 Alarm State:  0
Wed May 18 21:52:47 PDT 2022 ON: 20.00 +20.0 20.05 -23.2 16.6 24.3 28.4 9 0 Alarm State:  0
Wed May 18 21:51:45 PDT 2022 ON: 20.00 +20.0 20.06 -23.2 16.6 24.3 28.4 10 0 Alarm State:  0
Wed May 18 21:50:44 PDT 2022 ON: 19.98 +20.0 20.03 -23.2 16.6 24.3 28.3 10 1 Alarm State:  0
Wed May 18 21:49:42 PDT 2022 ON: 19.99 +20.0 20.04 -23.3 16.5 24.4 28.3 10 0 Alarm State:  0
Wed May 18 21:48:41 PDT 2022 ON: 19.99 +20.0 20.04 -23.3 16.4 24.5 28.3 10 1 Alarm State:  0
Wed May 18 21:47:39 PDT 2022 ON: 19.99 +20.0 20.04 -23.1 16.7 24.2 28.3 9 1 Alarm State:  0
Wed May 18 21:46:38 PDT 2022 ON: 20.00 +20.0 20.04 -23.3 16.4 24.5 28.3 10 1 Alarm State:  0
Wed May 18 21:45:36 PDT 2022 ON: 19.99 +20.0 20.03 -23.1 16.7 24.2 28.3 9 1 Alarm State:  0
Wed May 18 21:44:35 PDT 2022 ON: 20.00 +20.0 20.06 -23.3 16.5 24.4 28.3 9 0 Alarm State:  0
Wed May 18 21:43:33 PDT 2022 ON: 20.00 +20.0 20.04 -23.3 16.4 24.5 28.3 10 1 Alarm State:  0
Wed May 18 21:42:32 PDT 2022 ON: 20.00 +20.0 20.03 -23.1 16.7 24.2 28.3 10 1 Alarm State:  0
Wed May 18 21:41:30 PDT 2022 ON: 20.01 +20.0 20.05 -23.1 16.7 24.2 28.3 9 0 Alarm State:  0
Wed May 18 21:40:29 PDT 2022 ON: 20.00 +20.0 20.05 -23.2 16.6 24.3 28.3 10 1 Alarm State:  0
Wed May 18 21:39:27 PDT 2022 ON: 19.99 +20.0 20.04 -23.1 16.7 24.2 28.4 9 1 Alarm State:  0
Wed May 18 21:38:26 PDT 2022 ON: 19.99 +20.0 20.03 -23.3 16.5 24.4 28.3 10 1 Alarm State:  0
Wed May 18 21:37:24 PDT 2022 ON: 20.00 +20.0 20.04 -23.3 16.5 24.4 28.3 10 1 Alarm State:  0
Wed May 18 21:36:23 PDT 2022 ON: 20.01 +20.0 20.06 -23.3 16.5 24.4 28.3 9 0 Alarm State:  0
Wed May 18 21:35:21 PDT 2022 ON: 19.99 +20.0 20.04 -23.0 16.8 24.2 28.4 10 1 Alarm State:  0
Wed May 18 21:34:20 PDT 2022 ON: 20.00 +20.0 20.04 -23.1 16.7 24.2 28.3 9 1 Alarm State:  0
Wed May 18 21:33:18 PDT 2022 ON: 19.99 +20.0 20.03 -23.1 16.7 24.2 28.3 10 1 Alarm State:  0
Wed May 18 21:32:17 PDT 2022 ON: 20.00 +20.0 20.05 -23.3 16.5 24.4 28.3 10 0 Alarm State:  0
Wed May 18 21:31:15 PDT 2022 ON: 20.00 +20.0 20.05 -23.1 16.7 24.2 28.3 9 0 Alarm State:  0
Wed May 18 21:30:14 PDT 2022 ON: 20.00 +20.0 20.05 -23.1 16.7 24.2 28.3 10 0 Alarm State:  0
Wed May 18 21:29:12 PDT 2022 ON: 19.99 +20.0 20.03 -23.2 16.6 24.3 28.3 10 1 Alarm State:  0
Wed May 18 21:28:10 PDT 2022 ON: 20.00 +20.0 20.04 -23.1 16.7 24.2 28.3 9 1 Alarm State:  0
Wed May 18 21:27:09 PDT 2022 ON: 20.00 +20.0 20.05 -23.1 16.7 24.2 28.3 10 0 Alarm State:  0
Wed May 18 21:26:07 PDT 2022 ON: 19.99 +20.0 20.03 -23.1 16.7 24.2 28.3 10 1 Alarm State:  0
Wed May 18 21:25:06 PDT 2022 ON: 19.98 +20.0 20.03 -23.3 16.5 24.4 28.3 10 1 Alarm State:  0
Wed May 18 21:24:04 PDT 2022 ON: 20.00 +20.0 20.05 -23.2 16.6 24.3 28.3 10 0 Alarm State:  0
Wed May 18 21:23:03 PDT 2022 ON: 19.99 +20.0 20.04 -23.1 16.7 24.2 28.3 9 1 Alarm State:  0
Wed May 18 21:22:01 PDT 2022 ON: 20.00 +20.0 20.04 -23.2 16.6 24.3 28.3 10 1 Alarm State:  0
Wed May 18 21:21:00 PDT 2022 ON: 19.99 +20.0 20.05 -23.3 16.5 24.4 28.3 10 1 Alarm State:  0
Wed May 18 21:19:58 PDT 2022 ON: 19.99 +20.0 20.03 -23.2 16.6 24.3 28.3 10 1 Alarm State:  0
Wed May 18 21:18:57 PDT 2022 ON: 20.00 +20.0 20.05 -23.2 16.6 24.3 28.3 10 0 Alarm State:  0
Wed May 18 21:17:55 PDT 2022 ON: 20.00 +20.0 20.05 -23.0 16.8 24.2 28.4 9 0 Alarm State:  0
Wed May 18 21:16:54 PDT 2022 ON: 19.98 +20.0 20.04 -23.3 16.5 24.4 28.3 9 1 Alarm State:  0
Wed May 18 21:15:52 PDT 2022 ON: 19.99 +20.0 20.03 -23.1 16.7 24.2 28.3 9 1 Alarm State:  0
Wed May 18 21:14:51 PDT 2022 ON: 20.00 +20.0 20.06 -23.3 16.5 24.4 28.3 9 0 Alarm State:  0
Wed May 18 21:13:49 PDT 2022 ON: 19.99 +20.0 20.05 -23.2 16.6 24.3 28.3 10 1 Alarm State:  0
Wed May 18 21:12:48 PDT 2022 ON: 19.99 +20.0 20.03 -23.2 16.6 24.3 28.3 10 2 Alarm State:  0
Wed May 18 21:11:46 PDT 2022 ON: 19.99 +20.0 20.04 -23.1 16.7 24.2 28.3 10 1 Alarm State:  0
Wed May 18 21:10:45 PDT 2022 ON: 19.99 +20.0 20.04 -23.2 16.6 24.3 28.3 10 1 Alarm State:  0
Wed May 18 21:09:43 PDT 2022 ON: 20.00 +20.0 20.05 -23.3 16.4 24.5 28.3 9 0 Alarm State:  0
Wed May 18 21:08:42 PDT 2022 ON: 19.99 +20.0 20.04 -23.2 16.6 24.3 28.3 10 1 Alarm State:  0
Wed May 18 21:07:40 PDT 2022 ON: 19.99 +20.0 20.03 -23.0 16.8 24.2 28.3 10 1 Alarm State:  0
Wed May 18 21:06:39 PDT 2022 ON: 20.00 +20.0 20.05 -23.2 16.6 24.3 28.3 9 0 Alarm State:  0
Wed May 18 21:05:37 PDT 2022 ON: 19.99 +20.0 20.05 -23.2 16.6 24.3 28.3 10 0 Alarm State:  0
Wed May 18 21:04:36 PDT 2022 ON: 19.99 +20.0 20.03 -22.9 16.9 24.1 28.4 10 1 Alarm State:  0
Wed May 18 21:03:34 PDT 2022 ON: 19.99 +20.0 20.04 -23.2 16.6 24.3 28.3 10 1 Alarm State:  0
Wed May 18 21:02:33 PDT 2022 ON: 19.99 +20.0 20.05 -23.2 16.6 24.3 28.3 10 1 Alarm State:  0
Wed May 18 21:01:31 PDT 2022 ON: 20.00 +20.0 20.05 -23.2 16.6 24.3 28.3 9 0 Alarm State:  0
Wed May 18 21:00:30 PDT 2022 ON: 19.99 +20.0 20.04 -23.3 16.5 24.4 28.3 10 1 Alarm State:  0
Wed May 18 20:59:28 PDT 2022 ON: 19.99 +20.0 20.04 -23.1 16.7 24.2 28.3 9 1 Alarm State:  0
Wed May 18 20:58:27 PDT 2022 ON: 20.00 +20.0 20.05 -23.3 16.5 24.4 28.3 9 0 Alarm State:  0
Wed May 18 20:57:25 PDT 2022 ON: 20.00 +20.0 20.06 -23.1 16.7 24.2 28.3 10 0 Alarm State:  0
Wed May 18 20:56:24 PDT 2022 ON: 19.99 +20.0 20.03 -23.0 16.8 24.2 28.3 10 1 Alarm State:  0
Wed May 18 20:55:22 PDT 2022 ON: 19.99 +20.0 20.04 -23.1 16.7 24.2 28.3 10 1 Alarm State:  0
Wed May 18 20:54:21 PDT 2022 ON: 19.99 +20.0 20.04 -23.0 16.8 24.2 28.4 10 1 Alarm State:  0
Wed May 18 20:53:19 PDT 2022 ON: 19.99 +20.0 20.04 -23.2 16.6 24.3 28.3 9 1 Alarm State:  0
Wed May 18 20:52:18 PDT 2022 ON: 20.00 +20.0 20.05 -23.3 16.5 24.4 28.3 10 0 Alarm State:  0
Wed May 18 20:51:16 PDT 2022 ON: 19.99 +20.0 20.03 -23.2 16.6 24.3 28.3 9 1 Alarm State:  0
Wed May 18 20:50:15 PDT 2022 ON: 19.99 +20.0 20.04 -23.1 16.7 24.2 28.3 9 1 Alarm State:  0
Wed May 18 20:49:13 PDT 2022 ON: 20.00 +20.0 20.05 -23.3 16.5 24.4 28.3 10 0 Alarm State:  0
Wed May 18 20:48:12 PDT 2022 ON: 19.99 +20.0 20.05 -23.3 16.5 24.4 28.3 10 1 Alarm State:  0
Wed May 18 20:47:10 PDT 2022 ON: 19.99 +20.0 20.03 -23.0 16.8 24.2 28.3 10 1 Alarm State:  0
Wed May 18 20:46:09 PDT 2022 ON: 19.99 +20.0 20.05 -23.3 16.5 24.4 28.3 10 0 Alarm State:  0
Wed May 18 20:45:07 PDT 2022 ON: 20.00 +20.0 20.05 -23.1 16.7 24.2 28.3 9 0 Alarm State:  0
Wed May 18 20:44:06 PDT 2022 ON: 20.00 +20.0 20.04 -23.3 16.5 24.4 28.3 9 1 Alarm State:  0
Wed May 18 20:43:04 PDT 2022 ON: 19.99 +20.0 20.03 -22.9 17.0 24.0 28.3 9 1 Alarm State:  0
Wed May 18 20:42:03 PDT 2022 ON: 20.00 +20.0 20.04 -23.2 16.6 24.3 28.3 9 0 Alarm State:  0
Wed May 18 20:41:01 PDT 2022 ON: 20.00 +20.0 20.05 -23.3 16.4 24.5 28.3 10 0 Alarm State:  0
Wed May 18 20:40:00 PDT 2022 ON: 19.99 +20.0 20.04 -23.1 16.7 24.2 28.3 10 1 Alarm State:  0
Wed May 18 20:38:58 PDT 2022 ON: 20.00 +20.0 20.03 -23.3 16.5 24.4 28.3 9 1 Alarm State:  0
Wed May 18 20:37:57 PDT 2022 ON: 20.00 +20.0 20.06 -23.0 16.8 24.2 28.3 10 0 Alarm State:  0
Wed May 18 20:36:55 PDT 2022 ON: 19.99 +20.0 20.04 -23.1 16.7 24.2 28.3 9 1 Alarm State:  0
Wed May 18 20:35:54 PDT 2022 ON: 20.00 +20.0 20.03 -23.2 16.6 24.3 28.3 10 1 Alarm State:  0
Wed May 18 20:34:52 PDT 2022 ON: 20.00 +20.0 20.04 -23.1 16.7 24.2 28.3 9 1 Alarm State:  0
Wed May 18 20:33:51 PDT 2022 ON: 19.99 +20.0 20.06 -23.2 16.6 24.3 28.3 9 0 Alarm State:  0
Wed May 18 20:32:49 PDT 2022 ON: 20.00 +20.0 20.05 -23.0 16.8 24.2 28.3 10 0 Alarm State:  0
Wed May 18 20:31:48 PDT 2022 ON: 19.99 +20.0 20.03 -23.1 16.7 24.2 28.3 10 2 Alarm State:  0
Wed May 18 20:30:46 PDT 2022 ON: 20.00 +20.0 20.05 -23.2 16.6 24.3 28.3 10 0 Alarm State:  0
Wed May 18 20:29:45 PDT 2022 ON: 20.00 +20.0 20.05 -23.2 16.6 24.3 28.3 10 0 Alarm State:  0
Wed May 18 20:28:43 PDT 2022 ON: 20.00 +20.0 20.05 -23.2 16.6 24.3 28.3 9 0 Alarm State:  0
Wed May 18 20:27:42 PDT 2022 ON: 19.99 +20.0 20.04 -23.1 16.7 24.2 28.3 10 1 Alarm State:  0
Wed May 18 20:26:40 PDT 2022 ON: 19.99 +20.0 20.04 -23.0 16.8 24.2 28.3 10 1 Alarm State:  0
Wed May 18 20:25:39 PDT 2022 ON: 20.00 +20.0 20.04 -23.2 16.6 24.3 28.3 9 1 Alarm State:  0
Wed May 18 20:24:37 PDT 2022 ON: 20.01 +20.0 20.06 -23.3 16.5 24.4 28.3 10 0 Alarm State:  0
Wed May 18 20:23:35 PDT 2022 ON: 19.99 +20.0 20.03 -23.1 16.7 24.2 28.3 10 2 Alarm State:  0
Wed May 18 20:22:34 PDT 2022 ON: 19.99 +20.0 20.04 -23.3 16.5 24.4 28.3 10 1 Alarm State:  0
Wed May 18 20:21:32 PDT 2022 ON: 20.00 +20.0 20.04 -23.3 16.5 24.4 28.3 10 0 Alarm State:  0
Wed May 18 20:20:31 PDT 2022 ON: 20.01 +20.0 20.05 -23.2 16.6 24.3 28.3 9 1 Alarm State:  0
Wed May 18 20:19:29 PDT 2022 ON: 19.99 +20.0 20.03 -23.0 16.8 24.2 28.3 10 2 Alarm State:  0
Wed May 18 20:18:28 PDT 2022 ON: 19.99 +20.0 20.03 -23.2 16.6 24.3 28.3 10 1 Alarm State:  0
Wed May 18 20:17:26 PDT 2022 ON: 20.00 +20.0 20.05 -23.0 16.8 24.2 28.3 9 0 Alarm State:  0
Wed May 18 20:16:25 PDT 2022 ON: 20.00 +20.0 20.05 -23.0 16.8 24.2 28.3 10 1 Alarm State:  0
Wed May 18 20:15:23 PDT 2022 ON: 19.99 +20.0 20.03 -23.2 16.6 24.3 28.3 10 1 Alarm State:  0
Wed May 18 20:14:22 PDT 2022 ON: 19.99 +20.0 20.04 -23.2 16.6 24.3 28.3 9 1 Alarm State:  0
Wed May 18 20:13:20 PDT 2022 ON: 20.00 +20.0 20.06 -23.3 16.5 24.4 28.3 10 0 Alarm State:  0
Wed May 18 20:12:19 PDT 2022 ON: 20.00 +20.0 20.05 -23.1 16.7 24.2 28.3 9 0 Alarm State:  0
Wed May 18 20:11:17 PDT 2022 ON: 19.99 +20.0 20.04 -23.3 16.5 24.4 28.3 10 1 Alarm State:  0
Wed May 18 20:10:16 PDT 2022 ON: 20.00 +20.0 20.05 -23.2 16.6 24.3 28.3 10 1 Alarm State:  0
Wed May 18 20:09:14 PDT 2022 ON: 19.99 +20.0 20.05 -23.0 16.8 24.2 28.3 9 1 Alarm State:  0
Wed May 18 20:08:13 PDT 2022 ON: 20.00 +20.0 20.04 -23.0 16.8 24.2 28.3 10 1 Alarm State:  0
Wed May 18 20:07:11 PDT 2022 ON: 19.99 +20.0 20.04 -23.1 16.7 24.2 28.3 10 1 Alarm State:  0
Wed May 18 20:06:10 PDT 2022 ON: 19.99 +20.0 20.04 -23.2 16.6 24.3 28.3 10 1 Alarm State:  0
Wed May 18 20:05:08 PDT 2022 ON: 19.99 +20.0 20.04 -23.2 16.6 24.3 28.3 10 1 Alarm State:  0
Wed May 18 20:04:07 PDT 2022 ON: 20.00 +20.0 20.05 -23.2 16.6 24.3 28.3 9 1 Alarm State:  0
Wed May 18 20:03:05 PDT 2022 ON: 19.99 +20.0 20.04 -23.2 16.6 24.3 28.3 10 1 Alarm State:  0
Wed May 18 20:02:04 PDT 2022 ON: 19.99 +20.0 20.03 -23.3 16.5 24.4 28.3 10 1 Alarm State:  0
Wed May 18 20:01:02 PDT 2022 ON: 19.99 +20.0 20.04 -23.1 16.7 24.2 28.3 10 1 Alarm State:  0
Wed May 18 20:00:01 PDT 2022 ON: 20.00 +20.0 20.05 -23.1 16.7 24.2 28.3 10 1 Alarm State:  0
Wed May 18 19:58:59 PDT 2022 ON: 19.99 +20.0 20.05 -23.3 16.5 24.4 28.3 9 0 Alarm State:  0
Wed May 18 19:57:58 PDT 2022 ON: 19.99 +20.0 20.04 -23.3 16.4 24.5 28.3 10 1 Alarm State:  0
Wed May 18 19:56:56 PDT 2022 ON: 20.00 +20.0 20.04 -23.3 16.5 24.4 28.3 10 1 Alarm State:  0
Wed May 18 19:55:55 PDT 2022 ON: 20.00 +20.0 20.06 -23.1 16.7 24.2 28.3 9 0 Alarm State:  0
Wed May 18 19:54:53 PDT 2022 ON: 20.00 +20.0 20.05 -23.2 16.6 24.3 28.3 10 0 Alarm State:  0
Wed May 18 19:53:52 PDT 2022 ON: 19.99 +20.0 20.04 -23.2 16.6 24.3 28.3 10 1 Alarm State:  0
Wed May 18 19:52:50 PDT 2022 ON: 19.99 +20.0 20.04 -23.2 16.6 24.3 28.3 10 1 Alarm State:  0
Wed May 18 19:51:49 PDT 2022 ON: 20.00 +20.0 20.05 -23.3 16.5 24.4 28.3 10 1 Alarm State:  0
Wed May 18 19:50:47 PDT 2022 ON: 20.00 +20.0 20.05 -23.1 16.7 24.2 28.3 9 0 Alarm State:  0
Wed May 18 19:49:46 PDT 2022 ON: 19.99 +20.0 20.04 -23.2 16.6 24.3 28.3 10 1 Alarm State:  0
Wed May 18 19:48:44 PDT 2022 ON: 19.99 +20.0 20.04 -23.3 16.5 24.4 28.3 10 1 Alarm State:  0
Wed May 18 19:47:43 PDT 2022 ON: 20.00 +20.0 20.05 -23.3 16.4 24.5 28.3 9 1 Alarm State:  0
Wed May 18 19:46:41 PDT 2022 ON: 20.00 +20.0 20.05 -23.1 16.7 24.2 28.3 10 0 Alarm State:  0
Wed May 18 19:45:40 PDT 2022 ON: 19.99 +20.0 20.04 -23.2 16.6 24.3 28.3 9 1 Alarm State:  0
Wed May 18 19:44:38 PDT 2022 ON: 19.98 +20.0 20.03 -23.1 16.7 24.2 28.3 10 1 Alarm State:  0
Wed May 18 19:43:37 PDT 2022 ON: 20.00 +20.0 20.04 -23.2 16.6 24.3 28.3 10 0 Alarm State:  0
Wed May 18 19:42:35 PDT 2022 ON: 20.01 +20.0 20.06 -23.1 16.7 24.2 28.3 9 0 Alarm State:  0
Wed May 18 19:41:34 PDT 2022 ON: 19.99 +20.0 20.04 -23.1 16.7 24.2 28.3 9 1 Alarm State:  0
Wed May 18 19:40:32 PDT 2022 ON: 19.99 +20.0 20.04 -23.3 16.5 24.4 28.3 9 1 Alarm State:  0
Wed May 18 19:39:31 PDT 2022 ON: 20.00 +20.0 20.06 -23.2 16.6 24.3 28.3 9 0 Alarm State:  0
Wed May 18 19:38:29 PDT 2022 ON: 19.99 +20.0 20.05 -23.1 16.7 24.2 28.3 10 1 Alarm State:  0
Wed May 18 19:37:28 PDT 2022 ON: 19.99 +20.0 20.04 -23.3 16.5 24.4 28.3 10 1 Alarm State:  0
Wed May 18 19:36:26 PDT 2022 ON: 20.00 +20.0 20.04 -23.3 16.5 24.4 28.3 10 1 Alarm State:  0
Wed May 18 19:35:25 PDT 2022 ON: 20.00 +20.0 20.05 -23.2 16.6 24.3 28.3 10 0 Alarm State:  0
Wed May 18 19:34:23 PDT 2022 ON: 20.00 +20.0 20.05 -23.2 16.6 24.3 28.3 9 1 Alarm State:  0
Wed May 18 19:33:22 PDT 2022 ON: 19.99 +20.0 20.03 -23.0 16.8 24.2 28.4 10 1 Alarm State:  0
Wed May 18 19:32:20 PDT 2022 ON: 19.99 +20.0 20.04 -23.3 16.5 24.4 28.3 10 1 Alarm State:  0
Wed May 18 19:31:19 PDT 2022 ON: 20.00 +20.0 20.06 -23.3 16.4 24.5 28.3 9 0 Alarm State:  0
Wed May 18 19:30:17 PDT 2022 ON: 19.99 +20.0 20.05 -23.3 16.5 24.4 28.3 10 0 Alarm State:  0
Wed May 18 19:29:16 PDT 2022 ON: 20.00 +20.0 20.03 -23.3 16.5 24.4 28.3 10 1 Alarm State:  0
Wed May 18 19:28:14 PDT 2022 ON: 20.00 +20.0 20.04 -23.3 16.5 24.4 28.3 10 1 Alarm State:  0
Wed May 18 19:27:13 PDT 2022 ON: 19.99 +20.0 20.05 -23.1 16.7 24.2 28.3 10 1 Alarm State:  0
Wed May 18 19:26:11 PDT 2022 ON: 20.00 +20.0 20.05 -23.1 16.7 24.2 28.3 9 0 Alarm State:  0
Wed May 18 19:25:10 PDT 2022 ON: 20.00 +20.0 20.04 -23.3 16.5 24.4 28.3 10 1 Alarm State:  0
Wed May 18 19:24:08 PDT 2022 ON: 19.99 +20.0 20.03 -23.2 16.6 24.3 28.3 10 1 Alarm State:  0
Wed May 18 19:23:06 PDT 2022 ON: 19.99 +20.0 20.03 -23.1 16.7 24.2 28.4 9 1 Alarm State:  0
Wed May 18 19:22:05 PDT 2022 ON: 20.00 +20.0 20.05 -23.2 16.6 24.3 28.3 10 0 Alarm State:  0
Wed May 18 19:21:03 PDT 2022 ON: 19.99 +20.0 20.04 -23.3 16.5 24.4 28.3 10 1 Alarm State:  0
Wed May 18 19:20:02 PDT 2022 ON: 20.00 +20.0 20.04 -23.2 16.6 24.3 28.3 10 1 Alarm State:  0
Wed May 18 19:19:00 PDT 2022 ON: 20.00 +20.0 20.05 -23.1 16.7 24.2 28.3 10 0 Alarm State:  0
Wed May 18 19:17:59 PDT 2022 ON: 20.00 +20.0 20.06 -23.4 16.3 24.6 28.3 9 0 Alarm State:  0
Wed May 18 19:16:57 PDT 2022 ON: 19.99 +20.0 20.04 -23.2 16.6 24.3 28.3 10 1 Alarm State:  0
Wed May 18 19:15:56 PDT 2022 ON: 20.00 +20.0 20.03 -23.1 16.7 24.2 28.3 10 1 Alarm State:  0
Wed May 18 19:14:54 PDT 2022 ON: 20.00 +20.0 20.06 -23.3 16.5 24.4 28.3 9 0 Alarm State:  0
Wed May 18 19:13:53 PDT 2022 ON: 20.00 +20.0 20.05 -23.1 16.7 24.2 28.4 10 0 Alarm State:  0
Wed May 18 19:12:51 PDT 2022 ON: 19.99 +20.0 20.04 -23.1 16.7 24.2 28.3 10 1 Alarm State:  0
Wed May 18 19:11:50 PDT 2022 ON: 19.99 +20.0 20.04 -23.2 16.6 24.3 28.3 10 1 Alarm State:  0
Wed May 18 19:10:48 PDT 2022 ON: 19.99 +20.0 20.04 -23.1 16.7 24.2 28.3 10 1 Alarm State:  0
Wed May 18 19:09:47 PDT 2022 ON: 19.99 +20.0 20.05 -23.2 16.6 24.3 28.3 9 0 Alarm State:  0
Wed May 18 19:08:45 PDT 2022 ON: 19.99 +20.0 20.05 -23.4 16.3 24.6 28.3 10 0 Alarm State:  0
Wed May 18 19:07:44 PDT 2022 ON: 19.99 +20.0 20.04 -23.2 16.6 24.3 28.3 10 1 Alarm State:  0
Wed May 18 19:06:42 PDT 2022 ON: 20.00 +20.0 20.05 -23.2 16.6 24.3 28.3 9 0 Alarm State:  0
Wed May 18 19:05:41 PDT 2022 ON: 20.00 +20.0 20.06 -23.3 16.5 24.4 28.3 10 0 Alarm State:  0
Wed May 18 19:04:39 PDT 2022 ON: 20.00 +20.0 20.05 -23.1 16.7 24.2 28.3 10 0 Alarm State:  0
Wed May 18 19:03:38 PDT 2022 ON: 20.00 +20.0 20.05 -23.3 16.5 24.4 28.4 10 0 Alarm State:  0
Wed May 18 19:02:36 PDT 2022 ON: 20.00 +20.0 20.05 -23.2 16.6 24.3 28.3 10 1 Alarm State:  0
Wed May 18 19:01:35 PDT 2022 ON: 19.99 +20.0 20.05 -23.3 16.4 24.5 28.3 9 0 Alarm State:  0
Wed May 18 19:00:33 PDT 2022 ON: 19.99 +20.0 20.03 -23.3 16.5 24.4 28.3 9 1 Alarm State:  0
Wed May 18 18:59:32 PDT 2022 ON: 19.99 +20.0 20.04 -23.1 16.7 24.2 28.3 9 1 Alarm State:  0
Wed May 18 18:58:30 PDT 2022 ON: 20.00 +20.0 20.04 -23.2 16.6 24.3 28.3 9 1 Alarm State:  0
Wed May 18 18:57:29 PDT 2022 ON: 20.00 +20.0 20.05 -23.3 16.5 24.4 28.3 10 1 Alarm State:  0
Wed May 18 18:56:27 PDT 2022 ON: 19.99 +20.0 20.04 -23.1 16.7 24.2 28.4 10 1 Alarm State:  0
Wed May 18 18:55:26 PDT 2022 ON: 20.00 +20.0 20.05 -23.3 16.5 24.4 28.3 10 0 Alarm State:  0
Wed May 18 18:54:24 PDT 2022 ON: 20.00 +20.0 20.06 -23.2 16.6 24.3 28.3 10 0 Alarm State:  0
Wed May 18 18:53:23 PDT 2022 ON: 20.00 +20.0 20.05 -23.3 16.5 24.4 28.3 9 0 Alarm State:  0
Wed May 18 18:52:21 PDT 2022 ON: 20.00 +20.0 20.04 -23.1 16.7 24.2 28.3 10 1 Alarm State:  0
Wed May 18 18:51:20 PDT 2022 ON: 19.99 +20.0 20.04 -23.2 16.6 24.3 28.3 9 1 Alarm State:  0
Wed May 18 18:50:18 PDT 2022 ON: 20.00 +20.0 20.06 -23.3 16.5 24.4 28.3 9 0 Alarm State:  0
Wed May 18 18:49:17 PDT 2022 ON: 20.00 +20.0 20.05 -23.3 16.5 24.4 28.3 10 0 Alarm State:  0
Wed May 18 18:48:15 PDT 2022 ON: 19.99 +20.0 20.04 -23.1 16.7 24.2 28.4 10 1 Alarm State:  0
Wed May 18 18:47:14 PDT 2022 ON: 19.99 +20.0 20.03 -23.2 16.6 24.3 28.3 10 1 Alarm State:  0
Wed May 18 18:46:12 PDT 2022 ON: 20.00 +20.0 20.06 -23.2 16.6 24.3 28.4 10 0 Alarm State:  0
Wed May 18 18:45:11 PDT 2022 ON: 20.00 +20.0 20.06 -23.2 16.6 24.3 28.3 9 0 Alarm State:  0
Wed May 18 18:44:09 PDT 2022 ON: 20.00 +20.0 20.05 -23.2 16.6 24.3 28.3 10 0 Alarm State:  0
Wed May 18 18:43:08 PDT 2022 ON: 19.99 +20.0 20.03 -23.3 16.5 24.4 28.3 9 1 Alarm State:  0
Wed May 18 18:42:06 PDT 2022 ON: 20.00 +20.0 20.05 -23.4 16.3 24.6 28.3 10 0 Alarm State:  0
Wed May 18 18:41:05 PDT 2022 ON: 20.00 +20.0 20.05 -23.3 16.5 24.4 28.3 10 0 Alarm State:  0
Wed May 18 18:40:03 PDT 2022 ON: 20.00 +20.0 20.05 -23.1 16.7 24.2 28.4 9 1 Alarm State:  0
Wed May 18 18:39:02 PDT 2022 ON: 19.99 +20.0 20.03 -23.2 16.6 24.3 28.4 10 1 Alarm State:  0
Wed May 18 18:38:00 PDT 2022 ON: 19.99 +20.0 20.03 -23.1 16.7 24.2 28.3 10 1 Alarm State:  0
Wed May 18 18:36:59 PDT 2022 ON: 20.00 +20.0 20.05 -23.2 16.6 24.3 28.3 9 0 Alarm State:  0
Wed May 18 18:35:57 PDT 2022 ON: 20.00 +20.0 20.06 -23.3 16.5 24.4 28.3 10 0 Alarm State:  0
Wed May 18 18:34:56 PDT 2022 ON: 19.99 +20.0 20.04 -23.2 16.6 24.3 28.3 10 1 Alarm State:  0
Wed May 18 18:33:54 PDT 2022 ON: 19.99 +20.0 20.03 -23.1 16.7 24.2 28.3 10 1 Alarm State:  0
Wed May 18 18:32:53 PDT 2022 ON: 20.00 +20.0 20.05 -23.2 16.6 24.3 28.3 10 0 Alarm State:  0
Wed May 18 18:31:51 PDT 2022 ON: 20.00 +20.0 20.05 -23.1 16.7 24.2 28.3 9 0 Alarm State:  0
Wed May 18 18:30:50 PDT 2022 ON: 19.99 +20.0 20.03 -23.2 16.6 24.3 28.3 9 1 Alarm State:  0
Wed May 18 18:29:48 PDT 2022 ON: 19.99 +20.0 20.04 -23.1 16.7 24.2 28.3 10 1 Alarm State:  0
Wed May 18 18:28:47 PDT 2022 ON: 20.00 +20.0 20.05 -23.3 16.4 24.5 28.3 9 1 Alarm State:  0
Wed May 18 18:27:45 PDT 2022 ON: 19.99 +20.0 20.05 -23.1 16.7 24.2 28.3 10 0 Alarm State:  0
Wed May 18 18:26:44 PDT 2022 ON: 19.99 +20.0 20.04 -23.1 16.7 24.2 28.3 10 1 Alarm State:  0
Wed May 18 18:25:42 PDT 2022 ON: 20.00 +20.0 20.05 -23.2 16.6 24.3 28.4 10 1 Alarm State:  0
Wed May 18 18:24:41 PDT 2022 ON: 20.00 +20.0 20.05 -23.2 16.6 24.3 28.3 10 0 Alarm State:  0
Wed May 18 18:23:39 PDT 2022 ON: 20.00 +20.0 20.06 -23.2 16.6 24.3 28.3 9 0 Alarm State:  0
Wed May 18 18:22:38 PDT 2022 ON: 19.99 +20.0 20.03 -23.2 16.6 24.3 28.3 9 1 Alarm State:  0
Wed May 18 18:21:36 PDT 2022 ON: 20.00 +20.0 20.03 -23.2 16.6 24.3 28.3 10 1 Alarm State:  0
Wed May 18 18:20:35 PDT 2022 ON: 20.00 +20.0 20.05 -23.1 16.7 24.2 28.4 9 1 Alarm State:  0
Wed May 18 18:19:33 PDT 2022 ON: 20.00 +20.0 20.05 -23.2 16.6 24.3 28.3 10 1 Alarm State:  0
Wed May 18 18:18:32 PDT 2022 ON: 19.99 +20.0 20.03 -23.1 16.7 24.2 28.4 10 1 Alarm State:  0
Wed May 18 18:17:30 PDT 2022 ON: 20.00 +20.0 20.04 -23.3 16.5 24.4 28.3 10 1 Alarm State:  0
Wed May 18 18:16:29 PDT 2022 ON: 19.99 +20.0 20.05 -23.2 16.6 24.3 28.4 10 1 Alarm State:  0
Wed May 18 18:15:27 PDT 2022 ON: 20.00 +20.0 20.05 -23.2 16.6 24.3 28.3 9 0 Alarm State:  0
Wed May 18 18:14:25 PDT 2022 ON: 19.99 +20.0 20.05 -23.3 16.4 24.5 28.3 10 0 Alarm State:  0
Wed May 18 18:13:24 PDT 2022 ON: 20.00 +20.0 20.04 -23.1 16.7 24.2 28.4 10 1 Alarm State:  0
Wed May 18 18:12:22 PDT 2022 ON: 20.00 +20.0 20.06 -23.2 16.6 24.3 28.3 9 0 Alarm State:  0
Wed May 18 18:11:21 PDT 2022 ON: 19.98 +20.0 20.04 -23.3 16.4 24.5 28.3 10 1 Alarm State:  0
Wed May 18 18:10:19 PDT 2022 ON: 19.99 +20.0 20.03 -23.0 16.8 24.2 28.4 10 1 Alarm State:  0
Wed May 18 18:09:18 PDT 2022 ON: 20.00 +20.0 20.04 -23.2 16.6 24.3 28.3 9 0 Alarm State:  0
Wed May 18 18:08:16 PDT 2022 ON: 20.00 +20.0 20.05 -23.3 16.5 24.4 28.3 9 0 Alarm State:  0
Wed May 18 18:07:15 PDT 2022 ON: 19.99 +20.0 20.04 -23.3 16.5 24.4 28.3 9 1 Alarm State:  0
Wed May 18 18:06:13 PDT 2022 ON: 19.99 +20.0 20.05 -23.3 16.5 24.4 28.3 9 1 Alarm State:  0
Wed May 18 18:05:12 PDT 2022 ON: 19.99 +20.0 20.04 -23.1 16.7 24.2 28.3 10 1 Alarm State:  0
Wed May 18 18:04:10 PDT 2022 ON: 20.00 +20.0 20.06 -23.3 16.5 24.4 28.3 9 0 Alarm State:  0
Wed May 18 18:03:09 PDT 2022 ON: 20.00 +20.0 20.05 -23.2 16.6 24.3 28.3 10 1 Alarm State:  0
Wed May 18 18:02:07 PDT 2022 ON: 19.98 +20.0 20.03 -23.0 16.8 24.2 28.4 10 1 Alarm State:  0
Wed May 18 18:01:06 PDT 2022 ON: 20.00 +20.0 20.05 -23.3 16.5 24.4 28.3 10 0 Alarm State:  0
Wed May 18 18:00:04 PDT 2022 ON: 20.00 +20.0 20.05 -23.1 16.7 24.2 28.3 10 0 Alarm State:  0
Wed May 18 17:59:03 PDT 2022 ON: 20.00 +20.0 20.05 -23.2 16.6 24.3 28.3 9 1 Alarm State:  0
Wed May 18 17:58:01 PDT 2022 ON: 19.99 +20.0 20.04 -23.2 16.6 24.3 28.3 10 1 Alarm State:  0
Wed May 18 17:57:00 PDT 2022 ON: 19.99 +20.0 20.04 -23.1 16.7 24.2 28.3 9 1 Alarm State:  0
Wed May 18 17:55:58 PDT 2022 ON: 20.00 +20.0 20.05 -23.2 16.6 24.3 28.3 9 0 Alarm State:  0
Wed May 18 17:54:57 PDT 2022 ON: 20.00 +20.0 20.06 -23.3 16.5 24.4 28.3 10 0 Alarm State:  0
Wed May 18 17:53:55 PDT 2022 ON: 19.99 +20.0 20.02 -23.2 16.6 24.3 28.3 10 2 Alarm State:  0
Wed May 18 17:52:54 PDT 2022 ON: 19.99 +20.0 20.04 -23.3 16.5 24.4 28.3 10 1 Alarm State:  0
Wed May 18 17:51:52 PDT 2022 ON: 19.99 +20.0 20.04 -23.4 16.3 24.6 28.3 10 1 Alarm State:  0
Wed May 18 17:50:51 PDT 2022 ON: 20.00 +20.0 20.04 -23.0 16.8 24.2 28.3 9 1 Alarm State:  0
Wed May 18 17:49:49 PDT 2022 ON: 20.00 +20.0 20.04 -23.3 16.4 24.5 28.3 10 1 Alarm State:  0
Wed May 18 17:48:48 PDT 2022 ON: 20.00 +20.0 20.05 -23.2 16.6 24.3 28.3 10 1 Alarm State:  0
Wed May 18 17:47:46 PDT 2022 ON: 19.99 +20.0 20.05 -23.1 16.7 24.2 28.3 9 0 Alarm State:  0
Wed May 18 17:46:45 PDT 2022 ON: 20.00 +20.0 20.05 -23.1 16.7 24.2 28.3 10 0 Alarm State:  0
Wed May 18 17:45:43 PDT 2022 ON: 19.99 +20.0 20.03 -23.3 16.5 24.4 28.3 9 1 Alarm State:  0
Wed May 18 17:44:42 PDT 2022 ON: 19.99 +20.0 20.04 -23.2 16.6 24.3 28.3 10 1 Alarm State:  0
Wed May 18 17:43:40 PDT 2022 ON: 20.00 +20.0 20.05 -23.1 16.7 24.2 28.3 10 0 Alarm State:  0
Wed May 18 17:42:39 PDT 2022 ON: 20.00 +20.0 20.05 -23.2 16.6 24.3 28.3 9 1 Alarm State:  0
Wed May 18 17:41:37 PDT 2022 ON: 20.00 +20.0 20.04 -23.1 16.7 24.2 28.4 10 1 Alarm State:  0
Wed May 18 17:40:36 PDT 2022 ON: 19.99 +20.0 20.03 -23.1 16.7 24.2 28.3 10 1 Alarm State:  0
Wed May 18 17:39:34 PDT 2022 ON: 20.00 +20.0 20.05 -23.1 16.7 24.2 28.3 9 0 Alarm State:  0
Wed May 18 17:38:33 PDT 2022 ON: 19.99 +20.0 20.04 -23.1 16.7 24.2 28.4 10 1 Alarm State:  0
Wed May 18 17:37:31 PDT 2022 ON: 20.00 +20.0 20.04 -23.2 16.6 24.3 28.3 10 1 Alarm State:  0
Wed May 18 17:36:30 PDT 2022 ON: 19.99 +20.0 20.04 -23.3 16.4 24.5 28.3 10 1 Alarm State:  0
Wed May 18 17:35:28 PDT 2022 ON: 19.99 +20.0 20.04 -23.1 16.7 24.2 28.3 10 1 Alarm State:  0
Wed May 18 17:34:27 PDT 2022 ON: 20.01 +20.0 20.07 -23.3 16.4 24.5 28.3 9 0 Alarm State:  0
Wed May 18 17:33:25 PDT 2022 ON: 19.99 +20.0 20.04 -23.0 16.8 24.2 28.4 10 1 Alarm State:  0
Wed May 18 17:32:24 PDT 2022 ON: 19.99 +20.0 20.03 -23.1 16.7 24.2 28.3 10 1 Alarm State:  0
Wed May 18 17:31:22 PDT 2022 ON: 20.00 +20.0 20.06 -23.1 16.7 24.2 28.3 9 0 Alarm State:  0
Wed May 18 17:30:21 PDT 2022 ON: 20.00 +20.0 20.06 -23.1 16.7 24.2 28.4 10 0 Alarm State:  0
Wed May 18 17:29:19 PDT 2022 ON: 19.99 +20.0 20.04 -23.3 16.5 24.4 28.3 10 1 Alarm State:  0
Wed May 18 17:28:18 PDT 2022 ON: 19.99 +20.0 20.04 -23.1 16.7 24.2 28.3 10 1 Alarm State:  0
Wed May 18 17:27:16 PDT 2022 ON: 19.99 +20.0 20.04 -23.3 16.5 24.4 28.3 10 1 Alarm State:  0
Wed May 18 17:26:15 PDT 2022 ON: 20.00 +20.0 20.05 -23.3 16.5 24.4 28.3 9 0 Alarm State:  0
Wed May 18 17:25:13 PDT 2022 ON: 20.00 +20.0 20.05 -23.2 16.6 24.3 28.3 10 0 Alarm State:  0
Wed May 18 17:24:12 PDT 2022 ON: 19.99 +20.0 20.04 -23.2 16.6 24.3 28.4 10 1 Alarm State:  0
Wed May 18 17:23:10 PDT 2022 ON: 19.99 +20.0 20.04 -23.2 16.6 24.3 28.3 10 1 Alarm State:  0
Wed May 18 17:22:09 PDT 2022 ON: 19.99 +20.0 20.04 -23.1 16.7 24.2 28.4 10 1 Alarm State:  0
Wed May 18 17:21:07 PDT 2022 ON: 20.00 +20.0 20.06 -23.3 16.5 24.4 28.4 9 0 Alarm State:  0
Wed May 18 17:20:06 PDT 2022 ON: 19.99 +20.0 20.04 -23.0 16.8 24.2 28.3 10 1 Alarm State:  0
Wed May 18 17:19:04 PDT 2022 ON: 20.00 +20.0 20.05 -23.3 16.5 24.4 28.3 10 0 Alarm State:  0
Wed May 18 17:18:03 PDT 2022 ON: 20.00 +20.0 20.05 -23.1 16.7 24.2 28.3 9 1 Alarm State:  0
Wed May 18 17:17:01 PDT 2022 ON: 20.00 +20.0 20.06 -23.2 16.6 24.3 28.3 10 0 Alarm State:  0
Wed May 18 17:15:59 PDT 2022 ON: 19.99 +20.0 20.04 -23.3 16.4 24.5 28.3 10 1 Alarm State:  0
Wed May 18 17:14:58 PDT 2022 ON: 19.99 +20.0 20.04 -23.3 16.5 24.4 28.3 9 1 Alarm State:  0
Wed May 18 17:13:56 PDT 2022 ON: 20.00 +20.0 20.04 -23.3 16.5 24.4 28.3 10 1 Alarm State:  0
Wed May 18 17:12:55 PDT 2022 ON: 20.00 +20.0 20.06 -23.1 16.7 24.2 28.3 9 0 Alarm State:  0
Wed May 18 17:11:53 PDT 2022 ON: 19.98 +20.0 20.04 -23.3 16.5 24.4 28.3 10 1 Alarm State:  0
Wed May 18 17:10:52 PDT 2022 ON: 19.99 +20.0 20.04 -23.3 16.5 24.4 28.3 9 0 Alarm State:  0
Wed May 18 17:09:50 PDT 2022 ON: 20.00 +20.0 20.06 -23.2 16.6 24.3 28.3 9 0 Alarm State:  0
Wed May 18 17:08:49 PDT 2022 ON: 20.00 +20.0 20.05 -23.3 16.5 24.4 28.3 10 0 Alarm State:  0
Wed May 18 17:07:47 PDT 2022 ON: 20.00 +20.0 20.05 -23.3 16.5 24.4 28.3 10 0 Alarm State:  0
Wed May 18 17:06:46 PDT 2022 ON: 19.99 +20.0 20.05 -23.2 16.6 24.3 28.4 10 1 Alarm State:  0
Wed May 18 17:05:44 PDT 2022 ON: 20.00 +20.0 20.05 -23.3 16.5 24.4 28.3 10 0 Alarm State:  0
Wed May 18 17:04:43 PDT 2022 ON: 20.00 +20.0 20.06 -23.3 16.5 24.4 28.3 9 0 Alarm State:  0
Wed May 18 17:03:41 PDT 2022 ON: 19.99 +20.0 20.05 -23.3 16.5 24.4 28.3 9 0 Alarm State:  0
Wed May 18 17:02:40 PDT 2022 ON: 19.99 +20.0 20.04 -23.2 16.6 24.3 28.3 10 1 Alarm State:  0
Wed May 18 17:01:38 PDT 2022 ON: 20.00 +20.0 20.06 -23.1 16.7 24.2 28.4 9 0 Alarm State:  0
Wed May 18 17:00:37 PDT 2022 ON: 20.00 +20.0 20.06 -23.2 16.6 24.3 28.3 10 0 Alarm State:  0
Wed May 18 16:59:35 PDT 2022 ON: 19.99 +20.0 20.04 -23.0 16.8 24.2 28.4 9 1 Alarm State:  0
Wed May 18 16:58:34 PDT 2022 ON: 19.99 +20.0 20.04 -23.1 16.7 24.2 28.3 10 1 Alarm State:  0
Wed May 18 16:57:32 PDT 2022 ON: 20.00 +20.0 20.05 -23.2 16.6 24.3 28.3 10 1 Alarm State:  0
Wed May 18 16:56:31 PDT 2022 ON: 19.98 +20.0 20.03 -23.2 16.6 24.3 28.3 9 1 Alarm State:  0
Wed May 18 16:55:29 PDT 2022 ON: 20.00 +20.0 20.04 -23.2 16.6 24.3 28.3 10 1 Alarm State:  0
Wed May 18 16:54:28 PDT 2022 ON: 19.99 +20.0 20.05 -23.2 16.6 24.3 28.4 10 1 Alarm State:  0
Wed May 18 16:53:26 PDT 2022 ON: 19.98 +20.0 20.03 -22.9 16.9 24.1 28.4 9 2 Alarm State:  0
Wed May 18 16:52:25 PDT 2022 ON: 20.00 +20.0 20.05 -23.1 16.7 24.2 28.3 10 0 Alarm State:  0
Wed May 18 16:51:23 PDT 2022 ON: 20.00 +20.0 20.04 -23.0 16.8 24.2 28.4 10 1 Alarm State:  0
Wed May 18 16:50:22 PDT 2022 ON: 20.00 +20.0 20.04 -23.1 16.7 24.2 28.3 9 1 Alarm State:  0
Wed May 18 16:49:20 PDT 2022 ON: 20.00 +20.0 20.05 -23.3 16.5 24.4 28.3 10 0 Alarm State:  0
Wed May 18 16:48:19 PDT 2022 ON: 19.99 +20.0 20.04 -23.2 16.6 24.3 28.4 9 1 Alarm State:  0
Wed May 18 16:47:17 PDT 2022 ON: 20.00 +20.0 20.04 -23.3 16.4 24.5 28.3 10 1 Alarm State:  0
Wed May 18 16:46:16 PDT 2022 ON: 19.99 +20.0 20.03 -23.0 16.8 24.2 28.4 9 1 Alarm State:  0
Wed May 18 16:45:14 PDT 2022 ON: 20.00 +20.0 20.06 -23.2 16.6 24.3 28.4 9 0 Alarm State:  0
Wed May 18 16:44:13 PDT 2022 ON: 20.00 +20.0 20.06 -23.3 16.5 24.4 28.3 10 0 Alarm State:  0
Wed May 18 16:43:11 PDT 2022 ON: 19.99 +20.0 20.02 -23.1 16.7 24.2 28.3 10 2 Alarm State:  0
Wed May 18 16:42:10 PDT 2022 ON: 19.99 +20.0 20.04 -23.3 16.4 24.5 28.3 10 1 Alarm State:  0
Wed May 18 16:41:08 PDT 2022 ON: 19.99 +20.0 20.04 -23.3 16.5 24.4 28.3 10 1 Alarm State:  0
Wed May 18 16:40:07 PDT 2022 ON: 20.00 +20.0 20.05 -23.1 16.7 24.2 28.3 9 0 Alarm State:  0
Wed May 18 16:39:05 PDT 2022 ON: 19.99 +20.0 20.04 -23.3 16.5 24.4 28.3 10 1 Alarm State:  0
Wed May 18 16:38:04 PDT 2022 ON: 19.99 +20.0 20.05 -23.0 16.8 24.2 28.4 9 1 Alarm State:  0
Wed May 18 16:37:02 PDT 2022 ON: 20.00 +20.0 20.06 -23.2 16.6 24.3 28.4 9 0 Alarm State:  0
Wed May 18 16:36:01 PDT 2022 ON: 20.00 +20.0 20.06 -23.3 16.4 24.5 28.3 10 0 Alarm State:  0
Wed May 18 16:34:59 PDT 2022 ON: 19.99 +20.0 20.03 -22.9 16.9 24.1 28.4 10 1 Alarm State:  0
Wed May 18 16:33:58 PDT 2022 ON: 20.00 +20.0 20.05 -23.3 16.4 24.5 28.3 10 0 Alarm State:  0
Wed May 18 16:32:56 PDT 2022 ON: 20.00 +20.0 20.05 -23.2 16.6 24.3 28.3 10 0 Alarm State:  0
Wed May 18 16:31:55 PDT 2022 ON: 19.99 +20.0 20.05 -23.2 16.6 24.3 28.3 9 1 Alarm State:  0
Wed May 18 16:30:53 PDT 2022 ON: 19.99 +20.0 20.04 -23.2 16.6 24.3 28.3 10 1 Alarm State:  0
Wed May 18 16:29:52 PDT 2022 ON: 19.99 +20.0 20.05 -23.2 16.6 24.3 28.3 10 0 Alarm State:  0
Wed May 18 16:28:50 PDT 2022 ON: 20.00 +20.0 20.05 -23.3 16.5 24.4 28.3 9 1 Alarm State:  0
Wed May 18 16:27:49 PDT 2022 ON: 20.00 +20.0 20.05 -23.1 16.7 24.2 28.3 10 0 Alarm State:  0
Wed May 18 16:26:47 PDT 2022 ON: 19.99 +20.0 20.04 -23.3 16.5 24.4 28.3 10 1 Alarm State:  0
Wed May 18 16:25:46 PDT 2022 ON: 19.99 +20.0 20.03 -23.0 16.8 24.2 28.3 10 1 Alarm State:  0
Wed May 18 16:24:44 PDT 2022 ON: 20.00 +20.0 20.06 -23.1 16.7 24.2 28.3 10 0 Alarm State:  0
Wed May 18 16:23:43 PDT 2022 ON: 20.00 +20.0 20.04 -23.1 16.7 24.2 28.4 9 1 Alarm State:  0
Wed May 18 16:22:41 PDT 2022 ON: 20.00 +20.0 20.05 -23.2 16.6 24.3 28.3 10 0 Alarm State:  0
Wed May 18 16:21:40 PDT 2022 ON: 20.00 +20.0 20.04 -23.2 16.6 24.3 28.3 10 1 Alarm State:  0
Wed May 18 16:20:38 PDT 2022 ON: 19.99 +20.0 20.05 -23.2 16.6 24.3 28.3 9 1 Alarm State:  0
Wed May 18 16:19:37 PDT 2022 ON: 20.00 +20.0 20.06 -23.3 16.5 24.4 28.3 10 0 Alarm State:  0
Wed May 18 16:18:35 PDT 2022 ON: 19.99 +20.0 20.03 -23.1 16.7 24.2 28.4 10 1 Alarm State:  0
Wed May 18 16:17:34 PDT 2022 ON: 20.00 +20.0 20.04 -23.1 16.7 24.2 28.3 9 1 Alarm State:  0
Wed May 18 16:16:32 PDT 2022 ON: 20.01 +20.0 20.05 -23.3 16.5 24.4 28.3 10 0 Alarm State:  0
Wed May 18 16:15:31 PDT 2022 ON: 19.99 +20.0 20.05 -23.1 16.7 24.2 28.3 9 1 Alarm State:  0
Wed May 18 16:14:29 PDT 2022 ON: 19.99 +20.0 20.04 -23.3 16.5 24.4 28.3 10 1 Alarm State:  0
Wed May 18 16:13:28 PDT 2022 ON: 19.99 +20.0 20.03 -23.1 16.7 24.2 28.4 10 1 Alarm State:  0
Wed May 18 16:12:26 PDT 2022 ON: 20.00 +20.0 20.06 -23.2 16.6 24.3 28.3 9 0 Alarm State:  0
Wed May 18 16:11:25 PDT 2022 ON: 19.99 +20.0 20.04 -23.2 16.6 24.3 28.3 10 1 Alarm State:  0
Wed May 18 16:10:23 PDT 2022 ON: 20.00 +20.0 20.05 -23.3 16.5 24.4 28.3 10 0 Alarm State:  0
Wed May 18 16:09:21 PDT 2022 ON: 19.99 +20.0 20.03 -23.3 16.5 24.4 28.3 10 1 Alarm State:  0
Wed May 18 16:08:20 PDT 2022 ON: 19.99 +20.0 20.04 -23.3 16.5 24.4 28.3 10 1 Alarm State:  0
Wed May 18 16:07:18 PDT 2022 ON: 19.98 +20.0 20.03 -23.1 16.7 24.2 28.4 9 1 Alarm State:  0
Wed May 18 16:06:17 PDT 2022 ON: 20.00 +20.0 20.05 -23.1 16.7 24.2 28.3 10 0 Alarm State:  0
Wed May 18 16:05:15 PDT 2022 ON: 19.99 +20.0 20.04 -23.3 16.5 24.4 28.3 10 1 Alarm State:  0
Wed May 18 16:04:14 PDT 2022 ON: 19.99 +20.0 20.03 -23.2 16.6 24.3 28.3 10 1 Alarm State:  0
Wed May 18 16:03:12 PDT 2022 ON: 20.00 +20.0 20.05 -23.3 16.4 24.5 28.3 10 0 Alarm State:  0
Wed May 18 16:02:11 PDT 2022 ON: 20.00 +20.0 20.06 -23.1 16.7 24.2 28.3 9 0 Alarm State:  0
Wed May 18 16:01:09 PDT 2022 ON: 19.99 +20.0 20.04 -23.1 16.7 24.2 28.4 10 1 Alarm State:  0
Wed May 18 16:00:08 PDT 2022 ON: 19.98 +20.0 20.03 -23.1 16.7 24.2 28.4 10 1 Alarm State:  0
Wed May 18 15:59:06 PDT 2022 ON: 20.00 +20.0 20.06 -23.3 16.5 24.4 28.3 9 0 Alarm State:  0
Wed May 18 15:58:05 PDT 2022 ON: 20.00 +20.0 20.07 -23.3 16.5 24.4 28.4 10 0 Alarm State:  0
Wed May 18 15:57:03 PDT 2022 ON: 19.99 +20.0 20.04 -23.0 16.8 24.2 28.4 10 1 Alarm State:  0
Wed May 18 15:56:02 PDT 2022 ON: 20.00 +20.0 20.05 -23.1 16.7 24.2 28.4 10 0 Alarm State:  0
Wed May 18 15:55:00 PDT 2022 ON: 20.00 +20.0 20.06 -23.2 16.6 24.3 28.3 10 0 Alarm State:  0
Wed May 18 15:53:59 PDT 2022 ON: 20.00 +20.0 20.05 -23.2 16.6 24.3 28.3 9 0 Alarm State:  0
Wed May 18 15:52:57 PDT 2022 ON: 19.99 +20.0 20.04 -23.3 16.5 24.4 28.4 10 1 Alarm State:  0
Wed May 18 15:51:56 PDT 2022 ON: 20.00 +20.0 20.04 -23.1 16.7 24.2 28.4 9 1 Alarm State:  0
Wed May 18 15:50:54 PDT 2022 ON: 19.99 +20.0 20.04 -23.3 16.5 24.4 28.3 9 1 Alarm State:  0
Wed May 18 15:49:53 PDT 2022 ON: 20.01 +20.0 20.06 -23.1 16.7 24.2 28.3 10 0 Alarm State:  0
Wed May 18 15:48:51 PDT 2022 ON: 19.99 +20.0 20.04 -23.1 16.7 24.2 28.3 9 1 Alarm State:  0
Wed May 18 15:47:50 PDT 2022 ON: 19.99 +20.0 20.04 -23.3 16.5 24.4 28.3 9 1 Alarm State:  0
Wed May 18 15:46:48 PDT 2022 ON: 20.00 +20.0 20.05 -23.2 16.6 24.3 28.4 10 0 Alarm State:  0
Wed May 18 15:45:47 PDT 2022 ON: 20.00 +20.0 20.06 -23.3 16.5 24.4 28.3 9 0 Alarm State:  0
Wed May 18 15:44:45 PDT 2022 ON: 19.99 +20.0 20.05 -23.2 16.6 24.3 28.4 10 1 Alarm State:  0
Wed May 18 15:43:44 PDT 2022 ON: 20.00 +20.0 20.05 -23.2 16.6 24.3 28.3 10 1 Alarm State:  0
Wed May 18 15:42:42 PDT 2022 ON: 20.00 +20.0 20.05 -23.2 16.6 24.3 28.3 9 0 Alarm State:  0
Wed May 18 15:41:41 PDT 2022 ON: 20.00 +20.0 20.05 -23.0 16.8 24.2 28.4 10 0 Alarm State:  0
Wed May 18 15:40:39 PDT 2022 ON: 19.99 +20.0 20.04 -23.2 16.6 24.3 28.3 10 1 Alarm State:  0
Wed May 18 15:39:38 PDT 2022 ON: 19.99 +20.0 20.04 -23.1 16.7 24.2 28.3 10 1 Alarm State:  0
Wed May 18 15:38:36 PDT 2022 ON: 20.00 +20.0 20.05 -23.2 16.6 24.3 28.4 10 0 Alarm State:  0
Wed May 18 15:37:35 PDT 2022 ON: 20.00 +20.0 20.05 -23.2 16.6 24.3 28.3 9 1 Alarm State:  0
Wed May 18 15:36:33 PDT 2022 ON: 19.99 +20.0 20.04 -23.2 16.6 24.3 28.4 10 1 Alarm State:  0
Wed May 18 15:35:32 PDT 2022 ON: 20.00 +20.0 20.04 -23.2 16.6 24.3 28.4 10 1 Alarm State:  0
Wed May 18 15:34:30 PDT 2022 ON: 20.01 +20.0 20.06 -23.3 16.5 24.4 28.3 9 0 Alarm State:  0
Wed May 18 15:33:29 PDT 2022 ON: 19.99 +20.0 20.04 -22.9 16.9 24.1 28.4 10 1 Alarm State:  0
Wed May 18 15:32:27 PDT 2022 ON: 19.99 +20.0 20.04 -23.3 16.4 24.5 28.3 10 1 Alarm State:  0
Wed May 18 15:31:26 PDT 2022 ON: 20.00 +20.0 20.05 -23.2 16.6 24.3 28.4 10 0 Alarm State:  0
Wed May 18 15:30:24 PDT 2022 ON: 20.00 +20.0 20.06 -23.1 16.7 24.2 28.4 10 0 Alarm State:  0
Wed May 18 15:29:23 PDT 2022 ON: 19.99 +20.0 20.05 -23.1 16.7 24.2 28.3 9 1 Alarm State:  0
Wed May 18 15:28:21 PDT 2022 ON: 19.99 +20.0 20.03 -23.0 16.8 24.2 28.4 9 1 Alarm State:  0
Wed May 18 15:27:20 PDT 2022 ON: 20.00 +20.0 20.04 -23.2 16.6 24.3 28.3 9 1 Alarm State:  0
Wed May 18 15:26:18 PDT 2022 ON: 20.00 +20.0 20.06 -23.1 16.7 24.2 28.3 9 0 Alarm State:  0
Wed May 18 15:25:17 PDT 2022 ON: 20.00 +20.0 20.06 -23.2 16.6 24.3 28.3 10 0 Alarm State:  0
Wed May 18 15:24:15 PDT 2022 ON: 19.99 +20.0 20.03 -23.0 16.8 24.2 28.4 10 2 Alarm State:  0
Wed May 18 15:23:14 PDT 2022 ON: 20.00 +20.0 20.04 -23.4 16.3 24.6 28.3 10 0 Alarm State:  0
Wed May 18 15:22:12 PDT 2022 ON: 20.00 +20.0 20.05 -23.1 16.7 24.2 28.4 10 1 Alarm State:  0
Wed May 18 15:21:11 PDT 2022 ON: 19.99 +20.0 20.05 -23.3 16.5 24.4 28.3 9 0 Alarm State:  0
Wed May 18 15:20:09 PDT 2022 ON: 19.98 +20.0 20.03 -23.2 16.6 24.3 28.3 10 1 Alarm State:  0
Wed May 18 15:19:08 PDT 2022 ON: 20.00 +20.0 20.04 -23.3 16.5 24.4 28.3 9 1 Alarm State:  0
Wed May 18 15:18:06 PDT 2022 ON: 19.99 +20.0 20.05 -23.3 16.4 24.5 28.3 9 1 Alarm State:  0
Wed May 18 15:17:05 PDT 2022 ON: 20.00 +20.0 20.06 -23.1 16.7 24.2 28.3 10 0 Alarm State:  0
Wed May 18 15:16:03 PDT 2022 ON: 19.99 +20.0 20.04 -23.1 16.7 24.2 28.4 9 1 Alarm State:  0
Wed May 18 15:15:02 PDT 2022 ON: 19.99 +20.0 20.03 -23.2 16.6 24.3 28.3 10 1 Alarm State:  0
Wed May 18 15:14:00 PDT 2022 ON: 19.99 +20.0 20.05 -23.2 16.6 24.3 28.3 10 0 Alarm State:  0
Wed May 18 15:12:59 PDT 2022 ON: 20.00 +20.0 20.04 -23.2 16.6 24.3 28.3 9 1 Alarm State:  0
Wed May 18 15:11:57 PDT 2022 ON: 19.99 +20.0 20.03 -23.1 16.7 24.2 28.4 9 2 Alarm State:  0
Wed May 18 15:10:56 PDT 2022 ON: 19.99 +20.0 20.03 -23.1 16.7 24.2 28.4 10 1 Alarm State:  0
Wed May 18 15:09:54 PDT 2022 ON: 19.99 +20.0 20.04 -23.2 16.6 24.3 28.4 9 1 Alarm State:  0
Wed May 18 15:08:52 PDT 2022 ON: 20.00 +20.0 20.05 -23.2 16.6 24.3 28.4 10 0 Alarm State:  0
Wed May 18 15:07:51 PDT 2022 ON: 19.99 +20.0 20.04 -23.2 16.6 24.3 28.4 10 1 Alarm State:  0
Wed May 18 15:06:49 PDT 2022 ON: 19.99 +20.0 20.04 -23.3 16.5 24.4 28.4 10 1 Alarm State:  0
Wed May 18 15:05:48 PDT 2022 ON: 20.00 +20.0 20.05 -23.3 16.5 24.4 28.3 10 0 Alarm State:  0
Wed May 18 15:04:46 PDT 2022 ON: 20.00 +20.0 20.06 -23.0 16.8 24.2 28.4 9 0 Alarm State:  0
Wed May 18 15:03:45 PDT 2022 ON: 19.99 +20.0 20.04 -23.3 16.4 24.5 28.4 10 1 Alarm State:  0
Wed May 18 15:02:43 PDT 2022 ON: 19.99 +20.0 20.04 -23.2 16.6 24.3 28.4 9 0 Alarm State:  0
Wed May 18 15:01:42 PDT 2022 ON: 20.00 +20.0 20.05 -23.1 16.7 24.2 28.4 9 0 Alarm State:  0
Wed May 18 15:00:40 PDT 2022 ON: 20.00 +20.0 20.06 -23.2 16.6 24.3 28.4 10 0 Alarm State:  0
Wed May 18 14:59:39 PDT 2022 ON: 19.99 +20.0 20.03 -23.3 16.5 24.4 28.3 10 1 Alarm State:  0
Wed May 18 14:58:37 PDT 2022 ON: 19.99 +20.0 20.04 -23.1 16.7 24.2 28.3 10 1 Alarm State:  0
Wed May 18 14:57:36 PDT 2022 ON: 19.99 +20.0 20.05 -23.4 16.3 24.6 28.3 10 1 Alarm State:  0
Wed May 18 14:56:34 PDT 2022 ON: 20.00 +20.0 20.04 -23.2 16.6 24.3 28.4 9 0 Alarm State:  0
Wed May 18 14:55:33 PDT 2022 ON: 20.01 +20.0 20.06 -23.1 16.7 24.2 28.4 10 0 Alarm State:  0
Wed May 18 14:54:31 PDT 2022 ON: 19.99 +20.0 20.04 -23.1 16.7 24.2 28.3 9 1 Alarm State:  0
Wed May 18 14:53:30 PDT 2022 ON: 20.00 +20.0 20.05 -23.3 16.4 24.5 28.3 9 0 Alarm State:  0
Wed May 18 14:52:28 PDT 2022 ON: 20.00 +20.0 20.06 -23.3 16.4 24.5 28.4 10 0 Alarm State:  0
Wed May 18 14:51:27 PDT 2022 ON: 20.00 +20.0 20.05 -23.2 16.6 24.3 28.3 9 0 Alarm State:  0
Wed May 18 14:50:25 PDT 2022 ON: 19.99 +20.0 20.04 -23.1 16.7 24.2 28.4 10 1 Alarm State:  0
Wed May 18 14:49:24 PDT 2022 ON: 19.99 +20.0 20.04 -23.2 16.6 24.3 28.4 10 1 Alarm State:  0
Wed May 18 14:48:22 PDT 2022 ON: 20.00 +20.0 20.05 -23.1 16.7 24.2 28.4 9 1 Alarm State:  0
Wed May 18 14:47:21 PDT 2022 ON: 20.00 +20.0 20.05 -23.1 16.7 24.2 28.4 10 0 Alarm State:  0
Wed May 18 14:46:19 PDT 2022 ON: 20.00 +20.0 20.05 -23.2 16.6 24.3 28.4 10 0 Alarm State:  0
Wed May 18 14:45:18 PDT 2022 ON: 19.99 +20.0 20.04 -23.2 16.6 24.3 28.3 10 1 Alarm State:  0
Wed May 18 14:44:16 PDT 2022 ON: 20.00 +20.0 20.05 -23.4 16.3 24.6 28.3 10 0 Alarm State:  0
Wed May 18 14:43:15 PDT 2022 ON: 20.00 +20.0 20.05 -23.3 16.5 24.4 28.3 9 0 Alarm State:  0
Wed May 18 14:42:13 PDT 2022 ON: 20.00 +20.0 20.05 -23.2 16.6 24.3 28.4 10 0 Alarm State:  0
Wed May 18 14:41:12 PDT 2022 ON: 20.00 +20.0 20.05 -23.2 16.6 24.3 28.3 10 0 Alarm State:  0
Wed May 18 14:40:10 PDT 2022 ON: 20.00 +20.0 20.04 -23.3 16.5 24.4 28.3 9 1 Alarm State:  0
Wed May 18 14:39:09 PDT 2022 ON: 20.00 +20.0 20.05 -23.0 16.8 24.2 28.4 10 1 Alarm State:  0
Wed May 18 14:38:07 PDT 2022 ON: 19.99 +20.0 20.04 -23.1 16.7 24.2 28.4 9 1 Alarm State:  0
Wed May 18 14:37:06 PDT 2022 ON: 20.00 +20.0 20.05 -23.3 16.5 24.4 28.3 9 0 Alarm State:  0
Wed May 18 14:36:04 PDT 2022 ON: 20.00 +20.0 20.05 -23.2 16.6 24.3 28.3 10 0 Alarm State:  0
Wed May 18 14:35:03 PDT 2022 ON: 20.00 +20.0 20.06 -23.4 16.3 24.6 28.3 9 0 Alarm State:  0
Wed May 18 14:34:01 PDT 2022 ON: 19.99 +20.0 20.04 -23.1 16.7 24.2 28.4 10 1 Alarm State:  0
Wed May 18 14:33:00 PDT 2022 ON: 19.99 +20.0 20.04 -23.3 16.5 24.4 28.3 9 1 Alarm State:  0
Wed May 18 14:31:58 PDT 2022 ON: 20.00 +20.0 20.05 -23.3 16.5 24.4 28.3 9 1 Alarm State:  0
Wed May 18 14:30:57 PDT 2022 ON: 19.99 +20.0 20.03 -23.3 16.5 24.4 28.3 10 1 Alarm State:  0
Wed May 18 14:29:55 PDT 2022 ON: 20.00 +20.0 20.03 -23.1 16.7 24.2 28.3 9 1 Alarm State:  0
Wed May 18 14:28:54 PDT 2022 ON: 19.99 +20.0 20.05 -23.3 16.5 24.4 28.3 10 1 Alarm State:  0
Wed May 18 14:27:52 PDT 2022 ON: 20.00 +20.0 20.05 -23.1 16.7 24.2 28.4 10 0 Alarm State:  0
Wed May 18 14:26:51 PDT 2022 ON: 20.00 +20.0 20.05 -23.2 16.6 24.3 28.3 9 0 Alarm State:  0
Wed May 18 14:25:49 PDT 2022 ON: 19.99 +20.0 20.04 -23.3 16.5 24.4 28.3 10 1 Alarm State:  0
Wed May 18 14:24:48 PDT 2022 ON: 20.00 +20.0 20.06 -23.1 16.7 24.2 28.4 9 0 Alarm State:  0
Wed May 18 14:23:46 PDT 2022 ON: 20.01 +20.0 20.06 -23.3 16.5 24.4 28.3 9 0 Alarm State:  0
Wed May 18 14:22:45 PDT 2022 ON: 19.99 +20.0 20.05 -23.3 16.5 24.4 28.3 10 0 Alarm State:  0
Wed May 18 14:21:43 PDT 2022 ON: 20.00 +20.0 20.05 -23.2 16.6 24.3 28.4 10 0 Alarm State:  0
Wed May 18 14:20:42 PDT 2022 ON: 19.99 +20.0 20.04 -23.3 16.5 24.4 28.4 9 1 Alarm State:  0
Wed May 18 14:19:40 PDT 2022 ON: 19.99 +20.0 20.04 -23.2 16.6 24.3 28.4 10 1 Alarm State:  0
Wed May 18 14:18:39 PDT 2022 ON: 19.99 +20.0 20.04 -23.2 16.6 24.3 28.4 9 1 Alarm State:  0
Wed May 18 14:17:37 PDT 2022 ON: 20.00 +20.0 20.05 -23.2 16.6 24.3 28.4 10 0 Alarm State:  0
Wed May 18 14:16:36 PDT 2022 ON: 20.00 +20.0 20.04 -23.2 16.6 24.3 28.3 9 1 Alarm State:  0
Wed May 18 14:15:34 PDT 2022 ON: 19.99 +20.0 20.04 -23.2 16.6 24.3 28.4 9 1 Alarm State:  0
Wed May 18 14:14:33 PDT 2022 ON: 19.99 +20.0 20.05 -23.3 16.5 24.4 28.4 10 0 Alarm State:  0
Wed May 18 14:13:31 PDT 2022 ON: 19.99 +20.0 20.03 -23.1 16.7 24.2 28.4 10 1 Alarm State:  0
Wed May 18 14:12:30 PDT 2022 ON: 19.99 +20.0 20.03 -23.2 16.6 24.3 28.4 10 1 Alarm State:  0
Wed May 18 14:11:28 PDT 2022 ON: 19.99 +20.0 20.05 -23.0 16.8 24.2 28.4 10 1 Alarm State:  0
Wed May 18 14:10:27 PDT 2022 ON: 20.00 +20.0 20.05 -23.3 16.4 24.5 28.3 9 0 Alarm State:  0
Wed May 18 14:09:25 PDT 2022 ON: 19.99 +20.0 20.04 -23.2 16.6 24.3 28.4 10 1 Alarm State:  0
Wed May 18 14:08:24 PDT 2022 ON: 19.99 +20.0 20.03 -23.2 16.6 24.3 28.4 10 1 Alarm State:  0
Wed May 18 14:07:22 PDT 2022 ON: 19.99 +20.0 20.05 -23.3 16.5 24.4 28.3 9 1 Alarm State:  0
Wed May 18 14:06:21 PDT 2022 ON: 20.00 +20.0 20.05 -23.3 16.5 24.4 28.3 10 0 Alarm State:  0
Wed May 18 14:05:19 PDT 2022 ON: 19.99 +20.0 20.03 -23.2 16.6 24.3 28.3 9 1 Alarm State:  0
Wed May 18 14:04:18 PDT 2022 ON: 20.00 +20.0 20.04 -23.3 16.4 24.5 28.4 10 1 Alarm State:  0
Wed May 18 14:03:16 PDT 2022 ON: 19.99 +20.0 20.03 -23.1 16.7 24.2 28.3 10 2 Alarm State:  0
Wed May 18 14:02:15 PDT 2022 ON: 20.00 +20.0 20.05 -23.3 16.5 24.4 28.3 9 0 Alarm State:  0
Wed May 18 14:01:13 PDT 2022 ON: 20.00 +20.0 20.05 -23.1 16.7 24.2 28.4 10 0 Alarm State:  0
Wed May 18 14:00:12 PDT 2022 ON: 20.01 +20.0 20.04 -23.3 16.5 24.4 28.3 10 1 Alarm State:  0
Wed May 18 13:59:10 PDT 2022 ON: 20.00 +20.0 20.06 -23.2 16.6 24.3 28.4 9 0 Alarm State:  0
Wed May 18 13:58:08 PDT 2022 ON: 19.99 +20.0 20.05 -23.2 16.6 24.3 28.3 10 0 Alarm State:  0
Wed May 18 13:57:07 PDT 2022 ON: 20.00 +20.0 20.05 -23.1 16.7 24.2 28.3 9 0 Alarm State:  0
Wed May 18 13:56:05 PDT 2022 ON: 20.00 +20.0 20.05 -23.3 16.4 24.5 28.3 10 0 Alarm State:  0
Wed May 18 13:55:04 PDT 2022 ON: 20.00 +20.0 20.05 -23.3 16.4 24.5 28.3 10 0 Alarm State:  0
Wed May 18 13:54:02 PDT 2022 ON: 20.00 +20.0 20.05 -23.3 16.5 24.4 28.3 9 1 Alarm State:  0
Wed May 18 13:53:01 PDT 2022 ON: 20.00 +20.0 20.04 -23.3 16.5 24.4 28.3 10 1 Alarm State:  0
Wed May 18 13:51:59 PDT 2022 ON: 20.00 +20.0 20.05 -23.2 16.6 24.3 28.4 9 0 Alarm State:  0
Wed May 18 13:50:58 PDT 2022 ON: 19.99 +20.0 20.05 -23.2 16.6 24.3 28.4 9 1 Alarm State:  0
Wed May 18 13:49:56 PDT 2022 ON: 19.99 +20.0 20.05 -23.1 16.7 24.2 28.3 10 0 Alarm State:  0
Wed May 18 13:48:55 PDT 2022 ON: 19.99 +20.0 20.03 -23.2 16.6 24.3 28.4 9 1 Alarm State:  0
Wed May 18 13:47:53 PDT 2022 ON: 19.99 +20.0 20.02 -23.2 16.6 24.3 28.3 9 2 Alarm State:  0
Wed May 18 13:46:52 PDT 2022 ON: 19.99 +20.0 20.04 -23.2 16.6 24.3 28.4 10 1 Alarm State:  0
Wed May 18 13:45:50 PDT 2022 ON: 20.00 +20.0 20.05 -23.3 16.5 24.4 28.3 9 0 Alarm State:  0
Wed May 18 13:44:49 PDT 2022 ON: 19.99 +20.0 20.04 -23.1 16.7 24.2 28.4 10 1 Alarm State:  0
Wed May 18 13:43:47 PDT 2022 ON: 20.00 +20.0 20.05 -23.2 16.6 24.3 28.3 10 0 Alarm State:  0
Wed May 18 13:42:46 PDT 2022 ON: 19.99 +20.0 20.05 -23.3 16.4 24.5 28.3 9 0 Alarm State:  0
Wed May 18 13:41:44 PDT 2022 ON: 20.00 +20.0 20.05 -23.1 16.7 24.2 28.4 10 0 Alarm State:  0
Wed May 18 13:40:43 PDT 2022 ON: 19.99 +20.0 20.04 -23.3 16.5 24.4 28.4 10 1 Alarm State:  0
Wed May 18 13:39:41 PDT 2022 ON: 20.00 +20.0 20.04 -23.2 16.6 24.3 28.4 10 1 Alarm State:  0
Wed May 18 13:38:40 PDT 2022 ON: 20.00 +20.0 20.05 -23.1 16.7 24.2 28.4 10 0 Alarm State:  0
Wed May 18 13:37:38 PDT 2022 ON: 19.99 +20.0 20.05 -23.3 16.5 24.4 28.4 9 0 Alarm State:  0
Wed May 18 13:36:37 PDT 2022 ON: 20.00 +20.0 20.05 -23.3 16.4 24.5 28.4 10 0 Alarm State:  0
Wed May 18 13:35:35 PDT 2022 ON: 20.00 +20.0 20.04 -23.1 16.7 24.2 28.3 10 1 Alarm State:  0
Wed May 18 13:34:34 PDT 2022 ON: 20.00 +20.0 20.06 -23.3 16.5 24.4 28.3 9 0 Alarm State:  0
Wed May 18 13:33:32 PDT 2022 ON: 19.99 +20.0 20.04 -23.0 16.8 24.2 28.4 10 1 Alarm State:  0
Wed May 18 13:32:31 PDT 2022 ON: 20.00 +20.0 20.03 -23.3 16.4 24.5 28.3 9 1 Alarm State:  0
Wed May 18 13:31:29 PDT 2022 ON: 19.99 +20.0 20.04 -23.2 16.6 24.3 28.4 9 1 Alarm State:  0
Wed May 18 13:30:28 PDT 2022 ON: 19.99 +20.0 20.05 -23.3 16.5 24.4 28.3 10 1 Alarm State:  0
Wed May 18 13:29:26 PDT 2022 ON: 19.99 +20.0 20.05 -23.2 16.6 24.3 28.4 9 0 Alarm State:  0
Wed May 18 13:28:25 PDT 2022 ON: 20.00 +20.0 20.05 -23.1 16.7 24.2 28.4 10 0 Alarm State:  0
Wed May 18 13:27:23 PDT 2022 ON: 19.99 +20.0 20.04 -23.2 16.6 24.3 28.3 10 1 Alarm State:  0
Wed May 18 13:26:22 PDT 2022 ON: 20.00 +20.0 20.04 -23.0 16.8 24.2 28.4 9 1 Alarm State:  0
Wed May 18 13:25:20 PDT 2022 ON: 19.99 +20.0 20.04 -23.3 16.5 24.4 28.3 10 0 Alarm State:  0
Wed May 18 13:24:19 PDT 2022 ON: 20.00 +20.0 20.05 -23.2 16.6 24.3 28.4 9 0 Alarm State:  0
Wed May 18 13:23:17 PDT 2022 ON: 19.99 +20.0 20.03 -23.1 16.7 24.2 28.4 10 1 Alarm State:  0
Wed May 18 13:22:16 PDT 2022 ON: 20.00 +20.0 20.05 -23.2 16.6 24.3 28.4 10 1 Alarm State:  0
Wed May 18 13:21:14 PDT 2022 ON: 19.99 +20.0 20.05 -23.1 16.7 24.2 28.4 9 0 Alarm State:  0
Wed May 18 13:20:13 PDT 2022 ON: 19.99 +20.0 20.05 -23.3 16.5 24.4 28.3 10 0 Alarm State:  0
Wed May 18 13:19:11 PDT 2022 ON: 19.99 +20.0 20.03 -23.2 16.6 24.3 28.4 9 1 Alarm State:  0
Wed May 18 13:18:10 PDT 2022 ON: 20.00 +20.0 20.05 -23.2 16.6 24.3 28.4 10 0 Alarm State:  0
Wed May 18 13:17:08 PDT 2022 ON: 19.99 +20.0 20.04 -23.1 16.7 24.2 28.3 10 1 Alarm State:  0
Wed May 18 13:16:07 PDT 2022 ON: 19.99 +20.0 20.05 -23.3 16.5 24.4 28.4 9 0 Alarm State:  0
Wed May 18 13:15:05 PDT 2022 ON: 20.00 +20.0 20.04 -23.1 16.7 24.2 28.4 10 1 Alarm State:  0
Wed May 18 13:14:04 PDT 2022 ON: 19.99 +20.0 20.03 -23.2 16.6 24.3 28.4 10 1 Alarm State:  0
Wed May 18 13:13:02 PDT 2022 ON: 20.00 +20.0 20.05 -23.3 16.5 24.4 28.3 9 0 Alarm State:  0
Wed May 18 13:12:01 PDT 2022 ON: 20.00 +20.0 20.06 -23.1 16.7 24.2 28.4 10 0 Alarm State:  0
Wed May 18 13:10:59 PDT 2022 ON: 20.00 +20.0 20.04 -23.1 16.7 24.2 28.4 10 1 Alarm State:  0
Wed May 18 13:09:58 PDT 2022 ON: 19.99 +20.0 20.04 -23.2 16.6 24.3 28.4 10 1 Alarm State:  0
Wed May 18 13:08:56 PDT 2022 ON: 19.99 +20.0 20.04 -23.2 16.6 24.3 28.3 10 1 Alarm State:  0
Wed May 18 13:07:55 PDT 2022 ON: 19.99 +20.0 20.03 -23.2 16.6 24.3 28.3 9 1 Alarm State:  0
Wed May 18 13:06:53 PDT 2022 ON: 20.00 +20.0 20.04 -23.3 16.5 24.4 28.3 10 1 Alarm State:  0
Wed May 18 13:05:52 PDT 2022 ON: 20.00 +20.0 20.04 -23.3 16.5 24.4 28.3 10 1 Alarm State:  0
Wed May 18 13:04:50 PDT 2022 ON: 19.99 +20.0 20.04 -23.1 16.7 24.2 28.4 9 1 Alarm State:  0
Wed May 18 13:03:49 PDT 2022 ON: 19.99 +20.0 20.04 -23.1 16.7 24.2 28.3 10 1 Alarm State:  0
Wed May 18 13:02:47 PDT 2022 ON: 20.00 +20.0 20.05 -23.2 16.6 24.3 28.4 10 0 Alarm State:  0
Wed May 18 13:01:46 PDT 2022 ON: 19.99 +20.0 20.02 -23.4 16.3 24.6 28.3 10 2 Alarm State:  0
Wed May 18 13:00:44 PDT 2022 ON: 19.99 +20.0 20.04 -23.2 16.6 24.3 28.4 10 1 Alarm State:  0
Wed May 18 12:59:42 PDT 2022 ON: 20.00 +20.0 20.04 -23.3 16.4 24.5 28.3 9 1 Alarm State:  0
Wed May 18 12:58:41 PDT 2022 ON: 19.99 +20.0 20.04 -23.2 16.6 24.3 28.3 10 1 Alarm State:  0
Wed May 18 12:57:39 PDT 2022 ON: 19.99 +20.0 20.03 -23.3 16.5 24.4 28.3 10 1 Alarm State:  0
Wed May 18 12:56:38 PDT 2022 ON: 20.00 +20.0 20.05 -23.0 16.8 24.2 28.4 9 0 Alarm State:  0
Wed May 18 12:55:36 PDT 2022 ON: 19.99 +20.0 20.05 -23.2 16.6 24.3 28.3 10 1 Alarm State:  0
Wed May 18 12:54:35 PDT 2022 ON: 19.99 +20.0 20.04 -23.2 16.6 24.3 28.4 10 1 Alarm State:  0
Wed May 18 12:53:33 PDT 2022 ON: 20.00 +20.0 20.05 -23.1 16.7 24.2 28.4 9 0 Alarm State:  0
Wed May 18 12:52:32 PDT 2022 ON: 20.00 +20.0 20.05 -23.3 16.5 24.4 28.3 10 0 Alarm State:  0
Wed May 18 12:51:30 PDT 2022 ON: 20.00 +20.0 20.04 -23.3 16.5 24.4 28.3 9 0 Alarm State:  0
Wed May 18 12:50:29 PDT 2022 ON: 19.99 +20.0 20.05 -23.3 16.4 24.5 28.4 10 1 Alarm State:  0
Wed May 18 12:49:27 PDT 2022 ON: 20.00 +20.0 20.03 -23.1 16.7 24.2 28.4 10 1 Alarm State:  0
Wed May 18 12:48:26 PDT 2022 ON: 19.99 +20.0 20.03 -23.1 16.7 24.2 28.3 9 1 Alarm State:  0
Wed May 18 12:47:24 PDT 2022 ON: 20.00 +20.0 20.04 -23.3 16.5 24.4 28.3 10 1 Alarm State:  0
Wed May 18 12:46:23 PDT 2022 ON: 19.99 +20.0 20.04 -23.1 16.7 24.2 28.4 10 1 Alarm State:  0
Wed May 18 12:45:21 PDT 2022 ON: 20.00 +20.0 20.04 -23.0 16.8 24.2 28.4 10 1 Alarm State:  0
Wed May 18 12:44:20 PDT 2022 ON: 20.00 +20.0 20.05 -23.3 16.5 24.4 28.4 10 0 Alarm State:  0
Wed May 18 12:43:18 PDT 2022 ON: 19.99 +20.0 20.05 -23.1 16.7 24.2 28.4 9 0 Alarm State:  0
Wed May 18 12:42:17 PDT 2022 ON: 19.99 +20.0 20.03 -23.3 16.4 24.5 28.3 10 1 Alarm State:  0
Wed May 18 12:41:15 PDT 2022 ON: 20.00 +20.0 20.04 -23.3 16.5 24.4 28.3 10 1 Alarm State:  0
Wed May 18 12:40:14 PDT 2022 ON: 20.00 +20.0 20.05 -23.1 16.7 24.2 28.3 9 0 Alarm State:  0
Wed May 18 12:39:12 PDT 2022 ON: 19.98 +20.0 20.03 -23.3 16.4 24.5 28.3 10 1 Alarm State:  0
Wed May 18 12:38:11 PDT 2022 ON: 20.00 +20.0 20.04 -23.1 16.7 24.2 28.3 9 0 Alarm State:  0
Wed May 18 12:37:09 PDT 2022 ON: 20.00 +20.0 20.03 -23.2 16.6 24.3 28.3 10 1 Alarm State:  0
Wed May 18 12:36:08 PDT 2022 ON: 20.00 +20.0 20.05 -23.3 16.5 24.4 28.4 10 1 Alarm State:  0
Wed May 18 12:35:06 PDT 2022 ON: 20.00 +20.0 20.06 -23.3 16.4 24.5 28.3 9 0 Alarm State:  0
Wed May 18 12:34:05 PDT 2022 ON: 19.99 +20.0 20.03 -23.0 16.8 24.2 28.4 9 1 Alarm State:  0
Wed May 18 12:33:03 PDT 2022 ON: 20.00 +20.0 20.05 -23.4 16.3 24.6 28.3 10 0 Alarm State:  0
Wed May 18 12:32:02 PDT 2022 ON: 20.00 +20.0 20.05 -23.3 16.5 24.4 28.3 9 0 Alarm State:  0
Wed May 18 12:31:00 PDT 2022 ON: 19.99 +20.0 20.05 -23.3 16.5 24.4 28.3 10 0 Alarm State:  0
Wed May 18 12:29:59 PDT 2022 ON: 19.99 +20.0 20.05 -23.3 16.5 24.4 28.3 10 0 Alarm State:  0
Wed May 18 12:28:57 PDT 2022 ON: 20.00 +20.0 20.04 -23.2 16.6 24.3 28.4 10 1 Alarm State:  0
Wed May 18 12:27:56 PDT 2022 ON: 20.00 +20.0 20.07 -23.3 16.5 24.4 28.3 10 0 Alarm State:  0
Wed May 18 12:26:54 PDT 2022 ON: 19.99 +20.0 20.05 -23.2 16.6 24.3 28.4 9 0 Alarm State:  0
Wed May 18 12:25:53 PDT 2022 ON: 20.00 +20.0 20.05 -23.3 16.5 24.4 28.3 10 0 Alarm State:  0
Wed May 18 12:24:51 PDT 2022 ON: 19.99 +20.0 20.04 -23.1 16.7 24.2 28.3 10 1 Alarm State:  0
Wed May 18 12:23:50 PDT 2022 ON: 20.00 +20.0 20.05 -23.2 16.6 24.3 28.4 9 0 Alarm State:  0
Wed May 18 12:22:48 PDT 2022 ON: 20.00 +20.0 20.05 -23.3 16.5 24.4 28.3 10 0 Alarm State:  0
Wed May 18 12:21:47 PDT 2022 ON: 19.99 +20.0 20.04 -23.3 16.4 24.5 28.3 10 1 Alarm State:  0
Wed May 18 12:20:45 PDT 2022 ON: 20.00 +20.0 20.05 -23.3 16.5 24.4 28.3 10 0 Alarm State:  0
Wed May 18 12:19:44 PDT 2022 ON: 19.99 +20.0 20.04 -23.3 16.4 24.5 28.3 10 0 Alarm State:  0
Wed May 18 12:18:42 PDT 2022 ON: 19.99 +20.0 20.04 -23.2 16.6 24.3 28.4 9 1 Alarm State:  0
Wed May 18 12:17:41 PDT 2022 ON: 20.00 +20.0 20.05 -23.2 16.6 24.3 28.3 10 0 Alarm State:  0
Wed May 18 12:16:39 PDT 2022 ON: 19.99 +20.0 20.04 -23.1 16.7 24.2 28.3 10 1 Alarm State:  0
Wed May 18 12:15:38 PDT 2022 ON: 20.00 +20.0 20.05 -23.1 16.7 24.2 28.3 9 0 Alarm State:  0
Wed May 18 12:14:36 PDT 2022 ON: 20.00 +20.0 20.05 -23.2 16.6 24.3 28.4 10 1 Alarm State:  0
Wed May 18 12:13:35 PDT 2022 ON: 19.99 +20.0 20.04 -23.3 16.5 24.4 28.3 10 1 Alarm State:  0
Wed May 18 12:12:33 PDT 2022 ON: 19.99 +20.0 20.02 -23.1 16.7 24.2 28.4 10 1 Alarm State:  0
Wed May 18 12:11:32 PDT 2022 ON: 20.01 +20.0 20.04 -23.3 16.5 24.4 28.3 10 1 Alarm State:  0
Wed May 18 12:10:30 PDT 2022 ON: 19.99 +20.0 20.05 -23.2 16.6 24.3 28.3 9 1 Alarm State:  0
Wed May 18 12:09:29 PDT 2022 ON: 20.00 +20.0 20.05 -23.3 16.5 24.4 28.3 10 0 Alarm State:  0
Wed May 18 12:08:27 PDT 2022 ON: 19.99 +20.0 20.04 -23.1 16.7 24.2 28.3 10 1 Alarm State:  0
Wed May 18 12:07:26 PDT 2022 ON: 20.00 +20.0 20.04 -23.2 16.6 24.3 28.4 10 1 Alarm State:  0
Wed May 18 12:06:24 PDT 2022 ON: 19.99 +20.0 20.05 -23.3 16.5 24.4 28.4 10 0 Alarm State:  0
Wed May 18 12:05:23 PDT 2022 ON: 20.00 +20.0 20.05 -23.3 16.5 24.4 28.3 9 0 Alarm State:  0
Wed May 18 12:04:21 PDT 2022 ON: 20.00 +20.0 20.05 -23.3 16.4 24.5 28.3 10 1 Alarm State:  0
Wed May 18 12:03:20 PDT 2022 ON: 20.00 +20.0 20.04 -23.2 16.6 24.3 28.4 10 1 Alarm State:  0
Wed May 18 12:02:18 PDT 2022 ON: 20.00 +20.0 20.05 -23.2 16.6 24.3 28.3 9 0 Alarm State:  0
Wed May 18 12:01:17 PDT 2022 ON: 20.00 +20.0 20.05 -23.3 16.5 24.4 28.4 10 0 Alarm State:  0
Wed May 18 12:00:15 PDT 2022 ON: 19.99 +20.0 20.03 -23.3 16.5 24.4 28.3 10 2 Alarm State:  0
Wed May 18 11:59:13 PDT 2022 ON: 20.00 +20.0 20.05 -23.3 16.5 24.4 28.3 10 0 Alarm State:  0
Wed May 18 11:58:12 PDT 2022 ON: 20.00 +20.0 20.06 -23.3 16.5 24.4 28.3 10 0 Alarm State:  0
Wed May 18 11:57:10 PDT 2022 ON: 20.00 +20.0 20.06 -23.2 16.6 24.3 28.4 9 0 Alarm State:  0
Wed May 18 11:56:09 PDT 2022 ON: 19.99 +20.0 20.04 -23.3 16.5 24.4 28.3 10 1 Alarm State:  0
Wed May 18 11:55:07 PDT 2022 ON: 20.00 +20.0 20.04 -23.2 16.6 24.3 28.3 10 0 Alarm State:  0
Wed May 18 11:54:06 PDT 2022 ON: 20.00 +20.0 20.05 -23.1 16.7 24.2 28.3 9 1 Alarm State:  0
Wed May 18 11:53:04 PDT 2022 ON: 20.00 +20.0 20.04 -23.3 16.5 24.4 28.3 10 1 Alarm State:  0
Wed May 18 11:52:03 PDT 2022 ON: 19.99 +20.0 20.04 -23.2 16.6 24.3 28.3 9 1 Alarm State:  0
Wed May 18 11:51:01 PDT 2022 ON: 20.00 +20.0 20.05 -23.2 16.6 24.3 28.3 10 0 Alarm State:  0
Wed May 18 11:50:00 PDT 2022 ON: 20.00 +20.0 20.05 -23.3 16.5 24.4 28.3 10 0 Alarm State:  0
Wed May 18 11:48:58 PDT 2022 ON: 20.00 +20.0 20.05 -23.2 16.6 24.3 28.4 9 0 Alarm State:  0
Wed May 18 11:47:57 PDT 2022 ON: 19.99 +20.0 20.02 -23.1 16.7 24.2 28.3 10 2 Alarm State:  0
Wed May 18 11:46:55 PDT 2022 ON: 19.98 +20.0 20.03 -23.1 16.7 24.2 28.4 10 1 Alarm State:  0
Wed May 18 11:45:54 PDT 2022 ON: 19.99 +20.0 20.04 -23.2 16.6 24.3 28.3 9 1 Alarm State:  0
Wed May 18 11:44:52 PDT 2022 ON: 20.00 +20.0 20.06 -23.2 16.6 24.3 28.4 10 0 Alarm State:  0
Wed May 18 11:43:51 PDT 2022 ON: 20.00 +20.0 20.05 -23.3 16.4 24.5 28.3 10 0 Alarm State:  0
Wed May 18 11:42:49 PDT 2022 ON: 20.00 +20.0 20.05 -23.2 16.6 24.3 28.4 10 0 Alarm State:  0
Wed May 18 11:41:48 PDT 2022 ON: 19.99 +20.0 20.05 -23.3 16.5 24.4 28.3 10 0 Alarm State:  0
Wed May 18 11:40:46 PDT 2022 ON: 19.99 +20.0 20.05 -23.2 16.6 24.3 28.4 9 0 Alarm State:  0
Wed May 18 11:39:45 PDT 2022 ON: 20.00 +20.0 20.04 -23.3 16.5 24.4 28.3 10 1 Alarm State:  0
Wed May 18 11:38:43 PDT 2022 ON: 20.00 +20.0 20.05 -23.2 16.6 24.3 28.3 9 0 Alarm State:  0
Wed May 18 11:37:42 PDT 2022 ON: 19.99 +20.0 20.03 -23.3 16.5 24.4 28.3 9 1 Alarm State:  0
Wed May 18 11:36:40 PDT 2022 ON: 19.99 +20.0 20.04 -23.1 16.7 24.2 28.4 10 1 Alarm State:  0
Wed May 18 11:35:39 PDT 2022 ON: 19.99 +20.0 20.03 -23.3 16.4 24.5 28.3 9 1 Alarm State:  0
Wed May 18 11:34:37 PDT 2022 ON: 20.00 +20.0 20.04 -23.2 16.6 24.3 28.4 10 1 Alarm State:  0
Wed May 18 11:33:36 PDT 2022 ON: 19.99 +20.0 20.04 -23.1 16.7 24.2 28.4 10 1 Alarm State:  0
Wed May 18 11:32:34 PDT 2022 ON: 20.00 +20.0 20.05 -23.3 16.5 24.4 28.3 9 0 Alarm State:  0
Wed May 18 11:31:33 PDT 2022 ON: 19.99 +20.0 20.03 -23.2 16.6 24.3 28.4 10 1 Alarm State:  0
Wed May 18 11:30:31 PDT 2022 ON: 19.99 +20.0 20.03 -23.3 16.4 24.5 28.3 10 1 Alarm State:  0
Wed May 18 11:29:30 PDT 2022 ON: 20.00 +20.0 20.05 -23.2 16.6 24.3 28.3 9 0 Alarm State:  0
Wed May 18 11:28:28 PDT 2022 ON: 19.99 +20.0 20.04 -23.3 16.5 24.4 28.3 10 1 Alarm State:  0
Wed May 18 11:27:27 PDT 2022 ON: 19.99 +20.0 20.03 -23.0 16.8 24.2 28.4 10 1 Alarm State:  0
Wed May 18 11:26:25 PDT 2022 ON: 20.00 +20.0 20.04 -23.3 16.4 24.5 28.3 10 0 Alarm State:  0
Wed May 18 11:25:24 PDT 2022 ON: 20.00 +20.0 20.04 -23.1 16.7 24.2 28.3 10 1 Alarm State:  0
Wed May 18 11:24:22 PDT 2022 ON: 20.00 +20.0 20.04 -23.2 16.6 24.3 28.4 9 1 Alarm State:  0
Wed May 18 11:23:21 PDT 2022 ON: 19.99 +20.0 20.03 -23.1 16.7 24.2 28.3 9 1 Alarm State:  0
Wed May 18 11:22:19 PDT 2022 ON: 19.99 +20.0 20.03 -23.1 16.7 24.2 28.4 10 1 Alarm State:  0
Wed May 18 11:21:18 PDT 2022 ON: 20.00 +20.0 20.04 -23.2 16.6 24.3 28.4 9 1 Alarm State:  0
Wed May 18 11:20:16 PDT 2022 ON: 19.99 +20.0 20.04 -23.1 16.7 24.2 28.4 10 0 Alarm State:  0
Wed May 18 11:19:15 PDT 2022 ON: 20.00 +20.0 20.04 -23.2 16.6 24.3 28.3 9 1 Alarm State:  0
Wed May 18 11:18:13 PDT 2022 ON: 20.00 +20.0 20.05 -23.3 16.4 24.5 28.3 10 0 Alarm State:  0
Wed May 18 11:17:12 PDT 2022 ON: 19.99 +20.0 20.04 -23.0 16.8 24.2 28.4 10 1 Alarm State:  0
Wed May 18 11:16:10 PDT 2022 ON: 20.00 +20.0 20.06 -23.1 16.7 24.2 28.3 9 0 Alarm State:  0
Wed May 18 11:15:08 PDT 2022 ON: 20.00 +20.0 20.04 -23.2 16.6 24.3 28.3 10 1 Alarm State:  0
Wed May 18 11:14:07 PDT 2022 ON: 19.99 +20.0 20.04 -23.3 16.4 24.5 28.3 10 1 Alarm State:  0
Wed May 18 11:13:05 PDT 2022 ON: 19.99 +20.0 20.04 -23.1 16.7 24.2 28.3 9 1 Alarm State:  0
Wed May 18 11:12:04 PDT 2022 ON: 20.00 +20.0 20.05 -23.3 16.5 24.4 28.3 10 0 Alarm State:  0
Wed May 18 11:11:02 PDT 2022 ON: 20.00 +20.0 20.05 -23.2 16.6 24.3 28.3 9 0 Alarm State:  0
Wed May 18 11:10:01 PDT 2022 ON: 19.99 +20.0 20.03 -23.2 16.6 24.3 28.3 10 2 Alarm State:  0
Wed May 18 11:08:59 PDT 2022 ON: 19.99 +20.0 20.04 -23.3 16.5 24.4 28.3 10 1 Alarm State:  0
Wed May 18 11:07:58 PDT 2022 ON: 20.00 +20.0 20.06 -23.3 16.5 24.4 28.4 9 0 Alarm State:  0
Wed May 18 11:06:56 PDT 2022 ON: 19.99 +20.0 20.04 -23.3 16.5 24.4 28.3 10 1 Alarm State:  0
Wed May 18 11:05:55 PDT 2022 ON: 20.00 +20.0 20.04 -23.3 16.5 24.4 28.3 10 0 Alarm State:  0
Wed May 18 11:04:53 PDT 2022 ON: 20.00 +20.0 20.04 -23.2 16.6 24.3 28.3 10 1 Alarm State:  0
Wed May 18 11:03:52 PDT 2022 ON: 20.00 +20.0 20.04 -23.2 16.6 24.3 28.3 10 1 Alarm State:  0
Wed May 18 11:02:50 PDT 2022 ON: 19.99 +20.0 20.04 -23.3 16.4 24.5 28.3 9 1 Alarm State:  0
Wed May 18 11:01:49 PDT 2022 ON: 20.00 +20.0 20.05 -23.3 16.4 24.5 28.3 9 0 Alarm State:  0
Wed May 18 11:00:47 PDT 2022 ON: 20.00 +20.0 20.05 -23.1 16.7 24.2 28.3 9 0 Alarm State:  0
Wed May 18 10:59:46 PDT 2022 ON: 19.99 +20.0 20.05 -23.2 16.6 24.3 28.3 9 0 Alarm State:  0
Wed May 18 10:58:44 PDT 2022 ON: 20.00 +20.0 20.04 -23.3 16.5 24.4 28.3 10 1 Alarm State:  0
Wed May 18 10:57:43 PDT 2022 ON: 19.99 +20.0 20.04 -23.1 16.7 24.2 28.4 10 1 Alarm State:  0
Wed May 18 10:56:41 PDT 2022 ON: 19.99 +20.0 20.04 -23.2 16.6 24.3 28.3 10 1 Alarm State:  0
Wed May 18 10:55:40 PDT 2022 ON: 19.99 +20.0 20.04 -23.2 16.6 24.3 28.3 10 1 Alarm State:  0
Wed May 18 10:54:38 PDT 2022 ON: 20.00 +20.0 20.05 -23.2 16.6 24.3 28.3 9 0 Alarm State:  0
Wed May 18 10:53:37 PDT 2022 ON: 19.99 +20.0 20.04 -23.3 16.5 24.4 28.3 10 1 Alarm State:  0
Wed May 18 10:52:35 PDT 2022 ON: 19.99 +20.0 20.03 -23.3 16.5 24.4 28.3 10 1 Alarm State:  0
Wed May 18 10:51:34 PDT 2022 ON: 20.00 +20.0 20.04 -23.2 16.6 24.3 28.4 9 1 Alarm State:  0
Wed May 18 10:50:32 PDT 2022 ON: 20.00 +20.0 20.05 -23.3 16.5 24.4 28.3 10 0 Alarm State:  0
Wed May 18 10:49:31 PDT 2022 ON: 19.99 +20.0 20.03 -23.3 16.5 24.4 28.3 10 2 Alarm State:  0
Wed May 18 10:48:29 PDT 2022 ON: 19.99 +20.0 20.04 -23.1 16.7 24.2 28.4 10 1 Alarm State:  0
Wed May 18 10:47:28 PDT 2022 ON: 20.00 +20.0 20.05 -23.3 16.5 24.4 28.3 10 0 Alarm State:  0
Wed May 18 10:46:26 PDT 2022 ON: 20.00 +20.0 20.05 -23.2 16.6 24.3 28.3 9 1 Alarm State:  0
Wed May 18 10:45:25 PDT 2022 ON: 19.99 +20.0 20.03 -22.9 16.9 24.1 28.4 9 1 Alarm State:  0
Wed May 18 10:44:23 PDT 2022 ON: 20.00 +20.0 20.05 -23.3 16.5 24.4 28.3 9 0 Alarm State:  0
Wed May 18 10:43:22 PDT 2022 ON: 19.99 +20.0 20.05 -23.3 16.4 24.5 28.3 9 0 Alarm State:  0
Wed May 18 10:42:20 PDT 2022 ON: 19.99 +20.0 20.04 -23.3 16.4 24.5 28.3 10 1 Alarm State:  0
Wed May 18 10:41:19 PDT 2022 ON: 20.00 +20.0 20.03 -23.2 16.6 24.3 28.3 10 1 Alarm State:  0
Wed May 18 10:40:17 PDT 2022 ON: 19.99 +20.0 20.04 -23.2 16.6 24.3 28.3 10 1 Alarm State:  0
Wed May 18 10:39:16 PDT 2022 ON: 19.99 +20.0 20.04 -23.3 16.5 24.4 28.3 10 1 Alarm State:  0
Wed May 18 10:38:14 PDT 2022 ON: 20.00 +20.0 20.06 -23.2 16.6 24.3 28.4 9 0 Alarm State:  0
Wed May 18 10:37:13 PDT 2022 ON: 20.00 +20.0 20.04 -23.2 16.6 24.3 28.3 10 1 Alarm State:  0
Wed May 18 10:36:11 PDT 2022 ON: 20.00 +20.0 20.04 -23.2 16.6 24.3 28.3 10 1 Alarm State:  0
Wed May 18 10:35:10 PDT 2022 ON: 19.99 +20.0 20.05 -23.2 16.6 24.3 28.3 9 1 Alarm State:  0
Wed May 18 10:34:08 PDT 2022 ON: 20.00 +20.0 20.05 -23.3 16.5 24.4 28.3 10 0 Alarm State:  0
Wed May 18 10:33:07 PDT 2022 ON: 20.00 +20.0 20.05 -23.2 16.6 24.3 28.4 10 0 Alarm State:  0
Wed May 18 10:32:05 PDT 2022 ON: 20.00 +20.0 20.05 -23.2 16.6 24.3 28.3 9 0 Alarm State:  0
Wed May 18 10:31:04 PDT 2022 ON: 20.00 +20.0 20.06 -23.3 16.5 24.4 28.3 10 0 Alarm State:  0
Wed May 18 10:30:02 PDT 2022 ON: 19.99 +20.0 20.05 -23.1 16.7 24.2 28.3 9 0 Alarm State:  0
Wed May 18 10:29:01 PDT 2022 ON: 20.00 +20.0 20.04 -23.3 16.5 24.4 28.3 10 0 Alarm State:  0
Wed May 18 10:27:59 PDT 2022 ON: 20.00 +20.0 20.04 -23.3 16.4 24.5 28.3 10 1 Alarm State:  0
Wed May 18 10:26:58 PDT 2022 ON: 19.99 +20.0 20.05 -23.3 16.5 24.4 28.3 9 0 Alarm State:  0
Wed May 18 10:25:56 PDT 2022 ON: 20.00 +20.0 20.04 -23.3 16.4 24.5 28.3 10 1 Alarm State:  0
Wed May 18 10:24:55 PDT 2022 ON: 20.00 +20.0 20.05 -23.2 16.6 24.3 28.3 10 1 Alarm State:  0
Wed May 18 10:23:53 PDT 2022 ON: 20.00 +20.0 20.05 -23.2 16.6 24.3 28.3 10 0 Alarm State:  0
Wed May 18 10:22:52 PDT 2022 ON: 19.99 +20.0 20.04 -23.3 16.5 24.4 28.3 10 1 Alarm State:  0
Wed May 18 10:21:50 PDT 2022 ON: 20.00 +20.0 20.05 -23.3 16.5 24.4 28.3 9 0 Alarm State:  0
Wed May 18 10:20:49 PDT 2022 ON: 20.00 +20.0 20.04 -23.2 16.6 24.3 28.3 10 1 Alarm State:  0
Wed May 18 10:19:47 PDT 2022 ON: 20.00 +20.0 20.04 -23.2 16.6 24.3 28.3 9 1 Alarm State:  0
Wed May 18 10:18:46 PDT 2022 ON: 19.99 +20.0 20.05 -23.1 16.7 24.2 28.4 9 1 Alarm State:  0
Wed May 18 10:17:44 PDT 2022 ON: 19.99 +20.0 20.04 -23.0 16.8 24.2 28.4 10 0 Alarm State:  0
Wed May 18 10:16:43 PDT 2022 ON: 20.00 +20.0 20.04 -23.2 16.6 24.3 28.4 10 1 Alarm State:  0
Wed May 18 10:15:41 PDT 2022 ON: 20.00 +20.0 20.05 -23.3 16.5 24.4 28.3 10 1 Alarm State:  0
Wed May 18 10:14:39 PDT 2022 ON: 19.99 +20.0 20.05 -23.3 16.4 24.5 28.3 10 0 Alarm State:  0
Wed May 18 10:13:38 PDT 2022 ON: 20.00 +20.0 20.04 -23.1 16.7 24.2 28.4 9 0 Alarm State:  0
Wed May 18 10:12:36 PDT 2022 ON: 19.99 +20.0 20.05 -23.2 16.6 24.3 28.3 10 1 Alarm State:  0
Wed May 18 10:11:35 PDT 2022 ON: 20.00 +20.0 20.04 -23.2 16.6 24.3 28.3 9 1 Alarm State:  0
Wed May 18 10:10:33 PDT 2022 ON: 20.00 +20.0 20.05 -23.3 16.5 24.4 28.3 9 0 Alarm State:  0
Wed May 18 10:09:32 PDT 2022 ON: 19.99 +20.0 20.04 -23.2 16.6 24.3 28.3 10 1 Alarm State:  0
Wed May 18 10:08:30 PDT 2022 ON: 20.00 +20.0 20.05 -23.2 16.6 24.3 28.3 10 0 Alarm State:  0
Wed May 18 10:07:29 PDT 2022 ON: 20.00 +20.0 20.05 -23.3 16.5 24.4 28.3 10 1 Alarm State:  0
Wed May 18 10:06:27 PDT 2022 ON: 19.99 +20.0 20.04 -23.1 16.7 24.2 28.4 10 1 Alarm State:  0
Wed May 18 10:05:26 PDT 2022 ON: 20.00 +20.0 20.05 -23.3 16.5 24.4 28.3 9 0 Alarm State:  0
Wed May 18 10:04:24 PDT 2022 ON: 19.99 +20.0 20.04 -23.2 16.6 24.3 28.3 10 0 Alarm State:  0
Wed May 18 10:03:23 PDT 2022 ON: 20.00 +20.0 20.05 -23.2 16.6 24.3 28.3 10 0 Alarm State:  0
Wed May 18 10:02:21 PDT 2022 ON: 19.99 +20.0 20.04 -23.2 16.6 24.3 28.3 9 1 Alarm State:  0
Wed May 18 10:01:20 PDT 2022 ON: 19.99 +20.0 20.04 -23.1 16.7 24.2 28.3 10 1 Alarm State:  0
Wed May 18 10:00:18 PDT 2022 ON: 19.99 +20.0 20.04 -23.3 16.5 24.4 28.3 9 1 Alarm State:  0
Wed May 18 09:59:17 PDT 2022 ON: 20.00 +20.0 20.04 -23.2 16.6 24.3 28.3 9 1 Alarm State:  0
Wed May 18 09:58:15 PDT 2022 ON: 20.00 +20.0 20.04 -23.1 16.7 24.2 28.4 10 1 Alarm State:  0
Wed May 18 09:57:14 PDT 2022 ON: 19.99 +20.0 20.05 -23.1 16.7 24.2 28.4 9 0 Alarm State:  0
Wed May 18 09:56:12 PDT 2022 ON: 20.00 +20.0 20.06 -23.1 16.7 24.2 28.4 10 0 Alarm State:  0
Wed May 18 09:55:11 PDT 2022 ON: 20.01 +20.0 20.06 -23.3 16.4 24.5 28.3 9 0 Alarm State:  0
Wed May 18 09:54:09 PDT 2022 ON: 19.99 +20.0 20.04 -23.1 16.7 24.2 28.3 9 1 Alarm State:  0
Wed May 18 09:53:08 PDT 2022 ON: 20.00 +20.0 20.05 -23.3 16.5 24.4 28.3 10 0 Alarm State:  0
Wed May 18 09:52:06 PDT 2022 ON: 20.00 +20.0 20.05 -23.2 16.6 24.3 28.3 9 0 Alarm State:  0
Wed May 18 09:51:05 PDT 2022 ON: 19.99 +20.0 20.04 -23.0 16.8 24.2 28.4 10 1 Alarm State:  0
Wed May 18 09:50:03 PDT 2022 ON: 19.98 +20.0 20.03 -23.1 16.7 24.2 28.3 10 1 Alarm State:  0
Wed May 18 09:49:02 PDT 2022 ON: 20.00 +20.0 20.04 -23.4 16.3 24.6 28.3 9 1 Alarm State:  0
Wed May 18 09:48:00 PDT 2022 ON: 19.99 +20.0 20.05 -23.2 16.6 24.3 28.3 10 1 Alarm State:  0
Wed May 18 09:46:59 PDT 2022 ON: 19.99 +20.0 20.03 -23.3 16.5 24.4 28.3 10 1 Alarm State:  0
Wed May 18 09:45:57 PDT 2022 ON: 19.99 +20.0 20.04 -23.3 16.5 24.4 28.3 10 1 Alarm State:  0
Wed May 18 09:44:56 PDT 2022 ON: 20.00 +20.0 20.05 -23.2 16.6 24.3 28.3 10 0 Alarm State:  0
Wed May 18 09:43:54 PDT 2022 ON: 20.00 +20.0 20.06 -23.1 16.7 24.2 28.4 9 0 Alarm State:  0
Wed May 18 09:42:53 PDT 2022 ON: 19.99 +20.0 20.04 -23.2 16.6 24.3 28.3 9 1 Alarm State:  0
Wed May 18 09:41:51 PDT 2022 ON: 19.99 +20.0 20.04 -23.2 16.6 24.3 28.3 9 1 Alarm State:  0
Wed May 18 09:40:50 PDT 2022 ON: 20.00 +20.0 20.06 -23.2 16.6 24.3 28.3 9 0 Alarm State:  0
Wed May 18 09:39:48 PDT 2022 ON: 19.99 +20.0 20.03 -23.3 16.5 24.4 28.3 10 1 Alarm State:  0
Wed May 18 09:38:47 PDT 2022 ON: 20.00 +20.0 20.04 -23.3 16.5 24.4 28.3 9 1 Alarm State:  0
Wed May 18 09:37:45 PDT 2022 ON: 20.00 +20.0 20.04 -23.3 16.5 24.4 28.3 10 1 Alarm State:  0
Wed May 18 09:36:44 PDT 2022 ON: 19.99 +20.0 20.03 -23.3 16.5 24.4 28.3 10 1 Alarm State:  0
Wed May 18 09:35:42 PDT 2022 ON: 19.99 +20.0 20.05 -23.2 16.6 24.3 28.3 9 0 Alarm State:  0
Wed May 18 09:34:41 PDT 2022 ON: 19.99 +20.0 20.04 -23.1 16.7 24.2 28.4 10 1 Alarm State:  0
Wed May 18 09:33:39 PDT 2022 ON: 19.99 +20.0 20.04 -23.2 16.6 24.3 28.3 10 1 Alarm State:  0
Wed May 18 09:32:38 PDT 2022 ON: 19.99 +20.0 20.04 -23.2 16.6 24.3 28.3 9 1 Alarm State:  0
Wed May 18 09:31:36 PDT 2022 ON: 20.00 +20.0 20.06 -23.3 16.4 24.5 28.3 10 0 Alarm State:  0
Wed May 18 09:30:35 PDT 2022 ON: 20.00 +20.0 20.04 -23.1 16.7 24.2 28.3 9 1 Alarm State:  0
Wed May 18 09:29:33 PDT 2022 ON: 19.99 +20.0 20.03 -23.2 16.6 24.3 28.3 10 2 Alarm State:  0
Wed May 18 09:28:32 PDT 2022 ON: 20.00 +20.0 20.06 -23.1 16.7 24.2 28.4 10 0 Alarm State:  0
Wed May 18 09:27:30 PDT 2022 ON: 19.99 +20.0 20.04 -23.3 16.4 24.5 28.3 9 0 Alarm State:  0
Wed May 18 09:26:29 PDT 2022 ON: 19.99 +20.0 20.03 -23.2 16.6 24.3 28.3 9 1 Alarm State:  0
Wed May 18 09:25:27 PDT 2022 ON: 20.01 +20.0 20.06 -23.1 16.7 24.2 28.3 9 0 Alarm State:  0
Wed May 18 09:24:26 PDT 2022 ON: 19.99 +20.0 20.05 -23.3 16.5 24.4 28.3 9 1 Alarm State:  0
Wed May 18 09:23:24 PDT 2022 ON: 19.99 +20.0 20.03 -23.0 16.8 24.2 28.3 10 1 Alarm State:  0
Wed May 18 09:22:23 PDT 2022 ON: 19.99 +20.0 20.03 -23.3 16.5 24.4 28.3 10 1 Alarm State:  0
Wed May 18 09:21:21 PDT 2022 ON: 19.99 +20.0 20.04 -23.1 16.7 24.2 28.3 10 1 Alarm State:  0
Wed May 18 09:20:20 PDT 2022 ON: 20.00 +20.0 20.05 -23.2 16.6 24.3 28.3 10 0 Alarm State:  0
Wed May 18 09:19:18 PDT 2022 ON: 20.00 +20.0 20.06 -23.3 16.4 24.5 28.3 9 0 Alarm State:  0
Wed May 18 09:18:17 PDT 2022 ON: 19.99 +20.0 20.04 -23.2 16.6 24.3 28.3 10 1 Alarm State:  0
Wed May 18 09:17:15 PDT 2022 ON: 20.00 +20.0 20.05 -23.3 16.4 24.5 28.3 10 0 Alarm State:  0
Wed May 18 09:16:14 PDT 2022 ON: 20.00 +20.0 20.06 -23.2 16.6 24.3 28.3 9 0 Alarm State:  0
Wed May 18 09:15:12 PDT 2022 ON: 19.99 +20.0 20.05 -23.3 16.5 24.4 28.3 10 0 Alarm State:  0
Wed May 18 09:14:11 PDT 2022 ON: 19.99 +20.0 20.05 -23.3 16.5 24.4 28.3 10 0 Alarm State:  0
Wed May 18 09:13:09 PDT 2022 ON: 20.00 +20.0 20.04 -23.1 16.7 24.2 28.3 10 1 Alarm State:  0
Wed May 18 09:12:08 PDT 2022 ON: 20.00 +20.0 20.05 -23.2 16.6 24.3 28.3 10 0 Alarm State:  0
Wed May 18 09:11:06 PDT 2022 ON: 19.99 +20.0 20.04 -23.2 16.6 24.3 28.3 9 1 Alarm State:  0
Wed May 18 09:10:05 PDT 2022 ON: 20.00 +20.0 20.04 -23.3 16.5 24.4 28.3 10 1 Alarm State:  0
Wed May 18 09:09:03 PDT 2022 ON: 20.00 +20.0 20.04 -23.3 16.5 24.4 28.3 10 1 Alarm State:  0
Wed May 18 09:08:01 PDT 2022 ON: 19.99 +20.0 20.05 -23.2 16.6 24.3 28.3 9 0 Alarm State:  0
Wed May 18 09:07:00 PDT 2022 ON: 19.99 +20.0 20.04 -23.3 16.5 24.4 28.3 10 0 Alarm State:  0
Wed May 18 09:05:58 PDT 2022 ON: 19.99 +20.0 20.03 -23.2 16.6 24.3 28.3 10 1 Alarm State:  0
Wed May 18 09:04:57 PDT 2022 ON: 19.99 +20.0 20.03 -23.1 16.7 24.2 28.4 10 2 Alarm State:  0
Wed May 18 09:03:55 PDT 2022 ON: 20.00 +20.0 20.05 -23.3 16.4 24.5 28.3 10 0 Alarm State:  0
Wed May 18 09:02:54 PDT 2022 ON: 19.99 +20.0 20.05 -23.1 16.7 24.2 28.3 9 0 Alarm State:  0
Wed May 18 09:01:52 PDT 2022 ON: 20.00 +20.0 20.04 -23.2 16.6 24.3 28.3 10 1 Alarm State:  0
Wed May 18 09:00:51 PDT 2022 ON: 20.00 +20.0 20.05 -23.1 16.7 24.2 28.3 10 0 Alarm State:  0
Wed May 18 08:59:49 PDT 2022 ON: 20.00 +20.0 20.04 -23.3 16.5 24.4 28.3 9 0 Alarm State:  0
Wed May 18 08:58:48 PDT 2022 ON: 20.00 +20.0 20.06 -23.3 16.5 24.4 28.3 10 0 Alarm State:  0
Wed May 18 08:57:46 PDT 2022 ON: 19.99 +20.0 20.04 -23.3 16.5 24.4 28.3 10 1 Alarm State:  0
Wed May 18 08:56:45 PDT 2022 ON: 19.99 +20.0 20.04 -23.3 16.4 24.5 28.3 10 1 Alarm State:  0
Wed May 18 08:55:43 PDT 2022 ON: 19.99 +20.0 20.04 -23.1 16.7 24.2 28.3 10 1 Alarm State:  0
Wed May 18 08:54:42 PDT 2022 ON: 19.99 +20.0 20.03 -23.3 16.5 24.4 28.3 9 1 Alarm State:  0
Wed May 18 08:53:40 PDT 2022 ON: 20.00 +20.0 20.05 -23.3 16.5 24.4 28.3 10 1 Alarm State:  0
Wed May 18 08:52:39 PDT 2022 ON: 19.99 +20.0 20.03 -23.1 16.7 24.2 28.3 10 1 Alarm State:  0
Wed May 18 08:51:37 PDT 2022 ON: 20.01 +20.0 20.06 -23.3 16.5 24.4 28.3 9 0 Alarm State:  0
Wed May 18 08:50:36 PDT 2022 ON: 19.99 +20.0 20.04 -23.1 16.7 24.2 28.3 10 1 Alarm State:  0
Wed May 18 08:49:34 PDT 2022 ON: 20.00 +20.0 20.05 -23.2 16.6 24.3 28.3 10 0 Alarm State:  0
Wed May 18 08:48:33 PDT 2022 ON: 19.99 +20.0 20.04 -23.3 16.5 24.4 28.3 10 1 Alarm State:  0
Wed May 18 08:47:31 PDT 2022 ON: 20.00 +20.0 20.05 -23.3 16.4 24.5 28.3 10 0 Alarm State:  0
Wed May 18 08:46:30 PDT 2022 ON: 19.99 +20.0 20.04 -23.2 16.6 24.3 28.3 9 1 Alarm State:  0
Wed May 18 08:45:28 PDT 2022 ON: 19.99 +20.0 20.04 -23.3 16.4 24.5 28.3 10 1 Alarm State:  0
Wed May 18 08:44:27 PDT 2022 ON: 19.99 +20.0 20.04 -23.0 16.8 24.2 28.4 10 1 Alarm State:  0
Wed May 18 08:43:25 PDT 2022 ON: 19.99 +20.0 20.05 -23.1 16.7 24.2 28.3 9 1 Alarm State:  0
Wed May 18 08:42:24 PDT 2022 ON: 19.99 +20.0 20.04 -23.1 16.7 24.2 28.3 10 1 Alarm State:  0
Wed May 18 08:41:22 PDT 2022 ON: 20.00 +20.0 20.04 -23.1 16.7 24.2 28.3 9 1 Alarm State:  0
Wed May 18 08:40:21 PDT 2022 ON: 19.99 +20.0 20.03 -23.3 16.4 24.5 28.3 10 2 Alarm State:  0
Wed May 18 08:39:19 PDT 2022 ON: 20.00 +20.0 20.03 -23.0 16.8 24.2 28.3 9 1 Alarm State:  0
Wed May 18 08:38:18 PDT 2022 ON: 19.99 +20.0 20.05 -23.3 16.5 24.4 28.3 9 1 Alarm State:  0
Wed May 18 08:37:16 PDT 2022 ON: 20.00 +20.0 20.04 -23.2 16.6 24.3 28.3 10 1 Alarm State:  0
Wed May 18 08:36:15 PDT 2022 ON: 19.99 +20.0 20.04 -23.1 16.7 24.2 28.4 10 1 Alarm State:  0
Wed May 18 08:35:13 PDT 2022 ON: 19.99 +20.0 20.03 -23.2 16.6 24.3 28.3 10 1 Alarm State:  0
Wed May 18 08:34:12 PDT 2022 ON: 20.00 +20.0 20.04 -23.2 16.6 24.3 28.3 10 1 Alarm State:  0
Wed May 18 08:33:10 PDT 2022 ON: 20.00 +20.0 20.06 -23.2 16.6 24.3 28.3 9 0 Alarm State:  0
Wed May 18 08:32:09 PDT 2022 ON: 19.99 +20.0 20.04 -23.3 16.5 24.4 28.3 9 1 Alarm State:  0
Wed May 18 08:31:07 PDT 2022 ON: 20.00 +20.0 20.05 -23.2 16.6 24.3 28.3 9 0 Alarm State:  0
Wed May 18 08:30:06 PDT 2022 ON: 19.99 +20.0 20.05 -23.4 16.3 24.6 28.3 9 1 Alarm State:  0
Wed May 18 08:29:04 PDT 2022 ON: 19.99 +20.0 20.04 -23.3 16.5 24.4 28.3 10 1 Alarm State:  0
Wed May 18 08:28:03 PDT 2022 ON: 20.00 +20.0 20.05 -23.2 16.6 24.3 28.3 9 0 Alarm State:  0
Wed May 18 08:27:01 PDT 2022 ON: 20.01 +20.0 20.06 -23.3 16.5 24.4 28.3 10 0 Alarm State:  0
Wed May 18 08:26:00 PDT 2022 ON: 19.99 +20.0 20.05 -23.3 16.5 24.4 28.3 10 1 Alarm State:  0
Wed May 18 08:24:58 PDT 2022 ON: 19.99 +20.0 20.04 -23.1 16.7 24.2 28.3 9 1 Alarm State:  0
Wed May 18 08:23:57 PDT 2022 ON: 20.00 +20.0 20.04 -23.1 16.7 24.2 28.3 10 0 Alarm State:  0
Wed May 18 08:22:55 PDT 2022 ON: 19.99 +20.0 20.03 -23.3 16.5 24.4 28.3 10 1 Alarm State:  0
Wed May 18 08:21:54 PDT 2022 ON: 20.00 +20.0 20.06 -23.3 16.5 24.4 28.3 9 0 Alarm State:  0
Wed May 18 08:20:52 PDT 2022 ON: 19.99 +20.0 20.04 -23.1 16.7 24.2 28.3 10 1 Alarm State:  0
Wed May 18 08:19:51 PDT 2022 ON: 20.00 +20.0 20.05 -23.2 16.6 24.3 28.3 10 1 Alarm State:  0
Wed May 18 08:18:49 PDT 2022 ON: 20.00 +20.0 20.04 -23.2 16.6 24.3 28.3 9 1 Alarm State:  0
Wed May 18 08:17:48 PDT 2022 ON: 20.00 +20.0 20.05 -23.2 16.6 24.3 28.3 10 0 Alarm State:  0
Wed May 18 08:16:46 PDT 2022 ON: 19.99 +20.0 20.05 -23.1 16.7 24.2 28.3 9 1 Alarm State:  0
Wed May 18 08:15:45 PDT 2022 ON: 19.98 +20.0 20.03 -23.3 16.5 24.4 28.3 10 1 Alarm State:  0
Wed May 18 08:14:43 PDT 2022 ON: 19.99 +20.0 20.04 -23.1 16.7 24.2 28.3 10 1 Alarm State:  0
Wed May 18 08:13:42 PDT 2022 ON: 19.99 +20.0 20.04 -23.1 16.7 24.2 28.3 9 1 Alarm State:  0
Wed May 18 08:12:40 PDT 2022 ON: 19.99 +20.0 20.05 -23.2 16.6 24.3 28.3 10 1 Alarm State:  0
Wed May 18 08:11:39 PDT 2022 ON: 20.00 +20.0 20.05 -23.3 16.5 24.4 28.3 10 0 Alarm State:  0
Wed May 18 08:10:37 PDT 2022 ON: 20.00 +20.0 20.05 -23.2 16.6 24.3 28.3 9 0 Alarm State:  0
Wed May 18 08:09:36 PDT 2022 ON: 19.99 +20.0 20.05 -23.3 16.5 24.4 28.3 10 1 Alarm State:  0
Wed May 18 08:08:34 PDT 2022 ON: 19.99 +20.0 20.04 -23.2 16.6 24.3 28.3 9 1 Alarm State:  0
Wed May 18 08:07:33 PDT 2022 ON: 20.00 +20.0 20.05 -23.3 16.5 24.4 28.3 9 0 Alarm State:  0
Wed May 18 08:06:31 PDT 2022 ON: 19.99 +20.0 20.04 -23.1 16.7 24.2 28.3 10 1 Alarm State:  0
Wed May 18 08:05:30 PDT 2022 ON: 19.99 +20.0 20.04 -23.0 16.8 24.2 28.3 9 1 Alarm State:  0
Wed May 18 08:04:28 PDT 2022 ON: 20.00 +20.0 20.05 -23.1 16.7 24.2 28.3 10 1 Alarm State:  0
Wed May 18 08:03:27 PDT 2022 ON: 20.00 +20.0 20.04 -23.2 16.6 24.3 28.3 9 1 Alarm State:  0
Wed May 18 08:02:25 PDT 2022 ON: 19.99 +20.0 20.04 -23.3 16.5 24.4 28.3 10 1 Alarm State:  0
Wed May 18 08:01:24 PDT 2022 ON: 19.99 +20.0 20.04 -23.3 16.5 24.4 28.3 10 1 Alarm State:  0
Wed May 18 08:00:22 PDT 2022 ON: 20.00 +20.0 20.05 -23.3 16.5 24.4 28.3 9 0 Alarm State:  0
Wed May 18 07:59:21 PDT 2022 ON: 19.99 +20.0 20.04 -23.1 16.7 24.2 28.4 9 1 Alarm State:  0
Wed May 18 07:58:19 PDT 2022 ON: 19.99 +20.0 20.04 -23.2 16.6 24.3 28.3 10 1 Alarm State:  0
Wed May 18 07:57:18 PDT 2022 ON: 20.00 +20.0 20.05 -23.0 16.8 24.2 28.3 9 0 Alarm State:  0
Wed May 18 07:56:16 PDT 2022 ON: 19.99 +20.0 20.04 -23.3 16.5 24.4 28.3 10 1 Alarm State:  0
Wed May 18 07:55:14 PDT 2022 ON: 19.99 +20.0 20.04 -23.3 16.5 24.4 28.3 9 1 Alarm State:  0
Wed May 18 07:54:13 PDT 2022 ON: 20.00 +20.0 20.04 -23.2 16.6 24.3 28.3 10 1 Alarm State:  0
Wed May 18 07:53:11 PDT 2022 ON: 19.99 +20.0 20.04 -23.2 16.6 24.3 28.3 10 1 Alarm State:  0
Wed May 18 07:52:10 PDT 2022 ON: 19.99 +20.0 20.05 -23.3 16.4 24.5 28.3 9 0 Alarm State:  0
Wed May 18 07:51:08 PDT 2022 ON: 19.99 +20.0 20.04 -23.3 16.5 24.4 28.3 10 1 Alarm State:  0
Wed May 18 07:50:07 PDT 2022 ON: 19.99 +20.0 20.04 -23.3 16.5 24.4 28.3 10 1 Alarm State:  0
Wed May 18 07:49:05 PDT 2022 ON: 20.00 +20.0 20.05 -23.3 16.5 24.4 28.3 9 0 Alarm State:  0
Wed May 18 07:48:04 PDT 2022 ON: 19.99 +20.0 20.04 -23.2 16.6 24.3 28.3 10 1 Alarm State:  0
Wed May 18 07:47:02 PDT 2022 ON: 20.00 +20.0 20.05 -23.2 16.6 24.3 28.3 9 0 Alarm State:  0
Wed May 18 07:46:01 PDT 2022 ON: 19.99 +20.0 20.05 -23.3 16.5 24.4 28.3 9 0 Alarm State:  0
Wed May 18 07:44:59 PDT 2022 ON: 20.00 +20.0 20.06 -23.3 16.5 24.4 28.3 10 0 Alarm State:  0
Wed May 18 07:43:58 PDT 2022 ON: 19.99 +20.0 20.05 -23.3 16.5 24.4 28.3 9 1 Alarm State:  0
Wed May 18 07:42:56 PDT 2022 ON: 20.00 +20.0 20.05 -23.2 16.6 24.3 28.3 9 0 Alarm State:  0
Wed May 18 07:41:55 PDT 2022 ON: 19.99 +20.0 20.03 -23.1 16.7 24.2 28.3 9 1 Alarm State:  0
Wed May 18 07:40:53 PDT 2022 ON: 19.99 +20.0 20.05 -23.3 16.5 24.4 28.3 9 1 Alarm State:  0
Wed May 18 07:39:52 PDT 2022 ON: 19.99 +20.0 20.05 -23.0 16.8 24.2 28.3 10 0 Alarm State:  0
Wed May 18 07:38:50 PDT 2022 ON: 19.99 +20.0 20.04 -23.3 16.4 24.5 28.3 10 1 Alarm State:  0
Wed May 18 07:37:49 PDT 2022 ON: 19.99 +20.0 20.03 -23.1 16.7 24.2 28.3 9 1 Alarm State:  0
Wed May 18 07:36:47 PDT 2022 ON: 20.00 +20.0 20.05 -23.2 16.6 24.3 28.3 10 1 Alarm State:  0
Wed May 18 07:35:46 PDT 2022 ON: 19.99 +20.0 20.05 -23.3 16.5 24.4 28.3 9 0 Alarm State:  0
Wed May 18 07:34:44 PDT 2022 ON: 19.99 +20.0 20.04 -23.2 16.6 24.3 28.3 9 1 Alarm State:  0
Wed May 18 07:33:43 PDT 2022 ON: 20.01 +20.0 20.05 -23.1 16.7 24.2 28.3 9 0 Alarm State:  0
Wed May 18 07:32:41 PDT 2022 ON: 19.99 +20.0 20.05 -23.2 16.6 24.3 28.3 9 1 Alarm State:  0
Wed May 18 07:31:40 PDT 2022 ON: 20.00 +20.0 20.05 -23.0 16.8 24.2 28.3 10 0 Alarm State:  0
Wed May 18 07:30:38 PDT 2022 ON: 19.99 +20.0 20.03 -23.2 16.6 24.3 28.3 10 1 Alarm State:  0
Wed May 18 07:29:37 PDT 2022 ON: 19.99 +20.0 20.04 -23.2 16.6 24.3 28.3 10 1 Alarm State:  0
Wed May 18 07:28:35 PDT 2022 ON: 19.99 +20.0 20.04 -23.3 16.5 24.4 28.3 10 1 Alarm State:  0
Wed May 18 07:27:34 PDT 2022 ON: 20.00 +20.0 20.05 -23.3 16.5 24.4 28.3 9 1 Alarm State:  0
Wed May 18 07:26:32 PDT 2022 ON: 19.99 +20.0 20.02 -23.3 16.4 24.5 28.3 10 2 Alarm State:  0
Wed May 18 07:25:31 PDT 2022 ON: 19.99 +20.0 20.03 -23.2 16.6 24.3 28.3 10 1 Alarm State:  0
Wed May 18 07:24:29 PDT 2022 ON: 20.00 +20.0 20.05 -23.2 16.6 24.3 28.3 9 1 Alarm State:  0
Wed May 18 07:23:28 PDT 2022 ON: 20.00 +20.0 20.05 -23.1 16.7 24.2 28.3 10 0 Alarm State:  0
Wed May 18 07:22:26 PDT 2022 ON: 20.00 +20.0 20.04 -23.2 16.6 24.3 28.3 9 1 Alarm State:  0
Wed May 18 07:21:25 PDT 2022 ON: 20.01 +20.0 20.05 -23.3 16.5 24.4 28.3 10 0 Alarm State:  0
Wed May 18 07:20:23 PDT 2022 ON: 19.99 +20.0 20.05 -23.1 16.7 24.2 28.3 10 1 Alarm State:  0
Wed May 18 07:19:22 PDT 2022 ON: 19.99 +20.0 20.04 -23.1 16.7 24.2 28.3 9 1 Alarm State:  0
Wed May 18 07:18:20 PDT 2022 ON: 19.98 +20.0 20.03 -23.1 16.7 24.2 28.3 10 1 Alarm State:  0
Wed May 18 07:17:19 PDT 2022 ON: 20.00 +20.0 20.04 -23.3 16.4 24.5 28.3 10 1 Alarm State:  0
Wed May 18 07:16:17 PDT 2022 ON: 20.00 +20.0 20.05 -23.3 16.5 24.4 28.3 9 0 Alarm State:  0
Wed May 18 07:15:16 PDT 2022 ON: 20.00 +20.0 20.06 -23.3 16.5 24.4 28.3 10 0 Alarm State:  0
Wed May 18 07:14:14 PDT 2022 ON: 19.99 +20.0 20.03 -23.2 16.6 24.3 28.3 10 2 Alarm State:  0
Wed May 18 07:13:13 PDT 2022 ON: 19.99 +20.0 20.04 -23.1 16.7 24.2 28.3 10 1 Alarm State:  0
Wed May 18 07:12:11 PDT 2022 ON: 20.00 +20.0 20.05 -23.2 16.6 24.3 28.3 10 1 Alarm State:  0
Wed May 18 07:11:00 PDT 2022 ON: 20.00 +20.0 20.05 -23.3 16.5 24.4 28.3 10 0 Alarm State:  0
Wed May 18 07:09:58 PDT 2022 ON: 20.01 +20.0 20.05 -23.3 16.5 24.4 28.3 10 0 Alarm State:  0
Wed May 18 07:08:57 PDT 2022 ON: 19.99 +20.0 20.04 -23.1 16.7 24.2 28.3 10 1 Alarm State:  0
Wed May 18 07:07:55 PDT 2022 ON: 19.99 +20.0 20.04 -23.3 16.5 24.4 28.3 10 1 Alarm State:  0
Wed May 18 07:06:54 PDT 2022 ON: 20.00 +20.0 20.05 -23.2 16.6 24.3 28.3 9 0 Alarm State:  0
Wed May 18 07:05:52 PDT 2022 ON: 20.00 +20.0 20.03 -23.3 16.5 24.4 28.3 10 2 Alarm State:  0
Wed May 18 07:04:51 PDT 2022 ON: 19.99 +20.0 20.04 -23.3 16.5 24.4 28.3 10 1 Alarm State:  0
Wed May 18 07:03:49 PDT 2022 ON: 19.99 +20.0 20.05 -23.3 16.5 24.4 28.3 9 0 Alarm State:  0
Wed May 18 07:02:48 PDT 2022 ON: 20.00 +20.0 20.05 -22.9 16.9 24.1 28.3 10 0 Alarm State:  0
Wed May 18 07:01:46 PDT 2022 ON: 19.99 +20.0 20.02 -23.3 16.5 24.4 28.3 10 2 Alarm State:  0
Wed May 18 07:00:45 PDT 2022 ON: 20.00 +20.0 20.05 -23.3 16.4 24.5 28.3 10 0 Alarm State:  0
Wed May 18 06:59:43 PDT 2022 ON: 20.00 +20.0 20.05 -23.3 16.5 24.4 28.3 10 1 Alarm State:  0
Wed May 18 06:58:42 PDT 2022 ON: 20.00 +20.0 20.05 -23.3 16.5 24.4 28.3 9 0 Alarm State:  0
Wed May 18 06:57:40 PDT 2022 ON: 19.99 +20.0 20.03 -23.2 16.6 24.3 28.3 10 1 Alarm State:  0
Wed May 18 06:56:39 PDT 2022 ON: 20.00 +20.0 20.03 -23.1 16.7 24.2 28.3 10 1 Alarm State:  0
Wed May 18 06:55:37 PDT 2022 ON: 20.00 +20.0 20.05 -23.3 16.4 24.5 28.3 9 1 Alarm State:  0
Wed May 18 06:54:36 PDT 2022 ON: 19.99 +20.0 20.04 -23.2 16.6 24.3 28.3 10 1 Alarm State:  0
Wed May 18 06:53:34 PDT 2022 ON: 20.00 +20.0 20.04 -23.3 16.4 24.5 28.3 10 1 Alarm State:  0
Wed May 18 06:52:33 PDT 2022 ON: 19.99 +20.0 20.03 -23.0 16.8 24.2 28.3 9 1 Alarm State:  0
Wed May 18 06:51:31 PDT 2022 ON: 19.99 +20.0 20.04 -23.2 16.6 24.3 28.3 10 1 Alarm State:  0
Wed May 18 06:50:30 PDT 2022 ON: 20.00 +20.0 20.05 -23.3 16.5 24.4 28.3 9 0 Alarm State:  0
Wed May 18 06:49:28 PDT 2022 ON: 20.00 +20.0 20.05 -23.1 16.7 24.2 28.3 10 1 Alarm State:  0
Wed May 18 06:48:27 PDT 2022 ON: 19.99 +20.0 20.04 -23.1 16.7 24.2 28.3 10 1 Alarm State:  0
Wed May 18 06:47:25 PDT 2022 ON: 20.00 +20.0 20.06 -23.3 16.5 24.4 28.3 9 0 Alarm State:  0
Wed May 18 06:46:24 PDT 2022 ON: 19.99 +20.0 20.05 -23.3 16.5 24.4 28.3 10 1 Alarm State:  0
Wed May 18 06:45:22 PDT 2022 ON: 19.99 +20.0 20.05 -23.2 16.6 24.3 28.3 9 0 Alarm State:  0
Wed May 18 06:44:21 PDT 2022 ON: 20.00 +20.0 20.05 -23.3 16.4 24.5 28.3 10 0 Alarm State:  0
Wed May 18 06:43:19 PDT 2022 ON: 20.00 +20.0 20.03 -23.0 16.8 24.2 28.4 10 1 Alarm State:  0
Wed May 18 06:42:18 PDT 2022 ON: 20.00 +20.0 20.04 -23.3 16.5 24.4 28.3 9 1 Alarm State:  0
Wed May 18 06:41:16 PDT 2022 ON: 20.00 +20.0 20.05 -23.0 16.8 24.2 28.4 10 0 Alarm State:  0
Wed May 18 06:40:15 PDT 2022 ON: 20.00 +20.0 20.04 -23.3 16.5 24.4 28.3 10 1 Alarm State:  0
Wed May 18 06:39:13 PDT 2022 ON: 20.01 +20.0 20.07 -23.3 16.5 24.4 28.3 10 0 Alarm State:  0
Wed May 18 06:38:12 PDT 2022 ON: 19.99 +20.0 20.03 -23.2 16.6 24.3 28.3 10 1 Alarm State:  0
Wed May 18 06:37:10 PDT 2022 ON: 20.00 +20.0 20.04 -23.3 16.5 24.4 28.3 9 1 Alarm State:  0
Wed May 18 06:36:08 PDT 2022 ON: 20.00 +20.0 20.05 -23.0 16.8 24.2 28.3 9 0 Alarm State:  0
Wed May 18 06:35:07 PDT 2022 ON: 19.99 +20.0 20.03 -23.2 16.6 24.3 28.3 10 2 Alarm State:  0
Wed May 18 06:34:05 PDT 2022 ON: 20.00 +20.0 20.05 -23.3 16.5 24.4 28.3 9 0 Alarm State:  0
Wed May 18 06:33:04 PDT 2022 ON: 20.00 +20.0 20.06 -23.3 16.5 24.4 28.3 10 0 Alarm State:  0
Wed May 18 06:32:02 PDT 2022 ON: 19.99 +20.0 20.04 -23.0 16.8 24.2 28.3 10 1 Alarm State:  0
Wed May 18 06:31:01 PDT 2022 ON: 19.99 +20.0 20.04 -23.2 16.6 24.3 28.3 10 1 Alarm State:  0
Wed May 18 06:29:59 PDT 2022 ON: 20.00 +20.0 20.06 -23.1 16.7 24.2 28.3 10 0 Alarm State:  0
Wed May 18 06:28:58 PDT 2022 ON: 20.00 +20.0 20.05 -23.2 16.6 24.3 28.3 9 0 Alarm State:  0
Wed May 18 06:27:56 PDT 2022 ON: 20.00 +20.0 20.05 -23.1 16.7 24.2 28.3 10 0 Alarm State:  0
Wed May 18 06:26:55 PDT 2022 ON: 19.99 +20.0 20.04 -23.3 16.5 24.4 28.3 10 1 Alarm State:  0
Wed May 18 06:25:53 PDT 2022 ON: 20.00 +20.0 20.05 -23.1 16.7 24.2 28.3 9 0 Alarm State:  0
Wed May 18 06:24:52 PDT 2022 ON: 19.99 +20.0 20.05 -23.3 16.5 24.4 28.3 10 1 Alarm State:  0
Wed May 18 06:23:50 PDT 2022 ON: 20.00 +20.0 20.04 -23.1 16.7 24.2 28.3 9 0 Alarm State:  0
Wed May 18 06:22:49 PDT 2022 ON: 20.00 +20.0 20.05 -23.2 16.6 24.3 28.3 10 1 Alarm State:  0
Wed May 18 06:21:47 PDT 2022 ON: 20.00 +20.0 20.06 -23.3 16.5 24.4 28.3 10 0 Alarm State:  0
Wed May 18 06:20:46 PDT 2022 ON: 20.00 +20.0 20.05 -23.2 16.6 24.3 28.3 9 0 Alarm State:  0
Wed May 18 06:19:44 PDT 2022 ON: 20.00 +20.0 20.05 -23.2 16.6 24.3 28.3 10 0 Alarm State:  0
Wed May 18 06:18:43 PDT 2022 ON: 20.00 +20.0 20.05 -23.3 16.5 24.4 28.3 10 0 Alarm State:  0
Wed May 18 06:17:41 PDT 2022 ON: 19.99 +20.0 20.05 -23.3 16.5 24.4 28.3 9 1 Alarm State:  0
Wed May 18 06:16:40 PDT 2022 ON: 19.99 +20.0 20.04 -23.0 16.8 24.2 28.3 10 0 Alarm State:  0
Wed May 18 06:15:38 PDT 2022 ON: 20.00 +20.0 20.04 -23.1 16.7 24.2 28.3 10 1 Alarm State:  0
Wed May 18 06:14:37 PDT 2022 ON: 19.99 +20.0 20.04 -23.0 16.8 24.2 28.3 10 1 Alarm State:  0
Wed May 18 06:13:35 PDT 2022 ON: 20.00 +20.0 20.06 -23.2 16.6 24.3 28.3 10 0 Alarm State:  0
Wed May 18 06:12:34 PDT 2022 ON: 19.99 +20.0 20.05 -23.1 16.7 24.2 28.3 9 1 Alarm State:  0
Wed May 18 06:11:32 PDT 2022 ON: 19.99 +20.0 20.04 -23.1 16.7 24.2 28.3 10 1 Alarm State:  0
Wed May 18 06:10:31 PDT 2022 ON: 20.00 +20.0 20.04 -23.3 16.5 24.4 28.3 9 1 Alarm State:  0
Wed May 18 06:09:29 PDT 2022 ON: 19.99 +20.0 20.05 -23.2 16.6 24.3 28.3 9 0 Alarm State:  0
Wed May 18 06:08:28 PDT 2022 ON: 20.00 +20.0 20.06 -23.1 16.7 24.2 28.3 10 0 Alarm State:  0
Wed May 18 06:07:26 PDT 2022 ON: 19.99 +20.0 20.03 -23.2 16.6 24.3 28.3 10 1 Alarm State:  0
Wed May 18 06:06:25 PDT 2022 ON: 19.99 +20.0 20.03 -23.2 16.6 24.3 28.3 10 2 Alarm State:  0
Wed May 18 06:05:23 PDT 2022 ON: 19.99 +20.0 20.04 -23.3 16.5 24.4 28.3 10 1 Alarm State:  0
Wed May 18 06:04:22 PDT 2022 ON: 20.00 +20.0 20.05 -23.2 16.6 24.3 28.3 9 0 Alarm State:  0
Wed May 18 06:03:20 PDT 2022 ON: 20.00 +20.0 20.04 -23.3 16.4 24.5 28.3 10 1 Alarm State:  0
Wed May 18 06:02:19 PDT 2022 ON: 19.99 +20.0 20.04 -23.0 16.8 24.2 28.3 9 1 Alarm State:  0
Wed May 18 06:01:17 PDT 2022 ON: 19.99 +20.0 20.05 -23.0 16.8 24.2 28.3 9 0 Alarm State:  0
Wed May 18 06:00:16 PDT 2022 ON: 20.00 +20.0 20.05 -23.2 16.6 24.3 28.3 10 0 Alarm State:  0
Wed May 18 05:59:14 PDT 2022 ON: 19.99 +20.0 20.04 -23.3 16.5 24.4 28.3 10 1 Alarm State:  0
Wed May 18 05:58:13 PDT 2022 ON: 20.00 +20.0 20.05 -23.3 16.5 24.4 28.3 10 0 Alarm State:  0
Wed May 18 05:57:11 PDT 2022 ON: 20.01 +20.0 20.06 -23.2 16.6 24.3 28.3 10 0 Alarm State:  0
Wed May 18 05:56:10 PDT 2022 ON: 19.99 +20.0 20.05 -23.1 16.7 24.2 28.3 9 1 Alarm State:  0
Wed May 18 05:55:08 PDT 2022 ON: 19.99 +20.0 20.04 -23.2 16.6 24.3 28.3 10 1 Alarm State:  0
Wed May 18 05:54:07 PDT 2022 ON: 20.00 +20.0 20.05 -23.3 16.4 24.5 28.3 10 0 Alarm State:  0
Wed May 18 05:53:05 PDT 2022 ON: 20.00 +20.0 20.04 -23.2 16.6 24.3 28.3 9 1 Alarm State:  0
Wed May 18 05:52:04 PDT 2022 ON: 19.99 +20.0 20.05 -23.1 16.7 24.2 28.3 10 1 Alarm State:  0
Wed May 18 05:51:02 PDT 2022 ON: 20.00 +20.0 20.05 -23.3 16.5 24.4 28.3 10 0 Alarm State:  0
Wed May 18 05:50:01 PDT 2022 ON: 20.00 +20.0 20.04 -23.3 16.4 24.5 28.3 10 1 Alarm State:  0
Wed May 18 05:48:59 PDT 2022 ON: 20.00 +20.0 20.05 -23.2 16.6 24.3 28.3 10 1 Alarm State:  0
Wed May 18 05:47:58 PDT 2022 ON: 20.00 +20.0 20.06 -23.2 16.6 24.3 28.3 9 0 Alarm State:  0
Wed May 18 05:46:56 PDT 2022 ON: 19.99 +20.0 20.05 -23.3 16.5 24.4 28.3 10 0 Alarm State:  0
Wed May 18 05:45:55 PDT 2022 ON: 20.00 +20.0 20.04 -23.0 16.8 24.2 28.4 10 1 Alarm State:  0
Wed May 18 05:44:53 PDT 2022 ON: 20.00 +20.0 20.06 -23.3 16.5 24.4 28.3 9 0 Alarm State:  0
Wed May 18 05:43:52 PDT 2022 ON: 19.99 +20.0 20.05 -23.2 16.6 24.3 28.3 10 0 Alarm State:  0
Wed May 18 05:42:50 PDT 2022 ON: 20.00 +20.0 20.06 -23.2 16.6 24.3 28.3 10 0 Alarm State:  0
Wed May 18 05:41:49 PDT 2022 ON: 19.99 +20.0 20.03 -23.2 16.6 24.3 28.3 10 1 Alarm State:  0
Wed May 18 05:40:47 PDT 2022 ON: 19.99 +20.0 20.04 -23.3 16.5 24.4 28.3 10 1 Alarm State:  0
Wed May 18 05:39:46 PDT 2022 ON: 20.00 +20.0 20.05 -23.2 16.6 24.3 28.3 9 0 Alarm State:  0
Wed May 18 05:38:44 PDT 2022 ON: 19.99 +20.0 20.03 -23.0 16.8 24.2 28.4 10 2 Alarm State:  0
Wed May 18 05:37:43 PDT 2022 ON: 19.99 +20.0 20.03 -23.0 16.8 24.2 28.3 10 1 Alarm State:  0
Wed May 18 05:36:41 PDT 2022 ON: 20.00 +20.0 20.04 -23.1 16.7 24.2 28.4 9 1 Alarm State:  0
Wed May 18 05:35:40 PDT 2022 ON: 19.99 +20.0 20.04 -23.0 16.8 24.2 28.3 10 1 Alarm State:  0
Wed May 18 05:34:38 PDT 2022 ON: 20.00 +20.0 20.06 -23.3 16.5 24.4 28.3 9 0 Alarm State:  0
Wed May 18 05:33:36 PDT 2022 ON: 20.00 +20.0 20.05 -23.2 16.6 24.3 28.3 10 0 Alarm State:  0
Wed May 18 05:32:35 PDT 2022 ON: 19.99 +20.0 20.04 -23.3 16.4 24.5 28.3 10 1 Alarm State:  0
Wed May 18 05:31:33 PDT 2022 ON: 19.99 +20.0 20.05 -23.1 16.7 24.2 28.3 9 0 Alarm State:  0
Wed May 18 05:30:32 PDT 2022 ON: 20.00 +20.0 20.06 -23.2 16.6 24.3 28.3 10 0 Alarm State:  0
Wed May 18 05:29:30 PDT 2022 ON: 19.99 +20.0 20.04 -23.1 16.7 24.2 28.3 10 1 Alarm State:  0
Wed May 18 05:28:29 PDT 2022 ON: 19.99 +20.0 20.02 -23.2 16.6 24.3 28.3 10 2 Alarm State:  0
Wed May 18 05:27:27 PDT 2022 ON: 20.00 +20.0 20.05 -23.2 16.6 24.3 28.3 10 0 Alarm State:  0
Wed May 18 05:26:26 PDT 2022 ON: 20.00 +20.0 20.06 -23.1 16.7 24.2 28.3 9 0 Alarm State:  0
Wed May 18 05:25:24 PDT 2022 ON: 19.99 +20.0 20.03 -23.1 16.7 24.2 28.3 10 1 Alarm State:  0
Wed May 18 05:24:23 PDT 2022 ON: 19.99 +20.0 20.03 -23.1 16.7 24.2 28.3 9 1 Alarm State:  0
Wed May 18 05:23:21 PDT 2022 ON: 20.00 +20.0 20.06 -23.3 16.5 24.4 28.3 9 0 Alarm State:  0
Wed May 18 05:22:20 PDT 2022 ON: 19.99 +20.0 20.04 -23.2 16.6 24.3 28.3 10 1 Alarm State:  0
Wed May 18 05:21:18 PDT 2022 ON: 20.00 +20.0 20.04 -23.3 16.5 24.4 28.3 9 1 Alarm State:  0
Wed May 18 05:20:17 PDT 2022 ON: 19.99 +20.0 20.05 -23.3 16.5 24.4 28.3 10 1 Alarm State:  0
Wed May 18 05:19:15 PDT 2022 ON: 19.99 +20.0 20.04 -23.1 16.7 24.2 28.3 10 1 Alarm State:  0
Wed May 18 05:18:14 PDT 2022 ON: 20.00 +20.0 20.05 -23.2 16.6 24.3 28.3 9 0 Alarm State:  0
Wed May 18 05:17:12 PDT 2022 ON: 19.99 +20.0 20.04 -23.3 16.4 24.5 28.3 10 1 Alarm State:  0
Wed May 18 05:16:11 PDT 2022 ON: 19.99 +20.0 20.03 -23.3 16.5 24.4 28.3 10 1 Alarm State:  0
Wed May 18 05:15:09 PDT 2022 ON: 20.00 +20.0 20.04 -23.0 16.8 24.2 28.3 9 0 Alarm State:  0
Wed May 18 05:14:08 PDT 2022 ON: 20.00 +20.0 20.05 -23.2 16.6 24.3 28.3 10 0 Alarm State:  0
Wed May 18 05:13:06 PDT 2022 ON: 20.00 +20.0 20.05 -23.1 16.7 24.2 28.3 10 1 Alarm State:  0
Wed May 18 05:12:05 PDT 2022 ON: 19.99 +20.0 20.03 -23.2 16.6 24.3 28.3 9 1 Alarm State:  0
Wed May 18 05:11:03 PDT 2022 ON: 20.00 +20.0 20.06 -23.3 16.5 24.4 28.3 10 0 Alarm State:  0
Wed May 18 05:10:02 PDT 2022 ON: 20.00 +20.0 20.05 -23.0 16.8 24.2 28.3 9 0 Alarm State:  0
Wed May 18 05:09:00 PDT 2022 ON: 20.01 +20.0 20.06 -23.3 16.4 24.5 28.3 10 0 Alarm State:  0
Wed May 18 05:07:59 PDT 2022 ON: 19.99 +20.0 20.03 -23.1 16.7 24.2 28.3 9 1 Alarm State:  0
Wed May 18 05:06:57 PDT 2022 ON: 20.00 +20.0 20.05 -23.2 16.6 24.3 28.3 9 0 Alarm State:  0
Wed May 18 05:05:56 PDT 2022 ON: 19.99 +20.0 20.05 -23.3 16.5 24.4 28.3 10 1 Alarm State:  0
Wed May 18 05:04:54 PDT 2022 ON: 20.00 +20.0 20.06 -23.2 16.6 24.3 28.3 10 0 Alarm State:  0
Wed May 18 05:03:53 PDT 2022 ON: 19.99 +20.0 20.03 -23.3 16.5 24.4 28.3 10 1 Alarm State:  0
Wed May 18 05:02:51 PDT 2022 ON: 20.00 +20.0 20.04 -23.2 16.6 24.3 28.3 10 1 Alarm State:  0
Wed May 18 05:01:50 PDT 2022 ON: 20.00 +20.0 20.05 -23.0 16.8 24.2 28.4 9 1 Alarm State:  0
Wed May 18 05:00:48 PDT 2022 ON: 19.99 +20.0 20.04 -23.2 16.6 24.3 28.3 9 1 Alarm State:  0
Wed May 18 04:59:47 PDT 2022 ON: 20.00 +20.0 20.05 -23.3 16.4 24.5 28.3 10 0 Alarm State:  0
Wed May 18 04:58:45 PDT 2022 ON: 19.99 +20.0 20.04 -23.1 16.7 24.2 28.3 9 1 Alarm State:  0
Wed May 18 04:57:44 PDT 2022 ON: 19.99 +20.0 20.04 -23.2 16.6 24.3 28.3 10 1 Alarm State:  0
Wed May 18 04:56:42 PDT 2022 ON: 19.99 +20.0 20.04 -23.2 16.6 24.3 28.3 10 1 Alarm State:  0
Wed May 18 04:55:41 PDT 2022 ON: 19.99 +20.0 20.03 -23.1 16.7 24.2 28.3 10 1 Alarm State:  0
Wed May 18 04:54:39 PDT 2022 ON: 20.00 +20.0 20.05 -22.9 16.9 24.1 28.3 10 1 Alarm State:  0
Wed May 18 04:53:38 PDT 2022 ON: 19.99 +20.0 20.05 -23.2 16.6 24.3 28.3 9 0 Alarm State:  0
Wed May 18 04:52:36 PDT 2022 ON: 19.99 +20.0 20.04 -23.2 16.6 24.3 28.3 10 1 Alarm State:  0
Wed May 18 04:51:35 PDT 2022 ON: 19.99 +20.0 20.04 -23.1 16.7 24.2 28.3 10 1 Alarm State:  0
Wed May 18 04:50:33 PDT 2022 ON: 20.00 +20.0 20.04 -23.1 16.7 24.2 28.3 9 1 Alarm State:  0
Wed May 18 04:49:32 PDT 2022 ON: 20.00 +20.0 20.05 -23.3 16.5 24.4 28.3 10 0 Alarm State:  0
Wed May 18 04:48:30 PDT 2022 ON: 19.98 +20.0 20.03 -23.0 16.8 24.2 28.3 10 1 Alarm State:  0
Wed May 18 04:47:29 PDT 2022 ON: 20.00 +20.0 20.04 -23.2 16.6 24.3 28.3 10 1 Alarm State:  0
Wed May 18 04:46:27 PDT 2022 ON: 20.00 +20.0 20.05 -23.0 16.8 24.2 28.3 10 0 Alarm State:  0
Wed May 18 04:45:26 PDT 2022 ON: 20.00 +20.0 20.05 -23.0 16.8 24.2 28.3 9 0 Alarm State:  0
Wed May 18 04:44:24 PDT 2022 ON: 20.00 +20.0 20.04 -23.3 16.5 24.4 28.3 10 1 Alarm State:  0
Wed May 18 04:43:23 PDT 2022 ON: 19.99 +20.0 20.04 -23.1 16.7 24.2 28.3 10 1 Alarm State:  0
Wed May 18 04:42:21 PDT 2022 ON: 20.00 +20.0 20.05 -23.1 16.7 24.2 28.3 9 1 Alarm State:  0
Wed May 18 04:41:20 PDT 2022 ON: 19.99 +20.0 20.04 -23.1 16.7 24.2 28.3 10 1 Alarm State:  0
Wed May 18 04:40:18 PDT 2022 ON: 19.99 +20.0 20.03 -23.2 16.6 24.3 28.3 10 1 Alarm State:  0
Wed May 18 04:39:17 PDT 2022 ON: 19.99 +20.0 20.04 -23.3 16.5 24.4 28.3 10 1 Alarm State:  0
Wed May 18 04:38:15 PDT 2022 ON: 19.99 +20.0 20.04 -23.2 16.6 24.3 28.3 10 1 Alarm State:  0
Wed May 18 04:37:14 PDT 2022 ON: 19.99 +20.0 20.04 -23.2 16.6 24.3 28.3 9 1 Alarm State:  0
Wed May 18 04:36:12 PDT 2022 ON: 20.00 +20.0 20.05 -23.1 16.7 24.2 28.3 10 0 Alarm State:  0
Wed May 18 04:35:11 PDT 2022 ON: 19.99 +20.0 20.03 -23.1 16.7 24.2 28.3 10 1 Alarm State:  0
Wed May 18 04:34:09 PDT 2022 ON: 19.99 +20.0 20.04 -23.1 16.7 24.2 28.4 9 1 Alarm State:  0
Wed May 18 04:33:08 PDT 2022 ON: 20.00 +20.0 20.05 -23.2 16.6 24.3 28.3 10 0 Alarm State:  0
Wed May 18 04:32:06 PDT 2022 ON: 19.99 +20.0 20.03 -23.3 16.5 24.4 28.3 10 2 Alarm State:  0
Wed May 18 04:31:05 PDT 2022 ON: 19.99 +20.0 20.04 -23.2 16.6 24.3 28.3 10 1 Alarm State:  0
Wed May 18 04:30:03 PDT 2022 ON: 20.00 +20.0 20.04 -23.2 16.6 24.3 28.3 10 1 Alarm State:  0
Wed May 18 04:29:02 PDT 2022 ON: 20.00 +20.0 20.05 -23.2 16.6 24.3 28.3 9 0 Alarm State:  0
Wed May 18 04:28:00 PDT 2022 ON: 19.99 +20.0 20.03 -23.1 16.7 24.2 28.3 9 1 Alarm State:  0
Wed May 18 04:26:58 PDT 2022 ON: 19.99 +20.0 20.03 -23.3 16.5 24.4 28.3 10 1 Alarm State:  0
Wed May 18 04:25:57 PDT 2022 ON: 19.99 +20.0 20.05 -23.1 16.7 24.2 28.3 9 1 Alarm State:  0
Wed May 18 04:24:55 PDT 2022 ON: 19.99 +20.0 20.04 -23.0 16.8 24.2 28.3 10 1 Alarm State:  0
Wed May 18 04:23:54 PDT 2022 ON: 20.00 +20.0 20.04 -23.1 16.7 24.2 28.3 10 1 Alarm State:  0
Wed May 18 04:22:52 PDT 2022 ON: 19.99 +20.0 20.04 -23.1 16.7 24.2 28.3 9 1 Alarm State:  0
Wed May 18 04:21:51 PDT 2022 ON: 19.99 +20.0 20.04 -23.2 16.6 24.3 28.3 10 1 Alarm State:  0
Wed May 18 04:20:49 PDT 2022 ON: 20.00 +20.0 20.04 -23.0 16.8 24.2 28.3 9 1 Alarm State:  0
Wed May 18 04:19:48 PDT 2022 ON: 19.99 +20.0 20.05 -23.3 16.5 24.4 28.3 10 1 Alarm State:  0
Wed May 18 04:18:46 PDT 2022 ON: 19.99 +20.0 20.04 -23.3 16.5 24.4 28.3 10 1 Alarm State:  0
Wed May 18 04:17:45 PDT 2022 ON: 20.00 +20.0 20.05 -23.2 16.6 24.3 28.3 9 0 Alarm State:  0
Wed May 18 04:16:43 PDT 2022 ON: 19.99 +20.0 20.04 -23.1 16.7 24.2 28.3 10 1 Alarm State:  0
Wed May 18 04:15:42 PDT 2022 ON: 19.99 +20.0 20.04 -23.2 16.6 24.3 28.3 9 1 Alarm State:  0
Wed May 18 04:14:40 PDT 2022 ON: 20.00 +20.0 20.04 -23.3 16.4 24.5 28.3 10 1 Alarm State:  0
Wed May 18 04:13:39 PDT 2022 ON: 19.99 +20.0 20.03 -23.0 16.8 24.2 28.3 10 1 Alarm State:  0
Wed May 18 04:12:37 PDT 2022 ON: 20.00 +20.0 20.05 -23.1 16.7 24.2 28.3 9 0 Alarm State:  0
Wed May 18 04:11:36 PDT 2022 ON: 19.99 +20.0 20.05 -23.1 16.7 24.2 28.3 10 1 Alarm State:  0
Wed May 18 04:10:34 PDT 2022 ON: 19.99 +20.0 20.03 -23.1 16.7 24.2 28.3 9 1 Alarm State:  0
Wed May 18 04:09:33 PDT 2022 ON: 19.99 +20.0 20.04 -23.3 16.4 24.5 28.3 10 1 Alarm State:  0
Wed May 18 04:08:31 PDT 2022 ON: 19.99 +20.0 20.04 -23.1 16.7 24.2 28.3 10 1 Alarm State:  0
Wed May 18 04:07:30 PDT 2022 ON: 20.00 +20.0 20.04 -23.1 16.7 24.2 28.3 9 1 Alarm State:  0
Wed May 18 04:06:28 PDT 2022 ON: 20.01 +20.0 20.05 -23.2 16.6 24.3 28.3 9 0 Alarm State:  0
Wed May 18 04:05:27 PDT 2022 ON: 20.00 +20.0 20.06 -23.1 16.7 24.2 28.3 10 0 Alarm State:  0
Wed May 18 04:04:25 PDT 2022 ON: 19.99 +20.0 20.04 -23.2 16.6 24.3 28.3 9 1 Alarm State:  0
Wed May 18 04:03:24 PDT 2022 ON: 20.00 +20.0 20.05 -23.3 16.5 24.4 28.3 10 0 Alarm State:  0
Wed May 18 04:02:22 PDT 2022 ON: 20.00 +20.0 20.05 -23.2 16.6 24.3 28.3 10 1 Alarm State:  0
Wed May 18 04:01:21 PDT 2022 ON: 19.99 +20.0 20.04 -23.3 16.5 24.4 28.3 10 1 Alarm State:  0
Wed May 18 04:00:19 PDT 2022 ON: 19.99 +20.0 20.04 -23.1 16.7 24.2 28.3 10 1 Alarm State:  0
Wed May 18 03:59:18 PDT 2022 ON: 19.99 +20.0 20.05 -23.2 16.6 24.3 28.3 9 0 Alarm State:  0
Wed May 18 03:58:16 PDT 2022 ON: 20.00 +20.0 20.04 -23.2 16.6 24.3 28.3 10 1 Alarm State:  0
Wed May 18 03:57:15 PDT 2022 ON: 20.00 +20.0 20.04 -23.1 16.7 24.2 28.3 10 1 Alarm State:  0
Wed May 18 03:56:13 PDT 2022 ON: 19.99 +20.0 20.04 -23.2 16.6 24.3 28.3 9 1 Alarm State:  0
Wed May 18 03:55:12 PDT 2022 ON: 19.99 +20.0 20.05 -23.2 16.6 24.3 28.3 10 0 Alarm State:  0
Wed May 18 03:54:10 PDT 2022 ON: 19.99 +20.0 20.04 -23.3 16.4 24.5 28.3 10 1 Alarm State:  0
Wed May 18 03:53:09 PDT 2022 ON: 20.00 +20.0 20.05 -23.3 16.4 24.5 28.3 10 1 Alarm State:  0
Wed May 18 03:52:07 PDT 2022 ON: 19.99 +20.0 20.04 -23.2 16.6 24.3 28.3 10 1 Alarm State:  0
Wed May 18 03:51:06 PDT 2022 ON: 20.00 +20.0 20.05 -23.1 16.7 24.2 28.3 9 0 Alarm State:  0
Wed May 18 03:50:04 PDT 2022 ON: 20.00 +20.0 20.05 -23.2 16.6 24.3 28.3 10 0 Alarm State:  0
Wed May 18 03:49:03 PDT 2022 ON: 20.00 +20.0 20.04 -23.2 16.6 24.3 28.3 10 1 Alarm State:  0
Wed May 18 03:48:01 PDT 2022 ON: 19.99 +20.0 20.05 -23.1 16.7 24.2 28.3 9 1 Alarm State:  0
Wed May 18 03:47:00 PDT 2022 ON: 19.99 +20.0 20.04 -23.2 16.6 24.3 28.3 10 1 Alarm State:  0
Wed May 18 03:45:58 PDT 2022 ON: 20.00 +20.0 20.05 -23.2 16.6 24.3 28.3 10 0 Alarm State:  0
Wed May 18 03:44:57 PDT 2022 ON: 20.00 +20.0 20.06 -23.3 16.4 24.5 28.3 10 0 Alarm State:  0
Wed May 18 03:43:55 PDT 2022 ON: 19.99 +20.0 20.03 -23.2 16.6 24.3 28.3 10 1 Alarm State:  0
Wed May 18 03:42:54 PDT 2022 ON: 20.00 +20.0 20.04 -23.2 16.6 24.3 28.3 9 1 Alarm State:  0
Wed May 18 03:41:52 PDT 2022 ON: 20.00 +20.0 20.04 -23.1 16.7 24.2 28.3 9 1 Alarm State:  0
Wed May 18 03:40:51 PDT 2022 ON: 19.99 +20.0 20.03 -23.1 16.7 24.2 28.3 10 1 Alarm State:  0
Wed May 18 03:39:49 PDT 2022 ON: 19.99 +20.0 20.05 -23.3 16.5 24.4 28.3 9 0 Alarm State:  0
Wed May 18 03:38:48 PDT 2022 ON: 20.00 +20.0 20.04 -23.2 16.6 24.3 28.3 10 1 Alarm State:  0
Wed May 18 03:37:46 PDT 2022 ON: 19.99 +20.0 20.04 -23.3 16.5 24.4 28.3 10 1 Alarm State:  0
Wed May 18 03:36:45 PDT 2022 ON: 19.99 +20.0 20.04 -23.2 16.6 24.3 28.3 10 1 Alarm State:  0
Wed May 18 03:35:43 PDT 2022 ON: 19.99 +20.0 20.04 -23.3 16.5 24.4 28.3 10 0 Alarm State:  0
Wed May 18 03:34:42 PDT 2022 ON: 20.00 +20.0 20.05 -23.3 16.5 24.4 28.3 9 0 Alarm State:  0
Wed May 18 03:33:40 PDT 2022 ON: 20.01 +20.0 20.06 -23.3 16.5 24.4 28.3 10 0 Alarm State:  0
Wed May 18 03:32:38 PDT 2022 ON: 19.99 +20.0 20.04 -23.2 16.6 24.3 28.3 10 1 Alarm State:  0
Wed May 18 03:31:37 PDT 2022 ON: 20.00 +20.0 20.05 -23.1 16.7 24.2 28.3 9 0 Alarm State:  0
Wed May 18 03:30:35 PDT 2022 ON: 20.00 +20.0 20.05 -23.2 16.6 24.3 28.3 10 1 Alarm State:  0
Wed May 18 03:29:34 PDT 2022 ON: 20.00 +20.0 20.06 -23.1 16.7 24.2 28.3 10 0 Alarm State:  0
Wed May 18 03:28:32 PDT 2022 ON: 19.99 +20.0 20.03 -23.3 16.5 24.4 28.3 10 1 Alarm State:  0
Wed May 18 03:27:31 PDT 2022 ON: 20.00 +20.0 20.05 -23.3 16.5 24.4 28.3 10 0 Alarm State:  0
Wed May 18 03:26:29 PDT 2022 ON: 19.99 +20.0 20.05 -23.3 16.5 24.4 28.3 9 1 Alarm State:  0
Wed May 18 03:25:28 PDT 2022 ON: 19.99 +20.0 20.04 -23.3 16.5 24.4 28.3 10 1 Alarm State:  0
Wed May 18 03:24:26 PDT 2022 ON: 20.00 +20.0 20.03 -23.1 16.7 24.2 28.3 9 1 Alarm State:  0
Wed May 18 03:23:25 PDT 2022 ON: 19.99 +20.0 20.04 -23.2 16.6 24.3 28.3 9 1 Alarm State:  0
Wed May 18 03:22:23 PDT 2022 ON: 20.00 +20.0 20.06 -23.1 16.7 24.2 28.3 10 0 Alarm State:  0
Wed May 18 03:21:22 PDT 2022 ON: 19.99 +20.0 20.03 -23.2 16.6 24.3 28.3 9 1 Alarm State:  0
Wed May 18 03:20:20 PDT 2022 ON: 20.01 +20.0 20.06 -23.3 16.4 24.5 28.3 10 0 Alarm State:  0
Wed May 18 03:19:19 PDT 2022 ON: 20.00 +20.0 20.05 -23.2 16.6 24.3 28.3 10 1 Alarm State:  0
Wed May 18 03:18:17 PDT 2022 ON: 19.99 +20.0 20.05 -23.1 16.7 24.2 28.3 9 0 Alarm State:  0
Wed May 18 03:17:16 PDT 2022 ON: 19.99 +20.0 20.04 -23.2 16.6 24.3 28.3 9 1 Alarm State:  0
Wed May 18 03:16:14 PDT 2022 ON: 20.00 +20.0 20.05 -23.3 16.4 24.5 28.3 10 0 Alarm State:  0
Wed May 18 03:15:13 PDT 2022 ON: 20.00 +20.0 20.06 -23.2 16.6 24.3 28.3 9 0 Alarm State:  0
Wed May 18 03:14:11 PDT 2022 ON: 19.99 +20.0 20.05 -23.3 16.5 24.4 28.3 10 0 Alarm State:  0
Wed May 18 03:13:10 PDT 2022 ON: 20.00 +20.0 20.04 -23.3 16.5 24.4 28.3 10 1 Alarm State:  0
Wed May 18 03:12:08 PDT 2022 ON: 19.99 +20.0 20.04 -23.1 16.7 24.2 28.3 9 1 Alarm State:  0
Wed May 18 03:11:07 PDT 2022 ON: 20.00 +20.0 20.05 -23.1 16.7 24.2 28.3 10 0 Alarm State:  0
Wed May 18 03:10:05 PDT 2022 ON: 19.99 +20.0 20.04 -23.1 16.7 24.2 28.3 9 1 Alarm State:  0
Wed May 18 03:09:04 PDT 2022 ON: 20.00 +20.0 20.04 -23.3 16.5 24.4 28.3 10 1 Alarm State:  0
Wed May 18 03:08:02 PDT 2022 ON: 19.99 +20.0 20.03 -23.2 16.6 24.3 28.3 10 2 Alarm State:  0
Wed May 18 03:07:01 PDT 2022 ON: 20.00 +20.0 20.05 -23.2 16.6 24.3 28.3 9 0 Alarm State:  0
Wed May 18 03:05:59 PDT 2022 ON: 20.00 +20.0 20.06 -23.3 16.4 24.5 28.3 10 0 Alarm State:  0
Wed May 18 03:04:58 PDT 2022 ON: 19.99 +20.0 20.03 -23.0 16.8 24.2 28.3 10 1 Alarm State:  0
Wed May 18 03:03:56 PDT 2022 ON: 19.99 +20.0 20.04 -23.2 16.6 24.3 28.3 10 1 Alarm State:  0
Wed May 18 03:02:55 PDT 2022 ON: 19.99 +20.0 20.03 -23.0 16.8 24.2 28.3 9 2 Alarm State:  0
Wed May 18 03:01:53 PDT 2022 ON: 19.99 +20.0 20.05 -23.3 16.5 24.4 28.3 9 0 Alarm State:  0
Wed May 18 03:00:52 PDT 2022 ON: 20.00 +20.0 20.04 -23.0 16.8 24.2 28.3 10 1 Alarm State:  0
Wed May 18 02:59:50 PDT 2022 ON: 19.99 +20.0 20.02 -23.3 16.5 24.4 28.3 10 2 Alarm State:  0
Wed May 18 02:58:49 PDT 2022 ON: 19.99 +20.0 20.04 -23.1 16.7 24.2 28.3 10 1 Alarm State:  0
Wed May 18 02:57:47 PDT 2022 ON: 20.00 +20.0 20.05 -23.3 16.5 24.4 28.3 10 0 Alarm State:  0
Wed May 18 02:56:46 PDT 2022 ON: 20.00 +20.0 20.05 -23.2 16.6 24.3 28.3 9 0 Alarm State:  0
Wed May 18 02:55:44 PDT 2022 ON: 19.99 +20.0 20.03 -23.2 16.6 24.3 28.3 10 1 Alarm State:  0
Wed May 18 02:54:43 PDT 2022 ON: 19.99 +20.0 20.03 -23.3 16.5 24.4 28.3 10 1 Alarm State:  0
Wed May 18 02:53:41 PDT 2022 ON: 20.00 +20.0 20.05 -23.1 16.7 24.2 28.3 9 0 Alarm State:  0
Wed May 18 02:52:40 PDT 2022 ON: 20.00 +20.0 20.05 -23.2 16.6 24.3 28.3 10 1 Alarm State:  0
Wed May 18 02:51:38 PDT 2022 ON: 20.00 +20.0 20.05 -23.1 16.7 24.2 28.3 10 1 Alarm State:  0
Wed May 18 02:50:37 PDT 2022 ON: 20.00 +20.0 20.05 -23.3 16.5 24.4 28.3 10 0 Alarm State:  0
Wed May 18 02:49:35 PDT 2022 ON: 20.00 +20.0 20.05 -23.2 16.6 24.3 28.3 10 0 Alarm State:  0
Wed May 18 02:48:34 PDT 2022 ON: 19.99 +20.0 20.05 -23.2 16.6 24.3 28.3 9 1 Alarm State:  0
Wed May 18 02:47:32 PDT 2022 ON: 19.99 +20.0 20.03 -23.2 16.6 24.3 28.3 10 1 Alarm State:  0
Wed May 18 02:46:31 PDT 2022 ON: 19.99 +20.0 20.03 -23.1 16.7 24.2 28.3 10 2 Alarm State:  0
Wed May 18 02:45:29 PDT 2022 ON: 19.99 +20.0 20.04 -23.2 16.6 24.3 28.3 9 1 Alarm State:  0
Wed May 18 02:44:28 PDT 2022 ON: 20.00 +20.0 20.05 -23.3 16.5 24.4 28.3 10 0 Alarm State:  0
Wed May 18 02:43:26 PDT 2022 ON: 20.00 +20.0 20.04 -23.1 16.7 24.2 28.3 9 1 Alarm State:  0
Wed May 18 02:42:25 PDT 2022 ON: 19.99 +20.0 20.03 -23.1 16.7 24.2 28.3 10 2 Alarm State:  0
Wed May 18 02:41:23 PDT 2022 ON: 20.00 +20.0 20.05 -23.2 16.6 24.3 28.3 10 0 Alarm State:  0
Wed May 18 02:40:22 PDT 2022 ON: 19.99 +20.0 20.04 -23.2 16.6 24.3 28.3 9 1 Alarm State:  0
Wed May 18 02:39:20 PDT 2022 ON: 19.99 +20.0 20.04 -23.1 16.7 24.2 28.3 10 1 Alarm State:  0
Wed May 18 02:38:19 PDT 2022 ON: 19.99 +20.0 20.04 -23.2 16.6 24.3 28.3 10 1 Alarm State:  0
Wed May 18 02:37:17 PDT 2022 ON: 19.99 +20.0 20.04 -23.2 16.6 24.3 28.3 9 1 Alarm State:  0
Wed May 18 02:36:16 PDT 2022 ON: 20.00 +20.0 20.04 -23.3 16.5 24.4 28.3 10 1 Alarm State:  0
Wed May 18 02:35:14 PDT 2022 ON: 19.99 +20.0 20.03 -23.1 16.7 24.2 28.3 10 1 Alarm State:  0
Wed May 18 02:34:13 PDT 2022 ON: 19.99 +20.0 20.04 -23.3 16.5 24.4 28.3 10 1 Alarm State:  0
Wed May 18 02:33:11 PDT 2022 ON: 19.99 +20.0 20.04 -23.2 16.6 24.3 28.3 10 1 Alarm State:  0
Wed May 18 02:32:09 PDT 2022 ON: 20.00 +20.0 20.05 -23.2 16.6 24.3 28.3 9 0 Alarm State:  0
Wed May 18 02:31:08 PDT 2022 ON: 20.00 +20.0 20.05 -23.2 16.6 24.3 28.3 9 0 Alarm State:  0
Wed May 18 02:30:06 PDT 2022 ON: 20.01 +20.0 20.06 -22.9 16.9 24.1 28.3 10 0 Alarm State:  0
Wed May 18 02:29:05 PDT 2022 ON: 19.99 +20.0 20.04 -23.0 16.8 24.2 28.4 9 1 Alarm State:  0
Wed May 18 02:28:03 PDT 2022 ON: 20.00 +20.0 20.05 -23.2 16.6 24.3 28.3 10 0 Alarm State:  0
Wed May 18 02:27:02 PDT 2022 ON: 19.99 +20.0 20.03 -23.2 16.6 24.3 28.3 10 2 Alarm State:  0
Wed May 18 02:26:00 PDT 2022 ON: 19.99 +20.0 20.03 -23.2 16.6 24.3 28.3 10 1 Alarm State:  0
Wed May 18 02:24:59 PDT 2022 ON: 19.99 +20.0 20.05 -23.2 16.6 24.3 28.3 10 0 Alarm State:  0
Wed May 18 02:23:57 PDT 2022 ON: 19.99 +20.0 20.04 -23.2 16.6 24.3 28.3 9 1 Alarm State:  0
Wed May 18 02:22:56 PDT 2022 ON: 20.00 +20.0 20.04 -23.2 16.6 24.3 28.3 10 1 Alarm State:  0
Wed May 18 02:21:54 PDT 2022 ON: 20.00 +20.0 20.04 -23.1 16.7 24.2 28.3 10 1 Alarm State:  0
Wed May 18 02:20:53 PDT 2022 ON: 20.00 +20.0 20.05 -23.3 16.4 24.5 28.3 9 0 Alarm State:  0
Wed May 18 02:19:51 PDT 2022 ON: 20.00 +20.0 20.04 -23.1 16.7 24.2 28.3 10 1 Alarm State:  0
Wed May 18 02:18:50 PDT 2022 ON: 19.99 +20.0 20.04 -23.2 16.6 24.3 28.3 10 1 Alarm State:  0
Wed May 18 02:17:48 PDT 2022 ON: 19.99 +20.0 20.03 -23.3 16.5 24.4 28.3 10 1 Alarm State:  0
Wed May 18 02:16:47 PDT 2022 ON: 19.99 +20.0 20.04 -23.1 16.7 24.2 28.3 10 1 Alarm State:  0
Wed May 18 02:15:45 PDT 2022 ON: 19.99 +20.0 20.04 -23.1 16.7 24.2 28.3 9 0 Alarm State:  0
Wed May 18 02:14:44 PDT 2022 ON: 20.00 +20.0 20.04 -23.2 16.6 24.3 28.3 9 1 Alarm State:  0
Wed May 18 02:13:42 PDT 2022 ON: 20.00 +20.0 20.05 -23.3 16.5 24.4 28.3 10 0 Alarm State:  0
Wed May 18 02:12:41 PDT 2022 ON: 20.00 +20.0 20.04 -23.1 16.7 24.2 28.3 9 1 Alarm State:  0
Wed May 18 02:11:39 PDT 2022 ON: 20.00 +20.0 20.06 -23.3 16.4 24.5 28.3 10 0 Alarm State:  0
Wed May 18 02:10:38 PDT 2022 ON: 19.99 +20.0 20.03 -23.1 16.7 24.2 28.3 10 1 Alarm State:  0
Wed May 18 02:09:36 PDT 2022 ON: 20.00 +20.0 20.04 -23.2 16.6 24.3 28.3 9 1 Alarm State:  0
Wed May 18 02:08:35 PDT 2022 ON: 19.99 +20.0 20.04 -23.1 16.7 24.2 28.3 10 1 Alarm State:  0
Wed May 18 02:07:33 PDT 2022 ON: 20.00 +20.0 20.05 -23.0 16.8 24.2 28.3 9 0 Alarm State:  0
Wed May 18 02:06:32 PDT 2022 ON: 20.00 +20.0 20.06 -23.2 16.6 24.3 28.3 10 0 Alarm State:  0
Wed May 18 02:05:30 PDT 2022 ON: 20.00 +20.0 20.04 -23.2 16.6 24.3 28.3 10 1 Alarm State:  0
Wed May 18 02:04:29 PDT 2022 ON: 19.99 +20.0 20.04 -23.1 16.7 24.2 28.3 9 1 Alarm State:  0
Wed May 18 02:03:27 PDT 2022 ON: 19.99 +20.0 20.04 -23.3 16.4 24.5 28.3 10 1 Alarm State:  0
Wed May 18 02:02:26 PDT 2022 ON: 19.99 +20.0 20.02 -23.1 16.7 24.2 28.3 9 2 Alarm State:  0
Wed May 18 02:01:24 PDT 2022 ON: 19.99 +20.0 20.04 -23.1 16.7 24.2 28.3 10 1 Alarm State:  0
Wed May 18 02:00:23 PDT 2022 ON: 20.00 +20.0 20.05 -23.2 16.6 24.3 28.3 10 0 Alarm State:  0
Wed May 18 01:59:21 PDT 2022 ON: 20.00 +20.0 20.05 -23.2 16.6 24.3 28.3 9 0 Alarm State:  0
Wed May 18 01:58:20 PDT 2022 ON: 19.99 +20.0 20.04 -23.1 16.7 24.2 28.3 9 1 Alarm State:  0
Wed May 18 01:57:18 PDT 2022 ON: 20.00 +20.0 20.04 -23.1 16.7 24.2 28.3 10 1 Alarm State:  0
Wed May 18 01:56:17 PDT 2022 ON: 19.99 +20.0 20.03 -23.0 16.8 24.2 28.3 10 2 Alarm State:  0
Wed May 18 01:55:15 PDT 2022 ON: 20.00 +20.0 20.05 -23.2 16.6 24.3 28.3 10 0 Alarm State:  0
Wed May 18 01:54:14 PDT 2022 ON: 20.00 +20.0 20.04 -23.2 16.6 24.3 28.3 9 1 Alarm State:  0
Wed May 18 01:53:12 PDT 2022 ON: 19.99 +20.0 20.04 -23.2 16.6 24.3 28.3 10 1 Alarm State:  0
Wed May 18 01:52:11 PDT 2022 ON: 20.00 +20.0 20.05 -23.2 16.6 24.3 28.3 9 0 Alarm State:  0
Wed May 18 01:51:09 PDT 2022 ON: 19.99 +20.0 20.04 -23.2 16.6 24.3 28.3 9 1 Alarm State:  0
Wed May 18 01:50:08 PDT 2022 ON: 20.00 +20.0 20.05 -23.2 16.6 24.3 28.3 10 0 Alarm State:  0
Wed May 18 01:49:06 PDT 2022 ON: 20.00 +20.0 20.05 -23.2 16.6 24.3 28.3 10 1 Alarm State:  0
Wed May 18 01:48:05 PDT 2022 ON: 20.00 +20.0 20.04 -23.1 16.7 24.2 28.3 9 1 Alarm State:  0
Wed May 18 01:47:03 PDT 2022 ON: 19.99 +20.0 20.03 -23.0 16.8 24.2 28.4 10 2 Alarm State:  0
Wed May 18 01:46:02 PDT 2022 ON: 19.99 +20.0 20.03 -23.1 16.7 24.2 28.3 9 1 Alarm State:  0
Wed May 18 01:45:00 PDT 2022 ON: 20.00 +20.0 20.05 -23.4 16.3 24.6 28.3 10 0 Alarm State:  0
Wed May 18 01:43:59 PDT 2022 ON: 20.00 +20.0 20.03 -23.2 16.6 24.3 28.3 9 1 Alarm State:  0
Wed May 18 01:42:57 PDT 2022 ON: 19.99 +20.0 20.05 -23.2 16.6 24.3 28.3 9 1 Alarm State:  0
Wed May 18 01:41:56 PDT 2022 ON: 19.99 +20.0 20.04 -23.1 16.7 24.2 28.3 10 1 Alarm State:  0
Wed May 18 01:40:54 PDT 2022 ON: 19.99 +20.0 20.04 -23.3 16.4 24.5 28.3 10 1 Alarm State:  0
Wed May 18 01:39:53 PDT 2022 ON: 20.00 +20.0 20.04 -23.1 16.7 24.2 28.3 10 1 Alarm State:  0
Wed May 18 01:38:51 PDT 2022 ON: 20.00 +20.0 20.04 -23.2 16.6 24.3 28.3 10 0 Alarm State:  0
Wed May 18 01:37:50 PDT 2022 ON: 20.00 +20.0 20.05 -23.3 16.5 24.4 28.3 9 1 Alarm State:  0
Wed May 18 01:36:48 PDT 2022 ON: 19.99 +20.0 20.04 -23.2 16.6 24.3 28.3 10 1 Alarm State:  0
Wed May 18 01:35:47 PDT 2022 ON: 20.00 +20.0 20.04 -23.1 16.7 24.2 28.3 10 1 Alarm State:  0
Wed May 18 01:34:45 PDT 2022 ON: 20.00 +20.0 20.05 -23.2 16.6 24.3 28.3 9 0 Alarm State:  0
Wed May 18 01:33:43 PDT 2022 ON: 20.00 +20.0 20.06 -23.3 16.4 24.5 28.3 10 0 Alarm State:  0
Wed May 18 01:32:42 PDT 2022 ON: 20.00 +20.0 20.03 -23.0 16.8 24.2 28.3 10 1 Alarm State:  0
Wed May 18 01:31:40 PDT 2022 ON: 19.99 +20.0 20.04 -23.2 16.6 24.3 28.3 10 1 Alarm State:  0
Wed May 18 01:30:39 PDT 2022 ON: 19.99 +20.0 20.04 -23.3 16.4 24.5 28.3 10 1 Alarm State:  0
Wed May 18 01:29:37 PDT 2022 ON: 19.99 +20.0 20.04 -23.2 16.6 24.3 28.3 9 1 Alarm State:  0
Wed May 18 01:28:36 PDT 2022 ON: 20.00 +20.0 20.04 -23.1 16.7 24.2 28.3 10 1 Alarm State:  0
Wed May 18 01:27:34 PDT 2022 ON: 20.01 +20.0 20.05 -23.1 16.7 24.2 28.3 9 0 Alarm State:  0
Wed May 18 01:26:33 PDT 2022 ON: 19.99 +20.0 20.05 -23.1 16.7 24.2 28.3 9 0 Alarm State:  0
Wed May 18 01:25:31 PDT 2022 ON: 20.00 +20.0 20.06 -23.3 16.5 24.4 28.3 10 0 Alarm State:  0
Wed May 18 01:24:30 PDT 2022 ON: 19.99 +20.0 20.02 -23.1 16.7 24.2 28.3 10 2 Alarm State:  0
Wed May 18 01:23:28 PDT 2022 ON: 19.99 +20.0 20.04 -23.1 16.7 24.2 28.3 10 1 Alarm State:  0
Wed May 18 01:22:27 PDT 2022 ON: 20.00 +20.0 20.05 -23.2 16.6 24.3 28.3 10 0 Alarm State:  0
Wed May 18 01:21:25 PDT 2022 ON: 19.99 +20.0 20.04 -23.2 16.6 24.3 28.3 9 1 Alarm State:  0
Wed May 18 01:20:24 PDT 2022 ON: 19.99 +20.0 20.04 -23.2 16.6 24.3 28.3 10 1 Alarm State:  0
Wed May 18 01:19:22 PDT 2022 ON: 19.99 +20.0 20.05 -23.3 16.5 24.4 28.3 10 1 Alarm State:  0
Wed May 18 01:18:21 PDT 2022 ON: 19.99 +20.0 20.04 -23.1 16.7 24.2 28.3 9 1 Alarm State:  0
Wed May 18 01:17:19 PDT 2022 ON: 19.99 +20.0 20.05 -23.3 16.5 24.4 28.3 10 0 Alarm State:  0
Wed May 18 01:16:18 PDT 2022 ON: 20.00 +20.0 20.06 -23.2 16.6 24.3 28.3 10 0 Alarm State:  0
Wed May 18 01:15:16 PDT 2022 ON: 20.00 +20.0 20.04 -23.2 16.6 24.3 28.3 9 1 Alarm State:  0
Wed May 18 01:14:15 PDT 2022 ON: 20.00 +20.0 20.04 -23.3 16.4 24.5 28.3 10 0 Alarm State:  0
Wed May 18 01:13:13 PDT 2022 ON: 20.00 +20.0 20.05 -23.3 16.5 24.4 28.3 9 0 Alarm State:  0
Wed May 18 01:12:12 PDT 2022 ON: 19.99 +20.0 20.05 -23.2 16.6 24.3 28.3 10 1 Alarm State:  0
Wed May 18 01:11:10 PDT 2022 ON: 19.99 +20.0 20.04 -23.1 16.7 24.2 28.3 10 0 Alarm State:  0
Wed May 18 01:10:09 PDT 2022 ON: 20.00 +20.0 20.05 -23.2 16.6 24.3 28.3 9 0 Alarm State:  0
Wed May 18 01:09:07 PDT 2022 ON: 20.00 +20.0 20.05 -23.1 16.7 24.2 28.3 10 0 Alarm State:  0
Wed May 18 01:08:06 PDT 2022 ON: 19.99 +20.0 20.04 -23.1 16.7 24.2 28.3 10 1 Alarm State:  0
Wed May 18 01:07:04 PDT 2022 ON: 19.99 +20.0 20.03 -23.2 16.6 24.3 28.3 9 1 Alarm State:  0
Wed May 18 01:06:03 PDT 2022 ON: 20.00 +20.0 20.04 -23.2 16.6 24.3 28.3 10 0 Alarm State:  0
Wed May 18 01:05:01 PDT 2022 ON: 20.00 +20.0 20.05 -23.2 16.6 24.3 28.3 9 1 Alarm State:  0
Wed May 18 01:04:00 PDT 2022 ON: 19.99 +20.0 20.03 -23.2 16.6 24.3 28.3 9 2 Alarm State:  0
Wed May 18 01:02:58 PDT 2022 ON: 19.98 +20.0 20.03 -23.1 16.7 24.2 28.3 9 1 Alarm State:  0
Wed May 18 01:01:57 PDT 2022 ON: 20.00 +20.0 20.04 -23.1 16.7 24.2 28.3 9 1 Alarm State:  0
Wed May 18 01:00:55 PDT 2022 ON: 20.00 +20.0 20.05 -23.3 16.5 24.4 28.3 10 1 Alarm State:  0
Wed May 18 00:59:54 PDT 2022 ON: 19.99 +20.0 20.03 -23.1 16.7 24.2 28.3 10 1 Alarm State:  0
Wed May 18 00:58:52 PDT 2022 ON: 20.00 +20.0 20.04 -23.3 16.5 24.4 28.3 9 1 Alarm State:  0
Wed May 18 00:57:51 PDT 2022 ON: 19.99 +20.0 20.04 -23.2 16.6 24.3 28.3 10 1 Alarm State:  0
Wed May 18 00:56:49 PDT 2022 ON: 19.99 +20.0 20.04 -23.1 16.7 24.2 28.3 9 1 Alarm State:  0
Wed May 18 00:55:48 PDT 2022 ON: 20.00 +20.0 20.04 -23.3 16.5 24.4 28.3 10 0 Alarm State:  0
Wed May 18 00:54:46 PDT 2022 ON: 20.00 +20.0 20.05 -23.3 16.5 24.4 28.3 10 0 Alarm State:  0
Wed May 18 00:53:45 PDT 2022 ON: 19.99 +20.0 20.04 -23.3 16.5 24.4 28.3 9 1 Alarm State:  0
Wed May 18 00:52:43 PDT 2022 ON: 19.99 +20.0 20.05 -23.0 16.8 24.2 28.4 10 1 Alarm State:  0
Wed May 18 00:51:42 PDT 2022 ON: 19.99 +20.0 20.03 -23.2 16.6 24.3 28.3 10 1 Alarm State:  0
Wed May 18 00:50:40 PDT 2022 ON: 19.99 +20.0 20.03 -23.3 16.5 24.4 28.3 10 1 Alarm State:  0
Wed May 18 00:49:39 PDT 2022 ON: 20.00 +20.0 20.05 -23.2 16.6 24.3 28.3 10 1 Alarm State:  0
Wed May 18 00:48:37 PDT 2022 ON: 19.99 +20.0 20.04 -23.3 16.4 24.5 28.3 9 1 Alarm State:  0
Wed May 18 00:47:36 PDT 2022 ON: 19.99 +20.0 20.03 -23.3 16.5 24.4 28.3 10 1 Alarm State:  0
Wed May 18 00:46:34 PDT 2022 ON: 19.99 +20.0 20.05 -23.2 16.6 24.3 28.3 10 1 Alarm State:  0
Wed May 18 00:45:33 PDT 2022 ON: 20.00 +20.0 20.05 -23.2 16.6 24.3 28.3 9 0 Alarm State:  0
Wed May 18 00:44:31 PDT 2022 ON: 19.99 +20.0 20.04 -23.2 16.6 24.3 28.3 10 1 Alarm State:  0
Wed May 18 00:43:30 PDT 2022 ON: 20.00 +20.0 20.06 -23.2 16.6 24.3 28.3 9 0 Alarm State:  0
Wed May 18 00:42:28 PDT 2022 ON: 19.99 +20.0 20.02 -23.2 16.6 24.3 28.3 9 2 Alarm State:  0
Wed May 18 00:41:27 PDT 2022 ON: 19.99 +20.0 20.03 -23.2 16.6 24.3 28.3 10 1 Alarm State:  0
Wed May 18 00:40:25 PDT 2022 ON: 20.00 +20.0 20.05 -23.2 16.6 24.3 28.3 9 0 Alarm State:  0
Wed May 18 00:39:24 PDT 2022 ON: 20.00 +20.0 20.04 -23.1 16.7 24.2 28.3 10 1 Alarm State:  0
Wed May 18 00:38:22 PDT 2022 ON: 20.00 +20.0 20.05 -23.3 16.5 24.4 28.3 10 1 Alarm State:  0
Wed May 18 00:37:21 PDT 2022 ON: 19.99 +20.0 20.04 -23.2 16.6 24.3 28.3 10 1 Alarm State:  0
Wed May 18 00:36:19 PDT 2022 ON: 19.99 +20.0 20.04 -23.3 16.5 24.4 28.3 10 1 Alarm State:  0
Wed May 18 00:35:17 PDT 2022 ON: 19.99 +20.0 20.03 -23.1 16.7 24.2 28.3 9 0 Alarm State:  0
Wed May 18 00:34:16 PDT 2022 ON: 20.00 +20.0 20.03 -23.3 16.5 24.4 28.3 9 1 Alarm State:  0
Wed May 18 00:33:14 PDT 2022 ON: 20.00 +20.0 20.04 -22.9 16.9 24.1 28.3 10 1 Alarm State:  0
Wed May 18 00:32:13 PDT 2022 ON: 19.99 +20.0 20.05 -23.3 16.5 24.4 28.3 9 1 Alarm State:  0
Wed May 18 00:31:11 PDT 2022 ON: 19.99 +20.0 20.04 -23.2 16.6 24.3 28.3 10 0 Alarm State:  0
Wed May 18 00:30:10 PDT 2022 ON: 19.99 +20.0 20.04 -23.2 16.6 24.3 28.3 10 1 Alarm State:  0
Wed May 18 00:29:08 PDT 2022 ON: 19.99 +20.0 20.04 -23.1 16.7 24.2 28.3 10 1 Alarm State:  0
Wed May 18 00:28:07 PDT 2022 ON: 19.99 +20.0 20.05 -23.3 16.5 24.4 28.3 10 0 Alarm State:  0
Wed May 18 00:27:05 PDT 2022 ON: 20.00 +20.0 20.04 -23.2 16.6 24.3 28.3 9 1 Alarm State:  0
Wed May 18 00:26:04 PDT 2022 ON: 19.99 +20.0 20.03 -23.2 16.6 24.3 28.3 10 1 Alarm State:  0
Wed May 18 00:25:02 PDT 2022 ON: 20.00 +20.0 20.05 -23.2 16.6 24.3 28.3 10 0 Alarm State:  0
Wed May 18 00:24:01 PDT 2022 ON: 20.00 +20.0 20.04 -23.2 16.6 24.3 28.3 9 1 Alarm State:  0
Wed May 18 00:22:59 PDT 2022 ON: 19.99 +20.0 20.05 -23.1 16.7 24.2 28.3 10 0 Alarm State:  0
Wed May 18 00:21:58 PDT 2022 ON: 20.00 +20.0 20.04 -23.1 16.7 24.2 28.3 9 1 Alarm State:  0
Wed May 18 00:20:56 PDT 2022 ON: 19.99 +20.0 20.03 -23.2 16.6 24.3 28.3 10 1 Alarm State:  0
Wed May 18 00:19:55 PDT 2022 ON: 20.00 +20.0 20.06 -23.2 16.6 24.3 28.3 10 0 Alarm State:  0
Wed May 18 00:18:53 PDT 2022 ON: 20.00 +20.0 20.05 -23.1 16.7 24.2 28.3 9 0 Alarm State:  0
Wed May 18 00:17:52 PDT 2022 ON: 20.00 +20.0 20.04 -23.1 16.7 24.2 28.3 10 1 Alarm State:  0
Wed May 18 00:16:50 PDT 2022 ON: 19.99 +20.0 20.03 -23.0 16.8 24.2 28.3 10 1 Alarm State:  0
Wed May 18 00:15:49 PDT 2022 ON: 20.00 +20.0 20.05 -23.1 16.7 24.2 28.3 9 0 Alarm State:  0
Wed May 18 00:14:47 PDT 2022 ON: 20.00 +20.0 20.05 -23.3 16.5 24.4 28.3 10 0 Alarm State:  0
Wed May 18 00:13:46 PDT 2022 ON: 19.99 +20.0 20.03 -23.0 16.8 24.2 28.4 10 1 Alarm State:  0
Wed May 18 00:12:44 PDT 2022 ON: 19.99 +20.0 20.04 -23.2 16.6 24.3 28.3 10 1 Alarm State:  0
Wed May 18 00:11:43 PDT 2022 ON: 20.00 +20.0 20.05 -23.2 16.6 24.3 28.3 10 0 Alarm State:  0
Wed May 18 00:10:41 PDT 2022 ON: 19.99 +20.0 20.04 -22.9 16.9 24.1 28.4 9 1 Alarm State:  0
Wed May 18 00:09:40 PDT 2022 ON: 19.99 +20.0 20.03 -23.3 16.5 24.4 28.3 10 1 Alarm State:  0
Wed May 18 00:08:38 PDT 2022 ON: 19.99 +20.0 20.03 -23.1 16.7 24.2 28.3 10 2 Alarm State:  0
Wed May 18 00:07:37 PDT 2022 ON: 20.00 +20.0 20.05 -23.3 16.4 24.5 28.3 9 0 Alarm State:  0
Wed May 18 00:06:35 PDT 2022 ON: 20.00 +20.0 20.03 -23.1 16.7 24.2 28.3 10 1 Alarm State:  0
Wed May 18 00:05:34 PDT 2022 ON: 19.99 +20.0 20.03 -23.3 16.4 24.5 28.3 10 1 Alarm State:  0
Wed May 18 00:04:32 PDT 2022 ON: 19.99 +20.0 20.03 -23.2 16.6 24.3 28.3 10 2 Alarm State:  0
Wed May 18 00:03:31 PDT 2022 ON: 20.00 +20.0 20.05 -23.1 16.7 24.2 28.3 10 0 Alarm State:  0
Wed May 18 00:02:29 PDT 2022 ON: 19.99 +20.0 20.04 -23.2 16.6 24.3 28.3 9 0 Alarm State:  0
Wed May 18 00:01:28 PDT 2022 ON: 20.00 +20.0 20.03 -23.2 16.6 24.3 28.3 10 1 Alarm State:  0
Wed May 18 00:00:26 PDT 2022 ON: 19.99 +20.0 20.03 -23.1 16.7 24.2 28.3 10 2 Alarm State:  0
Tue May 17 23:59:25 PDT 2022 ON: 19.99 +20.0 20.04 -23.1 16.7 24.2 28.3 9 1 Alarm State:  0
Tue May 17 23:58:23 PDT 2022 ON: 19.99 +20.0 20.05 -23.2 16.6 24.3 28.3 10 0 Alarm State:  0
Tue May 17 23:57:22 PDT 2022 ON: 20.00 +20.0 20.04 -23.3 16.5 24.4 28.3 10 1 Alarm State:  0
Tue May 17 23:56:20 PDT 2022 ON: 20.00 +20.0 20.05 -23.3 16.4 24.5 28.3 10 0 Alarm State:  0
Tue May 17 23:55:19 PDT 2022 ON: 19.99 +20.0 20.04 -23.0 16.8 24.2 28.3 10 1 Alarm State:  0
Tue May 17 23:54:17 PDT 2022 ON: 20.00 +20.0 20.04 -23.3 16.5 24.4 28.3 9 1 Alarm State:  0
Tue May 17 23:53:16 PDT 2022 ON: 19.99 +20.0 20.03 -23.0 16.8 24.2 28.3 9 2 Alarm State:  0
Tue May 17 23:52:14 PDT 2022 ON: 19.99 +20.0 20.03 -23.1 16.7 24.2 28.3 9 1 Alarm State:  0
Tue May 17 23:51:13 PDT 2022 ON: 19.99 +20.0 20.04 -23.3 16.5 24.4 28.3 9 1 Alarm State:  0
Tue May 17 23:50:11 PDT 2022 ON: 20.00 +20.0 20.05 -23.2 16.6 24.3 28.3 10 0 Alarm State:  0
Tue May 17 23:49:10 PDT 2022 ON: 19.99 +20.0 20.04 -23.2 16.6 24.3 28.3 10 1 Alarm State:  0
Tue May 17 23:48:08 PDT 2022 ON: 20.00 +20.0 20.04 -23.3 16.4 24.5 28.3 10 1 Alarm State:  0
Tue May 17 23:47:07 PDT 2022 ON: 20.00 +20.0 20.05 -23.2 16.6 24.3 28.3 10 0 Alarm State:  0
Tue May 17 23:46:05 PDT 2022 ON: 19.99 +20.0 20.04 -23.1 16.7 24.2 28.4 9 1 Alarm State:  0
Tue May 17 23:45:04 PDT 2022 ON: 19.99 +20.0 20.04 -23.3 16.5 24.4 28.3 10 1 Alarm State:  0
Tue May 17 23:44:02 PDT 2022 ON: 20.00 +20.0 20.05 -23.1 16.7 24.2 28.3 10 0 Alarm State:  0
Tue May 17 23:43:01 PDT 2022 ON: 20.00 +20.0 20.05 -23.2 16.6 24.3 28.3 9 0 Alarm State:  0
Tue May 17 23:41:59 PDT 2022 ON: 20.00 +20.0 20.05 -23.3 16.5 24.4 28.3 10 0 Alarm State:  0
Tue May 17 23:40:58 PDT 2022 ON: 19.99 +20.0 20.03 -23.2 16.6 24.3 28.3 9 1 Alarm State:  0
Tue May 17 23:39:56 PDT 2022 ON: 19.99 +20.0 20.03 -23.2 16.6 24.3 28.3 10 1 Alarm State:  0
Tue May 17 23:38:55 PDT 2022 ON: 20.00 +20.0 20.04 -23.1 16.7 24.2 28.3 10 0 Alarm State:  0
Tue May 17 23:37:53 PDT 2022 ON: 19.99 +20.0 20.04 -23.0 16.8 24.2 28.3 9 1 Alarm State:  0
Tue May 17 23:36:52 PDT 2022 ON: 19.99 +20.0 20.03 -23.2 16.6 24.3 28.3 10 1 Alarm State:  0
Tue May 17 23:35:50 PDT 2022 ON: 19.99 +20.0 20.03 -23.0 16.8 24.2 28.3 10 1 Alarm State:  0
Tue May 17 23:34:49 PDT 2022 ON: 19.99 +20.0 20.05 -23.2 16.6 24.3 28.3 9 1 Alarm State:  0
Tue May 17 23:33:47 PDT 2022 ON: 19.99 +20.0 20.03 -23.2 16.6 24.3 28.3 10 1 Alarm State:  0
Tue May 17 23:32:45 PDT 2022 ON: 19.99 +20.0 20.03 -23.3 16.5 24.4 28.3 10 1 Alarm State:  0
Tue May 17 23:31:44 PDT 2022 ON: 20.00 +20.0 20.04 -23.3 16.5 24.4 28.3 10 1 Alarm State:  0
Tue May 17 23:30:42 PDT 2022 ON: 19.99 +20.0 20.03 -23.2 16.6 24.3 28.3 10 1 Alarm State:  0
Tue May 17 23:29:41 PDT 2022 ON: 20.00 +20.0 20.05 -23.2 16.6 24.3 28.3 9 0 Alarm State:  0
Tue May 17 23:28:39 PDT 2022 ON: 19.99 +20.0 20.04 -23.1 16.7 24.2 28.3 10 1 Alarm State:  0
Tue May 17 23:27:38 PDT 2022 ON: 20.00 +20.0 20.04 -23.1 16.7 24.2 28.3 10 1 Alarm State:  0
Tue May 17 23:26:36 PDT 2022 ON: 19.99 +20.0 20.06 -23.3 16.4 24.5 28.3 9 0 Alarm State:  0
Tue May 17 23:25:35 PDT 2022 ON: 19.99 +20.0 20.04 -23.0 16.8 24.2 28.3 10 0 Alarm State:  0
Tue May 17 23:24:33 PDT 2022 ON: 20.00 +20.0 20.05 -23.3 16.5 24.4 28.3 9 0 Alarm State:  0
Tue May 17 23:23:32 PDT 2022 ON: 19.99 +20.0 20.04 -23.3 16.4 24.5 28.3 10 1 Alarm State:  0
Tue May 17 23:22:30 PDT 2022 ON: 19.99 +20.0 20.03 -23.2 16.6 24.3 28.3 10 1 Alarm State:  0
Tue May 17 23:21:29 PDT 2022 ON: 20.00 +20.0 20.05 -23.1 16.7 24.2 28.3 9 0 Alarm State:  0
Tue May 17 23:20:27 PDT 2022 ON: 20.00 +20.0 20.05 -23.1 16.7 24.2 28.3 10 0 Alarm State:  0
Tue May 17 23:19:26 PDT 2022 ON: 19.99 +20.0 20.04 -22.9 16.9 24.1 28.4 10 1 Alarm State:  0
Tue May 17 23:18:24 PDT 2022 ON: 20.01 +20.0 20.05 -23.3 16.5 24.4 28.3 10 0 Alarm State:  0
Tue May 17 23:17:23 PDT 2022 ON: 19.99 +20.0 20.04 -23.2 16.6 24.3 28.3 10 1 Alarm State:  0
Tue May 17 23:16:21 PDT 2022 ON: 19.99 +20.0 20.05 -23.2 16.6 24.3 28.3 9 0 Alarm State:  0
Tue May 17 23:15:20 PDT 2022 ON: 20.00 +20.0 20.05 -23.2 16.6 24.3 28.3 10 0 Alarm State:  0
Tue May 17 23:14:18 PDT 2022 ON: 20.00 +20.0 20.04 -23.2 16.6 24.3 28.3 9 1 Alarm State:  0
Tue May 17 23:13:17 PDT 2022 ON: 19.99 +20.0 20.05 -23.2 16.6 24.3 28.3 9 1 Alarm State:  0
Tue May 17 23:12:15 PDT 2022 ON: 20.00 +20.0 20.05 -23.2 16.6 24.3 28.3 10 0 Alarm State:  0
Tue May 17 23:11:14 PDT 2022 ON: 20.00 +20.0 20.05 -23.2 16.6 24.3 28.3 10 1 Alarm State:  0
Tue May 17 23:10:12 PDT 2022 ON: 19.99 +20.0 20.03 -23.0 16.8 24.2 28.3 10 1 Alarm State:  0
Tue May 17 23:09:11 PDT 2022 ON: 19.99 +20.0 20.04 -23.3 16.5 24.4 28.3 10 0 Alarm State:  0
Tue May 17 23:08:09 PDT 2022 ON: 20.00 +20.0 20.04 -23.1 16.7 24.2 28.3 9 1 Alarm State:  0
Tue May 17 23:07:08 PDT 2022 ON: 20.00 +20.0 20.04 -23.1 16.7 24.2 28.3 10 1 Alarm State:  0
Tue May 17 23:06:06 PDT 2022 ON: 19.99 +20.0 20.03 -23.1 16.7 24.2 28.3 10 2 Alarm State:  0
Tue May 17 23:05:05 PDT 2022 ON: 19.99 +20.0 20.04 -23.2 16.6 24.3 28.3 9 1 Alarm State:  0
Tue May 17 23:04:03 PDT 2022 ON: 20.00 +20.0 20.04 -23.3 16.4 24.5 28.3 10 1 Alarm State:  0
Tue May 17 23:03:02 PDT 2022 ON: 19.99 +20.0 20.04 -23.3 16.5 24.4 28.3 10 1 Alarm State:  0
Tue May 17 23:02:00 PDT 2022 ON: 20.00 +20.0 20.04 -23.1 16.7 24.2 28.3 10 1 Alarm State:  0
Tue May 17 23:00:59 PDT 2022 ON: 19.99 +20.0 20.05 -23.2 16.6 24.3 28.3 10 0 Alarm State:  0
Tue May 17 22:59:57 PDT 2022 ON: 20.00 +20.0 20.05 -23.3 16.4 24.5 28.3 9 0 Alarm State:  0
Tue May 17 22:58:56 PDT 2022 ON: 19.99 +20.0 20.04 -23.3 16.5 24.4 28.3 10 1 Alarm State:  0
Tue May 17 22:57:54 PDT 2022 ON: 19.99 +20.0 20.04 -23.2 16.6 24.3 28.3 9 1 Alarm State:  0
Tue May 17 22:56:53 PDT 2022 ON: 20.00 +20.0 20.05 -23.3 16.5 24.4 28.3 9 0 Alarm State:  0
Tue May 17 22:55:51 PDT 2022 ON: 19.99 +20.0 20.04 -23.3 16.5 24.4 28.3 10 1 Alarm State:  0
Tue May 17 22:54:50 PDT 2022 ON: 19.99 +20.0 20.04 -23.3 16.4 24.5 28.3 9 1 Alarm State:  0
Tue May 17 22:53:48 PDT 2022 ON: 20.00 +20.0 20.04 -23.1 16.7 24.2 28.3 10 1 Alarm State:  0
Tue May 17 22:52:47 PDT 2022 ON: 20.00 +20.0 20.04 -23.1 16.7 24.2 28.4 10 1 Alarm State:  0
Tue May 17 22:51:45 PDT 2022 ON: 19.99 +20.0 20.04 -23.2 16.6 24.3 28.3 9 0 Alarm State:  0
Tue May 17 22:50:44 PDT 2022 ON: 19.99 +20.0 20.03 -23.0 16.8 24.2 28.3 9 1 Alarm State:  0
Tue May 17 22:49:42 PDT 2022 ON: 19.99 +20.0 20.05 -23.0 16.8 24.2 28.4 10 1 Alarm State:  0
Tue May 17 22:48:41 PDT 2022 ON: 19.99 +20.0 20.03 -23.0 16.8 24.2 28.3 9 1 Alarm State:  0
Tue May 17 22:47:39 PDT 2022 ON: 19.99 +20.0 20.04 -23.3 16.4 24.5 28.3 10 0 Alarm State:  0
Tue May 17 22:46:38 PDT 2022 ON: 19.99 +20.0 20.03 -23.2 16.6 24.3 28.3 10 1 Alarm State:  0
Tue May 17 22:45:36 PDT 2022 ON: 20.00 +20.0 20.04 -23.1 16.7 24.2 28.3 10 1 Alarm State:  0
Tue May 17 22:44:35 PDT 2022 ON: 20.00 +20.0 20.06 -23.3 16.4 24.5 28.3 10 0 Alarm State:  0
Tue May 17 22:43:33 PDT 2022 ON: 19.99 +20.0 20.04 -23.3 16.5 24.4 28.3 9 1 Alarm State:  0
Tue May 17 22:42:32 PDT 2022 ON: 20.00 +20.0 20.04 -23.2 16.6 24.3 28.3 10 1 Alarm State:  0
Tue May 17 22:41:30 PDT 2022 ON: 20.00 +20.0 20.03 -23.2 16.6 24.3 28.3 9 1 Alarm State:  0
Tue May 17 22:40:29 PDT 2022 ON: 20.00 +20.0 20.04 -23.1 16.7 24.2 28.3 9 1 Alarm State:  0
Tue May 17 22:39:27 PDT 2022 ON: 19.99 +20.0 20.03 -23.1 16.7 24.2 28.3 10 1 Alarm State:  0
Tue May 17 22:38:25 PDT 2022 ON: 19.99 +20.0 20.04 -23.3 16.4 24.5 28.3 10 1 Alarm State:  0
Tue May 17 22:37:24 PDT 2022 ON: 19.99 +20.0 20.04 -22.9 16.9 24.1 28.4 9 1 Alarm State:  0
Tue May 17 22:36:22 PDT 2022 ON: 20.00 +20.0 20.04 -23.3 16.5 24.4 28.3 10 1 Alarm State:  0
Tue May 17 22:35:21 PDT 2022 ON: 20.00 +20.0 20.07 -23.3 16.5 24.4 28.3 9 0 Alarm State:  0
Tue May 17 22:34:19 PDT 2022 ON: 19.99 +20.0 20.03 -22.9 16.9 24.1 28.3 9 1 Alarm State:  0
Tue May 17 22:33:18 PDT 2022 ON: 19.99 +20.0 20.03 -23.3 16.4 24.5 28.3 10 1 Alarm State:  0
Tue May 17 22:32:16 PDT 2022 ON: 20.00 +20.0 20.04 -23.3 16.5 24.4 28.3 9 1 Alarm State:  0
Tue May 17 22:31:15 PDT 2022 ON: 20.00 +20.0 20.04 -23.2 16.6 24.3 28.3 10 1 Alarm State:  0
Tue May 17 22:30:13 PDT 2022 ON: 19.99 +20.0 20.03 -23.1 16.7 24.2 28.3 10 1 Alarm State:  0
Tue May 17 22:29:12 PDT 2022 ON: 20.00 +20.0 20.05 -23.3 16.5 24.4 28.3 9 0 Alarm State:  0
Tue May 17 22:28:10 PDT 2022 ON: 19.99 +20.0 20.04 -23.1 16.7 24.2 28.3 10 1 Alarm State:  0
Tue May 17 22:27:09 PDT 2022 ON: 20.00 +20.0 20.06 -23.3 16.5 24.4 28.3 9 0 Alarm State:  0
Tue May 17 22:26:07 PDT 2022 ON: 20.00 +20.0 20.05 -23.2 16.6 24.3 28.3 10 0 Alarm State:  0
Tue May 17 22:25:06 PDT 2022 ON: 19.99 +20.0 20.04 -23.2 16.6 24.3 28.3 10 1 Alarm State:  0
Tue May 17 22:24:04 PDT 2022 ON: 20.00 +20.0 20.04 -23.1 16.7 24.2 28.3 9 1 Alarm State:  0
Tue May 17 22:23:03 PDT 2022 ON: 19.99 +20.0 20.04 -23.4 16.3 24.6 28.3 10 1 Alarm State:  0
Tue May 17 22:22:01 PDT 2022 ON: 19.99 +20.0 20.02 -23.3 16.5 24.4 28.3 10 2 Alarm State:  0
Tue May 17 22:21:00 PDT 2022 ON: 19.99 +20.0 20.03 -23.3 16.5 24.4 28.3 10 1 Alarm State:  0
Tue May 17 22:19:58 PDT 2022 ON: 20.00 +20.0 20.04 -23.3 16.5 24.4 28.3 10 1 Alarm State:  0
Tue May 17 22:18:57 PDT 2022 ON: 19.99 +20.0 20.04 -23.3 16.5 24.4 28.3 9 1 Alarm State:  0
Tue May 17 22:17:55 PDT 2022 ON: 19.99 +20.0 20.05 -23.3 16.5 24.4 28.3 10 0 Alarm State:  0
Tue May 17 22:16:54 PDT 2022 ON: 19.99 +20.0 20.03 -23.1 16.7 24.2 28.3 10 1 Alarm State:  0
Tue May 17 22:15:52 PDT 2022 ON: 19.99 +20.0 20.04 -23.1 16.7 24.2 28.3 10 1 Alarm State:  0
Tue May 17 22:14:51 PDT 2022 ON: 20.00 +20.0 20.04 -23.1 16.7 24.2 28.3 10 1 Alarm State:  0
Tue May 17 22:13:49 PDT 2022 ON: 20.00 +20.0 20.06 -23.3 16.4 24.5 28.3 9 0 Alarm State:  0
Tue May 17 22:12:48 PDT 2022 ON: 19.98 +20.0 20.02 -23.1 16.7 24.2 28.3 10 1 Alarm State:  0
Tue May 17 22:11:46 PDT 2022 ON: 19.99 +20.0 20.03 -23.3 16.5 24.4 28.3 10 1 Alarm State:  0
Tue May 17 22:10:45 PDT 2022 ON: 20.00 +20.0 20.05 -23.2 16.6 24.3 28.3 9 0 Alarm State:  0
Tue May 17 22:09:43 PDT 2022 ON: 19.99 +20.0 20.05 -23.3 16.5 24.4 28.3 10 1 Alarm State:  0
Tue May 17 22:08:42 PDT 2022 ON: 19.99 +20.0 20.04 -23.1 16.7 24.2 28.3 10 1 Alarm State:  0
Tue May 17 22:07:40 PDT 2022 ON: 20.00 +20.0 20.04 -23.2 16.6 24.3 28.3 9 1 Alarm State:  0
Tue May 17 22:06:39 PDT 2022 ON: 19.99 +20.0 20.05 -23.2 16.6 24.3 28.3 10 1 Alarm State:  0
Tue May 17 22:05:37 PDT 2022 ON: 19.99 +20.0 20.04 -23.0 16.8 24.2 28.3 9 0 Alarm State:  0
Tue May 17 22:04:36 PDT 2022 ON: 19.99 +20.0 20.04 -23.1 16.7 24.2 28.3 9 1 Alarm State:  0
Tue May 17 22:03:34 PDT 2022 ON: 20.00 +20.0 20.05 -23.2 16.6 24.3 28.3 9 0 Alarm State:  0
Tue May 17 22:02:33 PDT 2022 ON: 19.99 +20.0 20.04 -23.3 16.5 24.4 28.3 9 1 Alarm State:  0
Tue May 17 22:01:31 PDT 2022 ON: 19.99 +20.0 20.04 -23.1 16.7 24.2 28.4 10 1 Alarm State:  0
Tue May 17 22:00:29 PDT 2022 ON: 20.00 +20.0 20.05 -23.2 16.6 24.3 28.3 9 0 Alarm State:  0
Tue May 17 21:59:28 PDT 2022 ON: 20.00 +20.0 20.03 -23.2 16.6 24.3 28.3 10 1 Alarm State:  0
Tue May 17 21:58:26 PDT 2022 ON: 20.00 +20.0 20.06 -23.3 16.5 24.4 28.3 10 0 Alarm State:  0
Tue May 17 21:57:25 PDT 2022 ON: 19.99 +20.0 20.05 -23.3 16.5 24.4 28.3 9 0 Alarm State:  0
Tue May 17 21:56:23 PDT 2022 ON: 19.99 +20.0 20.03 -23.2 16.6 24.3 28.3 10 1 Alarm State:  0
Tue May 17 21:55:22 PDT 2022 ON: 20.00 +20.0 20.04 -23.3 16.5 24.4 28.3 10 1 Alarm State:  0
Tue May 17 21:54:20 PDT 2022 ON: 19.99 +20.0 20.05 -23.0 16.8 24.2 28.3 9 1 Alarm State:  0
Tue May 17 21:53:19 PDT 2022 ON: 20.00 +20.0 20.06 -23.1 16.7 24.2 28.3 10 0 Alarm State:  0
Tue May 17 21:52:17 PDT 2022 ON: 20.00 +20.0 20.05 -23.2 16.6 24.3 28.3 9 0 Alarm State:  0
Tue May 17 21:51:16 PDT 2022 ON: 19.99 +20.0 20.03 -23.1 16.7 24.2 28.3 10 1 Alarm State:  0
Tue May 17 21:50:14 PDT 2022 ON: 19.99 +20.0 20.04 -23.2 16.6 24.3 28.3 10 1 Alarm State:  0
Tue May 17 21:49:13 PDT 2022 ON: 20.00 +20.0 20.05 -23.1 16.7 24.2 28.3 9 1 Alarm State:  0
Tue May 17 21:48:11 PDT 2022 ON: 19.98 +20.0 20.03 -23.2 16.6 24.3 28.4 9 1 Alarm State:  0
Tue May 17 21:47:10 PDT 2022 ON: 20.00 +20.0 20.04 -23.3 16.4 24.5 28.3 10 1 Alarm State:  0
Tue May 17 21:46:08 PDT 2022 ON: 20.00 +20.0 20.04 -23.1 16.7 24.2 28.3 9 1 Alarm State:  0
Tue May 17 21:45:07 PDT 2022 ON: 20.00 +20.0 20.04 -23.3 16.4 24.5 28.3 10 1 Alarm State:  0
Tue May 17 21:44:05 PDT 2022 ON: 19.99 +20.0 20.03 -23.1 16.7 24.2 28.4 10 1 Alarm State:  0
Tue May 17 21:43:04 PDT 2022 ON: 19.99 +20.0 20.04 -23.3 16.5 24.4 28.3 10 1 Alarm State:  0
Tue May 17 21:42:02 PDT 2022 ON: 20.00 +20.0 20.06 -23.3 16.4 24.5 28.3 10 0 Alarm State:  0
Tue May 17 21:41:01 PDT 2022 ON: 19.99 +20.0 20.04 -23.0 16.8 24.2 28.3 9 1 Alarm State:  0
Tue May 17 21:39:59 PDT 2022 ON: 19.99 +20.0 20.03 -23.1 16.7 24.2 28.3 10 1 Alarm State:  0
Tue May 17 21:38:58 PDT 2022 ON: 19.99 +20.0 20.03 -23.1 16.7 24.2 28.3 9 1 Alarm State:  0
Tue May 17 21:37:56 PDT 2022 ON: 19.99 +20.0 20.04 -23.1 16.7 24.2 28.3 9 1 Alarm State:  0
Tue May 17 21:36:55 PDT 2022 ON: 19.99 +20.0 20.03 -23.3 16.5 24.4 28.3 10 1 Alarm State:  0
Tue May 17 21:35:53 PDT 2022 ON: 19.99 +20.0 20.03 -23.3 16.5 24.4 28.3 10 1 Alarm State:  0
Tue May 17 21:34:52 PDT 2022 ON: 20.00 +20.0 20.04 -23.1 16.7 24.2 28.3 9 1 Alarm State:  0
Tue May 17 21:33:50 PDT 2022 ON: 20.00 +20.0 20.05 -23.2 16.6 24.3 28.3 10 0 Alarm State:  0
Tue May 17 21:32:49 PDT 2022 ON: 20.00 +20.0 20.05 -23.2 16.6 24.3 28.3 9 0 Alarm State:  0
Tue May 17 21:31:47 PDT 2022 ON: 20.00 +20.0 20.04 -23.2 16.6 24.3 28.3 9 0 Alarm State:  0
Tue May 17 21:30:46 PDT 2022 ON: 20.00 +20.0 20.05 -23.3 16.4 24.5 28.3 10 0 Alarm State:  0
Tue May 17 21:29:44 PDT 2022 ON: 19.99 +20.0 20.04 -23.2 16.6 24.3 28.3 9 1 Alarm State:  0
Tue May 17 21:28:43 PDT 2022 ON: 19.99 +20.0 20.04 -23.3 16.5 24.4 28.3 10 0 Alarm State:  0
Tue May 17 21:27:41 PDT 2022 ON: 20.00 +20.0 20.05 -23.2 16.6 24.3 28.3 9 0 Alarm State:  0
Tue May 17 21:26:40 PDT 2022 ON: 20.01 +20.0 20.06 -23.2 16.6 24.3 28.3 9 0 Alarm State:  0
Tue May 17 21:25:38 PDT 2022 ON: 20.00 +20.0 20.04 -23.2 16.6 24.3 28.3 10 1 Alarm State:  0
Tue May 17 21:24:37 PDT 2022 ON: 19.99 +20.0 20.03 -23.2 16.6 24.3 28.3 9 1 Alarm State:  0
Tue May 17 21:23:35 PDT 2022 ON: 20.00 +20.0 20.04 -23.2 16.6 24.3 28.3 10 0 Alarm State:  0
Tue May 17 21:22:34 PDT 2022 ON: 19.99 +20.0 20.03 -23.3 16.5 24.4 28.3 10 2 Alarm State:  0
Tue May 17 21:21:32 PDT 2022 ON: 20.00 +20.0 20.04 -23.0 16.8 24.2 28.3 9 1 Alarm State:  0
Tue May 17 21:20:31 PDT 2022 ON: 20.00 +20.0 20.03 -23.2 16.6 24.3 28.3 10 1 Alarm State:  0
Tue May 17 21:19:29 PDT 2022 ON: 20.00 +20.0 20.05 -23.0 16.8 24.2 28.3 9 0 Alarm State:  0
Tue May 17 21:18:28 PDT 2022 ON: 20.00 +20.0 20.05 -23.2 16.6 24.3 28.3 10 0 Alarm State:  0
Tue May 17 21:17:26 PDT 2022 ON: 19.99 +20.0 20.03 -23.3 16.5 24.4 28.3 9 2 Alarm State:  0
Tue May 17 21:16:25 PDT 2022 ON: 19.99 +20.0 20.03 -23.2 16.6 24.3 28.3 9 1 Alarm State:  0
Tue May 17 21:15:23 PDT 2022 ON: 20.00 +20.0 20.05 -23.0 16.8 24.2 28.3 10 0 Alarm State:  0
Tue May 17 21:14:22 PDT 2022 ON: 19.99 +20.0 20.03 -23.3 16.4 24.5 28.3 10 1 Alarm State:  0
Tue May 17 21:13:20 PDT 2022 ON: 20.00 +20.0 20.04 -23.0 16.8 24.2 28.3 9 1 Alarm State:  0
Tue May 17 21:12:19 PDT 2022 ON: 20.00 +20.0 20.06 -23.1 16.7 24.2 28.3 10 0 Alarm State:  0
Tue May 17 21:11:17 PDT 2022 ON: 20.00 +20.0 20.04 -23.2 16.6 24.3 28.3 9 1 Alarm State:  0
Tue May 17 21:10:16 PDT 2022 ON: 19.99 +20.0 20.04 -23.3 16.5 24.4 28.3 10 1 Alarm State:  0
Tue May 17 21:09:04 PDT 2022 ON: 19.99 +20.0 20.03 -23.3 16.5 24.4 28.3 10 1 Alarm State:  0
Tue May 17 21:08:03 PDT 2022 ON: 20.00 +20.0 20.06 -23.2 16.6 24.3 28.3 10 0 Alarm State:  0
Tue May 17 21:07:01 PDT 2022 ON: 19.99 +20.0 20.05 -23.3 16.5 24.4 28.3 9 0 Alarm State:  0
Tue May 17 21:06:00 PDT 2022 ON: 20.00 +20.0 20.04 -23.2 16.6 24.3 28.3 9 0 Alarm State:  0
Tue May 17 21:04:58 PDT 2022 ON: 19.99 +20.0 20.04 -23.1 16.7 24.2 28.3 10 1 Alarm State:  0
Tue May 17 21:03:57 PDT 2022 ON: 19.99 +20.0 20.05 -23.1 16.7 24.2 28.3 9 0 Alarm State:  0
Tue May 17 21:02:55 PDT 2022 ON: 19.99 +20.0 20.04 -23.2 16.6 24.3 28.3 10 1 Alarm State:  0
Tue May 17 21:01:54 PDT 2022 ON: 19.99 +20.0 20.04 -23.3 16.5 24.4 28.3 10 1 Alarm State:  0
Tue May 17 21:00:52 PDT 2022 ON: 20.00 +20.0 20.04 -23.1 16.7 24.2 28.3 10 1 Alarm State:  0
Tue May 17 20:59:51 PDT 2022 ON: 20.00 +20.0 20.04 -23.3 16.5 24.4 28.3 10 1 Alarm State:  0
Tue May 17 20:58:49 PDT 2022 ON: 20.00 +20.0 20.06 -23.2 16.6 24.3 28.3 9 0 Alarm State:  0
Tue May 17 20:57:48 PDT 2022 ON: 20.00 +20.0 20.04 -23.2 16.6 24.3 28.3 10 1 Alarm State:  0
Tue May 17 20:56:46 PDT 2022 ON: 19.98 +20.0 20.03 -23.3 16.5 24.4 28.3 9 1 Alarm State:  0
Tue May 17 20:55:45 PDT 2022 ON: 20.00 +20.0 20.05 -23.2 16.6 24.3 28.3 9 0 Alarm State:  0
Tue May 17 20:54:43 PDT 2022 ON: 20.00 +20.0 20.05 -23.1 16.7 24.2 28.3 10 1 Alarm State:  0
Tue May 17 20:53:42 PDT 2022 ON: 19.99 +20.0 20.03 -23.1 16.7 24.2 28.3 9 1 Alarm State:  0
Tue May 17 20:52:40 PDT 2022 ON: 19.99 +20.0 20.04 -23.1 16.7 24.2 28.3 9 0 Alarm State:  0
Tue May 17 20:51:39 PDT 2022 ON: 20.01 +20.0 20.05 -23.3 16.4 24.5 28.3 10 0 Alarm State:  0
Tue May 17 20:50:37 PDT 2022 ON: 20.00 +20.0 20.05 -23.1 16.7 24.2 28.3 9 1 Alarm State:  0
Tue May 17 20:49:36 PDT 2022 ON: 19.99 +20.0 20.03 -23.3 16.5 24.4 28.3 10 1 Alarm State:  0
Tue May 17 20:48:34 PDT 2022 ON: 20.00 +20.0 20.05 -23.2 16.6 24.3 28.3 10 0 Alarm State:  0
Tue May 17 20:47:32 PDT 2022 ON: 20.00 +20.0 20.07 -23.2 16.6 24.3 28.3 9 0 Alarm State:  0
Tue May 17 20:46:31 PDT 2022 ON: 20.00 +20.0 20.04 -23.0 16.8 24.2 28.3 10 1 Alarm State:  0
Tue May 17 20:45:29 PDT 2022 ON: 19.99 +20.0 20.03 -23.3 16.4 24.5 28.3 10 1 Alarm State:  0
Tue May 17 20:44:28 PDT 2022 ON: 19.99 +20.0 20.04 -23.2 16.6 24.3 28.3 10 1 Alarm State:  0
Tue May 17 20:43:26 PDT 2022 ON: 19.99 +20.0 20.05 -23.3 16.5 24.4 28.3 10 0 Alarm State:  0
Tue May 17 20:42:25 PDT 2022 ON: 20.00 +20.0 20.05 -23.2 16.6 24.3 28.3 9 0 Alarm State:  0
Tue May 17 20:41:23 PDT 2022 ON: 19.99 +20.0 20.04 -23.1 16.7 24.2 28.4 10 1 Alarm State:  0
Tue May 17 20:40:22 PDT 2022 ON: 20.00 +20.0 20.04 -23.2 16.6 24.3 28.3 9 1 Alarm State:  0
Tue May 17 20:39:20 PDT 2022 ON: 20.00 +20.0 20.05 -23.2 16.6 24.3 28.3 9 0 Alarm State:  0
Tue May 17 20:38:19 PDT 2022 ON: 20.00 +20.0 20.04 -23.3 16.5 24.4 28.3 10 0 Alarm State:  0
Tue May 17 20:37:17 PDT 2022 ON: 20.00 +20.0 20.06 -23.3 16.4 24.5 28.3 10 0 Alarm State:  0
Tue May 17 20:36:16 PDT 2022 ON: 19.99 +20.0 20.04 -23.2 16.6 24.3 28.3 10 1 Alarm State:  0
Tue May 17 20:35:14 PDT 2022 ON: 20.00 +20.0 20.04 -23.2 16.6 24.3 28.3 10 0 Alarm State:  0
Tue May 17 20:34:13 PDT 2022 ON: 20.00 +20.0 20.05 -23.1 16.7 24.2 28.3 9 0 Alarm State:  0
Tue May 17 20:33:11 PDT 2022 ON: 19.99 +20.0 20.04 -23.2 16.6 24.3 28.3 10 1 Alarm State:  0
Tue May 17 20:32:10 PDT 2022 ON: 19.98 +20.0 20.03 -23.1 16.7 24.2 28.3 10 1 Alarm State:  0
Tue May 17 20:31:08 PDT 2022 ON: 19.98 +20.0 20.03 -23.3 16.5 24.4 28.3 9 1 Alarm State:  0
Tue May 17 20:30:07 PDT 2022 ON: 20.00 +20.0 20.05 -23.1 16.7 24.2 28.3 10 0 Alarm State:  0
Tue May 17 20:29:05 PDT 2022 ON: 19.99 +20.0 20.04 -23.2 16.6 24.3 28.3 10 1 Alarm State:  0
Tue May 17 20:28:04 PDT 2022 ON: 20.00 +20.0 20.05 -23.3 16.5 24.4 28.3 10 0 Alarm State:  0
Tue May 17 20:27:02 PDT 2022 ON: 19.99 +20.0 20.04 -23.2 16.6 24.3 28.3 10 0 Alarm State:  0
Tue May 17 20:26:01 PDT 2022 ON: 19.99 +20.0 20.04 -23.2 16.6 24.3 28.3 9 1 Alarm State:  0
Tue May 17 20:24:59 PDT 2022 ON: 19.99 +20.0 20.05 -23.1 16.7 24.2 28.4 10 1 Alarm State:  0
Tue May 17 20:23:58 PDT 2022 ON: 19.99 +20.0 20.03 -23.3 16.5 24.4 28.3 10 1 Alarm State:  0
Tue May 17 20:22:56 PDT 2022 ON: 19.99 +20.0 20.05 -23.1 16.7 24.2 28.3 9 0 Alarm State:  0
Tue May 17 20:21:55 PDT 2022 ON: 19.99 +20.0 20.04 -23.3 16.5 24.4 28.3 10 1 Alarm State:  0
Tue May 17 20:20:53 PDT 2022 ON: 20.00 +20.0 20.05 -23.3 16.5 24.4 28.3 10 0 Alarm State:  0
Tue May 17 20:19:52 PDT 2022 ON: 20.00 +20.0 20.04 -23.3 16.5 24.4 28.3 9 1 Alarm State:  0
Tue May 17 20:18:50 PDT 2022 ON: 20.00 +20.0 20.05 -23.2 16.6 24.3 28.3 10 0 Alarm State:  0
Tue May 17 20:17:49 PDT 2022 ON: 20.00 +20.0 20.05 -23.2 16.6 24.3 28.3 9 0 Alarm State:  0
Tue May 17 20:16:47 PDT 2022 ON: 20.00 +20.0 20.03 -23.1 16.7 24.2 28.3 9 1 Alarm State:  0
Tue May 17 20:15:46 PDT 2022 ON: 19.99 +20.0 20.04 -23.3 16.4 24.5 28.3 10 1 Alarm State:  0
Tue May 17 20:14:44 PDT 2022 ON: 20.00 +20.0 20.04 -23.3 16.5 24.4 28.3 9 1 Alarm State:  0
Tue May 17 20:13:43 PDT 2022 ON: 20.00 +20.0 20.05 -23.2 16.6 24.3 28.3 10 0 Alarm State:  0
Tue May 17 20:12:41 PDT 2022 ON: 19.98 +20.0 20.03 -23.2 16.6 24.3 28.3 10 1 Alarm State:  0
Tue May 17 20:11:40 PDT 2022 ON: 20.00 +20.0 20.03 -23.1 16.7 24.2 28.3 9 1 Alarm State:  0
Tue May 17 20:10:38 PDT 2022 ON: 19.99 +20.0 20.05 -23.3 16.5 24.4 28.3 10 0 Alarm State:  0
Tue May 17 20:09:37 PDT 2022 ON: 19.99 +20.0 20.04 -23.2 16.6 24.3 28.3 9 1 Alarm State:  0
Tue May 17 20:08:35 PDT 2022 ON: 20.00 +20.0 20.05 -23.0 16.8 24.2 28.3 10 0 Alarm State:  0
Tue May 17 20:07:34 PDT 2022 ON: 19.99 +20.0 20.03 -23.3 16.4 24.5 28.3 10 1 Alarm State:  0
Tue May 17 20:06:32 PDT 2022 ON: 19.99 +20.0 20.04 -23.0 16.8 24.2 28.3 9 1 Alarm State:  0
Tue May 17 20:05:31 PDT 2022 ON: 20.00 +20.0 20.06 -23.3 16.4 24.5 28.3 10 0 Alarm State:  0
Tue May 17 20:04:29 PDT 2022 ON: 20.00 +20.0 20.04 -23.1 16.7 24.2 28.3 9 1 Alarm State:  0
Tue May 17 20:03:28 PDT 2022 ON: 19.99 +20.0 20.03 -23.2 16.6 24.3 28.3 10 1 Alarm State:  0
Tue May 17 20:02:26 PDT 2022 ON: 20.00 +20.0 20.05 -23.2 16.6 24.3 28.3 10 0 Alarm State:  0
Tue May 17 20:01:25 PDT 2022 ON: 19.99 +20.0 20.03 -23.1 16.7 24.2 28.3 9 1 Alarm State:  0
Tue May 17 20:00:23 PDT 2022 ON: 19.99 +20.0 20.04 -23.3 16.5 24.4 28.3 10 1 Alarm State:  0
Tue May 17 19:59:22 PDT 2022 ON: 19.98 +20.0 20.03 -23.0 16.8 24.2 28.4 10 1 Alarm State:  0
Tue May 17 19:58:20 PDT 2022 ON: 20.00 +20.0 20.04 -23.3 16.4 24.5 28.3 10 1 Alarm State:  0
Tue May 17 19:57:19 PDT 2022 ON: 19.99 +20.0 20.05 -23.2 16.6 24.3 28.3 10 0 Alarm State:  0
Tue May 17 19:56:17 PDT 2022 ON: 19.99 +20.0 20.04 -23.3 16.4 24.5 28.3 9 0 Alarm State:  0
Tue May 17 19:55:16 PDT 2022 ON: 19.99 +20.0 20.04 -23.1 16.7 24.2 28.3 9 1 Alarm State:  0
Tue May 17 19:54:14 PDT 2022 ON: 19.99 +20.0 20.03 -23.1 16.7 24.2 28.3 10 1 Alarm State:  0
Tue May 17 19:53:13 PDT 2022 ON: 20.00 +20.0 20.06 -23.2 16.6 24.3 28.3 9 0 Alarm State:  0
Tue May 17 19:52:11 PDT 2022 ON: 20.00 +20.0 20.05 -23.1 16.7 24.2 28.3 10 0 Alarm State:  0
Tue May 17 19:51:10 PDT 2022 ON: 19.99 +20.0 20.04 -23.0 16.8 24.2 28.4 10 1 Alarm State:  0
Tue May 17 19:50:08 PDT 2022 ON: 19.99 +20.0 20.04 -23.2 16.6 24.3 28.3 10 1 Alarm State:  0
Tue May 17 19:49:07 PDT 2022 ON: 19.99 +20.0 20.04 -23.2 16.6 24.3 28.3 10 1 Alarm State:  0
Tue May 17 19:48:05 PDT 2022 ON: 20.00 +20.0 20.05 -23.1 16.7 24.2 28.4 9 0 Alarm State:  0
Tue May 17 19:47:04 PDT 2022 ON: 20.00 +20.0 20.05 -23.4 16.3 24.6 28.3 10 0 Alarm State:  0
Tue May 17 19:46:02 PDT 2022 ON: 19.99 +20.0 20.03 -23.1 16.7 24.2 28.3 10 1 Alarm State:  0
Tue May 17 19:45:00 PDT 2022 ON: 20.00 +20.0 20.04 -23.3 16.5 24.4 28.3 9 0 Alarm State:  0
Tue May 17 19:43:59 PDT 2022 ON: 20.00 +20.0 20.06 -23.2 16.6 24.3 28.3 10 0 Alarm State:  0
Tue May 17 19:42:57 PDT 2022 ON: 19.99 +20.0 20.04 -23.2 16.6 24.3 28.3 9 1 Alarm State:  0
Tue May 17 19:41:56 PDT 2022 ON: 19.99 +20.0 20.04 -23.1 16.7 24.2 28.3 10 1 Alarm State:  0
Tue May 17 19:40:54 PDT 2022 ON: 19.99 +20.0 20.04 -23.1 16.7 24.2 28.3 10 1 Alarm State:  0
Tue May 17 19:39:53 PDT 2022 ON: 19.99 +20.0 20.05 -23.3 16.5 24.4 28.3 9 0 Alarm State:  0
Tue May 17 19:38:51 PDT 2022 ON: 20.00 +20.0 20.04 -23.3 16.4 24.5 28.3 10 0 Alarm State:  0
Tue May 17 19:37:50 PDT 2022 ON: 19.99 +20.0 20.04 -23.2 16.6 24.3 28.3 10 1 Alarm State:  0
Tue May 17 19:36:48 PDT 2022 ON: 19.99 +20.0 20.05 -23.3 16.5 24.4 28.3 9 1 Alarm State:  0
Tue May 17 19:35:47 PDT 2022 ON: 19.99 +20.0 20.04 -23.2 16.6 24.3 28.3 10 1 Alarm State:  0
Tue May 17 19:34:45 PDT 2022 ON: 20.00 +20.0 20.05 -23.3 16.5 24.4 28.3 10 0 Alarm State:  0
Tue May 17 19:33:44 PDT 2022 ON: 19.99 +20.0 20.05 -23.3 16.5 24.4 28.3 10 0 Alarm State:  0
Tue May 17 19:32:42 PDT 2022 ON: 20.00 +20.0 20.05 -23.3 16.5 24.4 28.3 10 0 Alarm State:  0
Tue May 17 19:31:41 PDT 2022 ON: 20.00 +20.0 20.03 -23.2 16.6 24.3 28.3 9 1 Alarm State:  0
Tue May 17 19:30:39 PDT 2022 ON: 20.00 +20.0 20.04 -23.3 16.5 24.4 28.3 10 1 Alarm State:  0
Tue May 17 19:29:38 PDT 2022 ON: 19.99 +20.0 20.04 -23.1 16.7 24.2 28.4 10 1 Alarm State:  0
Tue May 17 19:28:36 PDT 2022 ON: 19.99 +20.0 20.05 -23.0 16.8 24.2 28.4 9 0 Alarm State:  0
Tue May 17 19:27:35 PDT 2022 ON: 20.00 +20.0 20.05 -23.0 16.8 24.2 28.4 10 0 Alarm State:  0
Tue May 17 19:26:33 PDT 2022 ON: 20.00 +20.0 20.03 -23.2 16.6 24.3 28.3 10 1 Alarm State:  0
Tue May 17 19:25:32 PDT 2022 ON: 20.00 +20.0 20.04 -23.2 16.6 24.3 28.3 10 1 Alarm State:  0
Tue May 17 19:24:30 PDT 2022 ON: 20.00 +20.0 20.05 -23.3 16.5 24.4 28.3 10 1 Alarm State:  0
Tue May 17 19:23:29 PDT 2022 ON: 19.99 +20.0 20.03 -23.1 16.7 24.2 28.3 9 1 Alarm State:  0
Tue May 17 19:22:27 PDT 2022 ON: 20.00 +20.0 20.04 -23.2 16.6 24.3 28.3 10 0 Alarm State:  0
Tue May 17 19:21:26 PDT 2022 ON: 20.00 +20.0 20.04 -23.3 16.5 24.4 28.3 9 1 Alarm State:  0
Tue May 17 19:20:24 PDT 2022 ON: 19.99 +20.0 20.04 -23.2 16.6 24.3 28.3 9 1 Alarm State:  0
Tue May 17 19:19:23 PDT 2022 ON: 19.99 +20.0 20.05 -23.3 16.5 24.4 28.3 10 0 Alarm State:  0
Tue May 17 19:18:21 PDT 2022 ON: 19.99 +20.0 20.04 -23.3 16.4 24.5 28.3 10 0 Alarm State:  0
Tue May 17 19:17:20 PDT 2022 ON: 20.00 +20.0 20.05 -23.1 16.7 24.2 28.4 10 0 Alarm State:  0
Tue May 17 19:16:18 PDT 2022 ON: 20.00 +20.0 20.05 -23.3 16.5 24.4 28.3 10 0 Alarm State:  0
Tue May 17 19:15:17 PDT 2022 ON: 19.99 +20.0 20.04 -23.1 16.7 24.2 28.4 9 1 Alarm State:  0
Tue May 17 19:14:15 PDT 2022 ON: 20.00 +20.0 20.05 -23.2 16.6 24.3 28.3 10 0 Alarm State:  0
Tue May 17 19:13:14 PDT 2022 ON: 19.99 +20.0 20.04 -23.1 16.7 24.2 28.3 9 1 Alarm State:  0
Tue May 17 19:12:12 PDT 2022 ON: 19.99 +20.0 20.03 -23.2 16.6 24.3 28.3 9 1 Alarm State:  0
Tue May 17 19:11:11 PDT 2022 ON: 20.00 +20.0 20.05 -23.3 16.5 24.4 28.3 10 0 Alarm State:  0
Tue May 17 19:10:09 PDT 2022 ON: 19.99 +20.0 20.03 -23.3 16.5 24.4 28.3 10 1 Alarm State:  0
Tue May 17 19:09:08 PDT 2022 ON: 20.00 +20.0 20.05 -23.1 16.7 24.2 28.4 10 0 Alarm State:  0
Tue May 17 19:08:06 PDT 2022 ON: 20.00 +20.0 20.05 -23.2 16.6 24.3 28.3 10 0 Alarm State:  0
Tue May 17 19:07:05 PDT 2022 ON: 19.99 +20.0 20.03 -23.0 16.8 24.2 28.4 9 1 Alarm State:  0
Tue May 17 19:06:03 PDT 2022 ON: 19.99 +20.0 20.03 -23.3 16.5 24.4 28.3 10 1 Alarm State:  0
Tue May 17 19:05:02 PDT 2022 ON: 20.00 +20.0 20.04 -23.3 16.4 24.5 28.3 10 1 Alarm State:  0
Tue May 17 19:04:00 PDT 2022 ON: 20.00 +20.0 20.04 -23.2 16.6 24.3 28.3 9 0 Alarm State:  0
Tue May 17 19:02:59 PDT 2022 ON: 20.00 +20.0 20.04 -23.2 16.6 24.3 28.3 10 1 Alarm State:  0
Tue May 17 19:01:57 PDT 2022 ON: 19.99 +20.0 20.02 -23.1 16.7 24.2 28.3 10 1 Alarm State:  0
Tue May 17 19:00:56 PDT 2022 ON: 19.99 +20.0 20.03 -23.2 16.6 24.3 28.3 10 1 Alarm State:  0
Tue May 17 18:59:54 PDT 2022 ON: 20.00 +20.0 20.04 -23.2 16.6 24.3 28.3 10 1 Alarm State:  0
Tue May 17 18:58:53 PDT 2022 ON: 20.00 +20.0 20.05 -23.1 16.7 24.2 28.4 9 0 Alarm State:  0
Tue May 17 18:57:51 PDT 2022 ON: 19.99 +20.0 20.04 -23.2 16.6 24.3 28.4 10 1 Alarm State:  0
Tue May 17 18:56:50 PDT 2022 ON: 19.99 +20.0 20.04 -23.1 16.7 24.2 28.3 9 1 Alarm State:  0
Tue May 17 18:55:48 PDT 2022 ON: 19.99 +20.0 20.05 -23.1 16.7 24.2 28.4 9 0 Alarm State:  0
Tue May 17 18:54:47 PDT 2022 ON: 19.99 +20.0 20.05 -23.2 16.6 24.3 28.3 10 0 Alarm State:  0
Tue May 17 18:53:45 PDT 2022 ON: 20.00 +20.0 20.04 -23.2 16.6 24.3 28.3 10 1 Alarm State:  0
Tue May 17 18:52:44 PDT 2022 ON: 19.98 +20.0 20.02 -23.0 16.8 24.2 28.4 9 2 Alarm State:  0
Tue May 17 18:51:42 PDT 2022 ON: 20.00 +20.0 20.05 -23.2 16.6 24.3 28.3 10 0 Alarm State:  0
Tue May 17 18:50:41 PDT 2022 ON: 19.99 +20.0 20.04 -23.0 16.8 24.2 28.3 9 1 Alarm State:  0
Tue May 17 18:49:39 PDT 2022 ON: 20.00 +20.0 20.06 -23.3 16.5 24.4 28.3 10 0 Alarm State:  0
Tue May 17 18:48:38 PDT 2022 ON: 20.00 +20.0 20.05 -23.2 16.6 24.3 28.3 10 0 Alarm State:  0
Tue May 17 18:47:36 PDT 2022 ON: 20.00 +20.0 20.05 -23.1 16.7 24.2 28.4 9 0 Alarm State:  0
Tue May 17 18:46:35 PDT 2022 ON: 19.99 +20.0 20.05 -23.1 16.7 24.2 28.4 10 0 Alarm State:  0
Tue May 17 18:45:33 PDT 2022 ON: 20.00 +20.0 20.05 -23.1 16.7 24.2 28.3 10 0 Alarm State:  0
Tue May 17 18:44:32 PDT 2022 ON: 20.00 +20.0 20.04 -23.0 16.8 24.2 28.4 10 1 Alarm State:  0
Tue May 17 18:43:30 PDT 2022 ON: 20.00 +20.0 20.05 -23.1 16.7 24.2 28.3 10 0 Alarm State:  0
Tue May 17 18:42:29 PDT 2022 ON: 19.99 +20.0 20.05 -23.1 16.7 24.2 28.3 9 0 Alarm State:  0
Tue May 17 18:41:27 PDT 2022 ON: 19.99 +20.0 20.04 -23.1 16.7 24.2 28.3 10 1 Alarm State:  0
Tue May 17 18:40:25 PDT 2022 ON: 19.99 +20.0 20.04 -23.1 16.7 24.2 28.3 10 1 Alarm State:  0
Tue May 17 18:39:24 PDT 2022 ON: 19.99 +20.0 20.04 -23.2 16.6 24.3 28.3 10 1 Alarm State:  0
Tue May 17 18:38:22 PDT 2022 ON: 19.99 +20.0 20.05 -23.0 16.8 24.2 28.4 10 0 Alarm State:  0
Tue May 17 18:37:21 PDT 2022 ON: 20.00 +20.0 20.06 -23.3 16.5 24.4 28.3 9 0 Alarm State:  0
Tue May 17 18:36:19 PDT 2022 ON: 19.99 +20.0 20.04 -23.2 16.6 24.3 28.3 9 1 Alarm State:  0
Tue May 17 18:35:18 PDT 2022 ON: 19.99 +20.0 20.04 -23.0 16.8 24.2 28.3 10 1 Alarm State:  0
Tue May 17 18:34:16 PDT 2022 ON: 20.00 +20.0 20.06 -23.2 16.6 24.3 28.4 9 0 Alarm State:  0
Tue May 17 18:33:15 PDT 2022 ON: 19.99 +20.0 20.04 -23.1 16.7 24.2 28.3 10 1 Alarm State:  0
Tue May 17 18:32:13 PDT 2022 ON: 20.00 +20.0 20.04 -23.2 16.6 24.3 28.3 10 1 Alarm State:  0
Tue May 17 18:31:12 PDT 2022 ON: 19.99 +20.0 20.04 -23.1 16.7 24.2 28.3 10 1 Alarm State:  0
Tue May 17 18:30:10 PDT 2022 ON: 19.99 +20.0 20.04 -23.1 16.7 24.2 28.4 10 1 Alarm State:  0
Tue May 17 18:29:09 PDT 2022 ON: 20.00 +20.0 20.06 -23.2 16.6 24.3 28.3 9 0 Alarm State:  0
Tue May 17 18:28:07 PDT 2022 ON: 20.00 +20.0 20.05 -23.2 16.6 24.3 28.3 9 0 Alarm State:  0
Tue May 17 18:27:06 PDT 2022 ON: 19.99 +20.0 20.03 -23.0 16.8 24.2 28.4 9 1 Alarm State:  0
Tue May 17 18:26:04 PDT 2022 ON: 20.00 +20.0 20.05 -23.2 16.6 24.3 28.3 9 0 Alarm State:  0
Tue May 17 18:25:03 PDT 2022 ON: 20.00 +20.0 20.06 -23.3 16.5 24.4 28.3 10 0 Alarm State:  0
Tue May 17 18:24:01 PDT 2022 ON: 20.00 +20.0 20.05 -23.1 16.7 24.2 28.4 10 1 Alarm State:  0
Tue May 17 18:23:00 PDT 2022 ON: 20.00 +20.0 20.06 -23.2 16.6 24.3 28.3 10 0 Alarm State:  0
Tue May 17 18:21:58 PDT 2022 ON: 19.99 +20.0 20.04 -23.0 16.8 24.2 28.4 10 1 Alarm State:  0
Tue May 17 18:20:57 PDT 2022 ON: 19.99 +20.0 20.05 -23.3 16.5 24.4 28.3 9 0 Alarm State:  0
Tue May 17 18:19:55 PDT 2022 ON: 19.99 +20.0 20.03 -23.2 16.6 24.3 28.3 9 2 Alarm State:  0
Tue May 17 18:18:54 PDT 2022 ON: 19.99 +20.0 20.03 -23.2 16.6 24.3 28.3 10 1 Alarm State:  0
Tue May 17 18:17:52 PDT 2022 ON: 20.00 +20.0 20.04 -23.3 16.5 24.4 28.3 9 1 Alarm State:  0
Tue May 17 18:16:51 PDT 2022 ON: 20.00 +20.0 20.05 -23.2 16.6 24.3 28.3 10 1 Alarm State:  0
Tue May 17 18:15:49 PDT 2022 ON: 19.99 +20.0 20.04 -23.2 16.6 24.3 28.3 10 1 Alarm State:  0
Tue May 17 18:14:48 PDT 2022 ON: 20.00 +20.0 20.04 -23.3 16.5 24.4 28.3 9 0 Alarm State:  0
Tue May 17 18:13:46 PDT 2022 ON: 20.00 +20.0 20.06 -23.3 16.5 24.4 28.3 10 0 Alarm State:  0
Tue May 17 18:12:45 PDT 2022 ON: 19.99 +20.0 20.05 -23.0 16.8 24.2 28.4 9 0 Alarm State:  0
Tue May 17 18:11:43 PDT 2022 ON: 19.99 +20.0 20.04 -23.2 16.6 24.3 28.3 9 1 Alarm State:  0
Tue May 17 18:10:42 PDT 2022 ON: 19.99 +20.0 20.03 -23.2 16.6 24.3 28.3 10 1 Alarm State:  0
Tue May 17 18:09:40 PDT 2022 ON: 20.00 +20.0 20.05 -23.0 16.8 24.2 28.3 9 0 Alarm State:  0
Tue May 17 18:08:39 PDT 2022 ON: 20.00 +20.0 20.04 -23.0 16.8 24.2 28.3 9 1 Alarm State:  0
Tue May 17 18:07:37 PDT 2022 ON: 19.99 +20.0 20.03 -23.2 16.6 24.3 28.3 10 1 Alarm State:  0
Tue May 17 18:06:36 PDT 2022 ON: 19.99 +20.0 20.05 -23.1 16.7 24.2 28.4 10 0 Alarm State:  0
Tue May 17 18:05:34 PDT 2022 ON: 20.00 +20.0 20.05 -23.2 16.6 24.3 28.3 10 0 Alarm State:  0
Tue May 17 18:04:33 PDT 2022 ON: 19.99 +20.0 20.04 -23.2 16.6 24.3 28.3 9 1 Alarm State:  0
Tue May 17 18:03:31 PDT 2022 ON: 20.00 +20.0 20.04 -23.0 16.8 24.2 28.3 10 1 Alarm State:  0
Tue May 17 18:02:30 PDT 2022 ON: 19.99 +20.0 20.05 -23.3 16.5 24.4 28.3 10 1 Alarm State:  0
Tue May 17 18:01:28 PDT 2022 ON: 19.99 +20.0 20.05 -23.1 16.7 24.2 28.3 9 0 Alarm State:  0
Tue May 17 18:00:27 PDT 2022 ON: 20.00 +20.0 20.05 -23.3 16.5 24.4 28.3 10 0 Alarm State:  0
Tue May 17 17:59:25 PDT 2022 ON: 20.00 +20.0 20.05 -22.9 16.9 24.1 28.4 10 0 Alarm State:  0
Tue May 17 17:58:24 PDT 2022 ON: 19.99 +20.0 20.04 -23.3 16.4 24.5 28.3 9 1 Alarm State:  0
Tue May 17 17:57:22 PDT 2022 ON: 20.00 +20.0 20.06 -23.1 16.7 24.2 28.4 10 0 Alarm State:  0
Tue May 17 17:56:21 PDT 2022 ON: 19.99 +20.0 20.04 -23.2 16.6 24.3 28.3 9 1 Alarm State:  0
Tue May 17 17:55:19 PDT 2022 ON: 20.00 +20.0 20.04 -23.3 16.4 24.5 28.3 10 1 Alarm State:  0
Tue May 17 17:54:18 PDT 2022 ON: 19.99 +20.0 20.03 -23.1 16.7 24.2 28.3 10 2 Alarm State:  0
Tue May 17 17:53:16 PDT 2022 ON: 20.00 +20.0 20.06 -23.2 16.6 24.3 28.3 9 0 Alarm State:  0
Tue May 17 17:52:15 PDT 2022 ON: 20.00 +20.0 20.05 -23.3 16.5 24.4 28.3 10 0 Alarm State:  0
Tue May 17 17:51:13 PDT 2022 ON: 19.99 +20.0 20.04 -23.1 16.7 24.2 28.3 10 1 Alarm State:  0
Tue May 17 17:50:12 PDT 2022 ON: 19.99 +20.0 20.03 -23.1 16.7 24.2 28.3 9 1 Alarm State:  0
Tue May 17 17:49:10 PDT 2022 ON: 19.99 +20.0 20.04 -23.1 16.7 24.2 28.3 10 1 Alarm State:  0
Tue May 17 17:48:09 PDT 2022 ON: 20.00 +20.0 20.05 -23.3 16.5 24.4 28.3 9 0 Alarm State:  0
Tue May 17 17:47:07 PDT 2022 ON: 19.99 +20.0 20.03 -23.3 16.4 24.5 28.3 9 1 Alarm State:  0
Tue May 17 17:46:06 PDT 2022 ON: 19.99 +20.0 20.03 -23.2 16.6 24.3 28.3 10 1 Alarm State:  0
Tue May 17 17:45:04 PDT 2022 ON: 19.99 +20.0 20.05 -23.3 16.5 24.4 28.3 9 1 Alarm State:  0
Tue May 17 17:44:03 PDT 2022 ON: 20.00 +20.0 20.06 -23.1 16.7 24.2 28.4 10 0 Alarm State:  0
Tue May 17 17:43:01 PDT 2022 ON: 19.99 +20.0 20.04 -23.1 16.7 24.2 28.3 10 1 Alarm State:  0
Tue May 17 17:42:00 PDT 2022 ON: 20.00 +20.0 20.05 -23.3 16.5 24.4 28.3 10 1 Alarm State:  0
Tue May 17 17:40:58 PDT 2022 ON: 19.99 +20.0 20.04 -23.3 16.5 24.4 28.3 10 1 Alarm State:  0
Tue May 17 17:39:56 PDT 2022 ON: 19.99 +20.0 20.04 -23.2 16.6 24.3 28.3 9 1 Alarm State:  0
Tue May 17 17:38:55 PDT 2022 ON: 19.99 +20.0 20.04 -23.3 16.4 24.5 28.3 10 1 Alarm State:  0
Tue May 17 17:37:53 PDT 2022 ON: 19.99 +20.0 20.04 -23.3 16.5 24.4 28.3 9 1 Alarm State:  0
Tue May 17 17:36:52 PDT 2022 ON: 20.00 +20.0 20.04 -23.2 16.6 24.3 28.3 9 1 Alarm State:  0
Tue May 17 17:35:50 PDT 2022 ON: 20.00 +20.0 20.06 -23.3 16.5 24.4 28.3 10 0 Alarm State:  0
Tue May 17 17:34:49 PDT 2022 ON: 19.99 +20.0 20.03 -23.2 16.6 24.3 28.3 10 1 Alarm State:  0
Tue May 17 17:33:47 PDT 2022 ON: 20.00 +20.0 20.05 -23.1 16.7 24.2 28.3 10 0 Alarm State:  0
Tue May 17 17:32:46 PDT 2022 ON: 19.99 +20.0 20.05 -23.3 16.5 24.4 28.3 10 0 Alarm State:  0
Tue May 17 17:31:44 PDT 2022 ON: 20.01 +20.0 20.05 -23.2 16.6 24.3 28.3 9 0 Alarm State:  0
Tue May 17 17:30:43 PDT 2022 ON: 19.99 +20.0 20.04 -23.2 16.6 24.3 28.3 10 1 Alarm State:  0
Tue May 17 17:29:41 PDT 2022 ON: 20.00 +20.0 20.05 -23.3 16.4 24.5 28.3 10 0 Alarm State:  0
Tue May 17 17:28:40 PDT 2022 ON: 20.00 +20.0 20.05 -23.1 16.7 24.2 28.3 9 0 Alarm State:  0
Tue May 17 17:27:38 PDT 2022 ON: 20.00 +20.0 20.06 -23.2 16.6 24.3 28.3 10 0 Alarm State:  0
Tue May 17 17:26:37 PDT 2022 ON: 19.99 +20.0 20.04 -23.2 16.6 24.3 28.3 9 1 Alarm State:  0
Tue May 17 17:25:35 PDT 2022 ON: 19.98 +20.0 20.03 -23.0 16.8 24.2 28.3 10 1 Alarm State:  0
Tue May 17 17:24:34 PDT 2022 ON: 20.00 +20.0 20.06 -23.3 16.5 24.4 28.3 9 0 Alarm State:  0
Tue May 17 17:23:32 PDT 2022 ON: 20.00 +20.0 20.05 -23.3 16.5 24.4 28.3 9 0 Alarm State:  0
Tue May 17 17:22:31 PDT 2022 ON: 20.00 +20.0 20.06 -23.1 16.7 24.2 28.3 10 0 Alarm State:  0
Tue May 17 17:21:29 PDT 2022 ON: 19.99 +20.0 20.04 -23.2 16.6 24.3 28.3 10 1 Alarm State:  0
Tue May 17 17:20:28 PDT 2022 ON: 19.99 +20.0 20.04 -23.2 16.6 24.3 28.3 10 1 Alarm State:  0
Tue May 17 17:19:26 PDT 2022 ON: 19.99 +20.0 20.04 -23.3 16.5 24.4 28.3 10 1 Alarm State:  0
Tue May 17 17:18:25 PDT 2022 ON: 19.99 +20.0 20.04 -23.1 16.7 24.2 28.3 9 1 Alarm State:  0
Tue May 17 17:17:23 PDT 2022 ON: 20.01 +20.0 20.05 -23.2 16.6 24.3 28.3 9 0 Alarm State:  0
Tue May 17 17:16:22 PDT 2022 ON: 19.99 +20.0 20.05 -23.3 16.5 24.4 28.3 10 1 Alarm State:  0
Tue May 17 17:15:20 PDT 2022 ON: 19.99 +20.0 20.04 -23.1 16.7 24.2 28.4 9 1 Alarm State:  0
Tue May 17 17:14:19 PDT 2022 ON: 19.99 +20.0 20.04 -23.2 16.6 24.3 28.3 10 1 Alarm State:  0
Tue May 17 17:13:17 PDT 2022 ON: 19.99 +20.0 20.04 -23.3 16.4 24.5 28.3 10 1 Alarm State:  0
Tue May 17 17:12:16 PDT 2022 ON: 19.99 +20.0 20.03 -23.2 16.6 24.3 28.3 9 1 Alarm State:  0
Tue May 17 17:11:14 PDT 2022 ON: 19.99 +20.0 20.04 -23.3 16.4 24.5 28.3 10 1 Alarm State:  0
Tue May 17 17:10:13 PDT 2022 ON: 20.00 +20.0 20.06 -23.2 16.6 24.3 28.3 9 0 Alarm State:  0
Tue May 17 17:09:11 PDT 2022 ON: 19.99 +20.0 20.04 -23.0 16.8 24.2 28.4 10 1 Alarm State:  0
Tue May 17 17:08:10 PDT 2022 ON: 20.00 +20.0 20.05 -23.2 16.6 24.3 28.3 9 0 Alarm State:  0
Tue May 17 17:07:08 PDT 2022 ON: 19.99 +20.0 20.05 -23.2 16.6 24.3 28.3 9 1 Alarm State:  0
Tue May 17 17:06:07 PDT 2022 ON: 19.99 +20.0 20.05 -23.3 16.4 24.5 28.3 10 0 Alarm State:  0
Tue May 17 17:05:05 PDT 2022 ON: 19.99 +20.0 20.04 -23.3 16.5 24.4 28.3 9 1 Alarm State:  0
Tue May 17 17:04:04 PDT 2022 ON: 20.00 +20.0 20.04 -23.2 16.6 24.3 28.3 9 1 Alarm State:  0
Tue May 17 17:03:02 PDT 2022 ON: 19.99 +20.0 20.04 -23.3 16.4 24.5 28.3 10 1 Alarm State:  0
Tue May 17 17:02:01 PDT 2022 ON: 20.00 +20.0 20.06 -22.9 16.9 24.1 28.4 9 0 Alarm State:  0
Tue May 17 17:00:59 PDT 2022 ON: 19.99 +20.0 20.04 -23.2 16.6 24.3 28.3 9 1 Alarm State:  0
Tue May 17 16:59:58 PDT 2022 ON: 20.00 +20.0 20.05 -23.1 16.7 24.2 28.3 10 0 Alarm State:  0
Tue May 17 16:58:56 PDT 2022 ON: 20.00 +20.0 20.06 -23.2 16.6 24.3 28.3 9 0 Alarm State:  0
Tue May 17 16:57:55 PDT 2022 ON: 20.00 +20.0 20.06 -22.9 16.9 24.1 28.4 10 0 Alarm State:  0
Tue May 17 16:56:53 PDT 2022 ON: 19.99 +20.0 20.05 -23.3 16.4 24.5 28.3 10 1 Alarm State:  0
Tue May 17 16:55:52 PDT 2022 ON: 19.99 +20.0 20.04 -23.2 16.6 24.3 28.3 10 1 Alarm State:  0
Tue May 17 16:54:50 PDT 2022 ON: 19.99 +20.0 20.04 -23.3 16.5 24.4 28.3 10 0 Alarm State:  0
Tue May 17 16:53:49 PDT 2022 ON: 20.00 +20.0 20.06 -23.3 16.4 24.5 28.3 9 0 Alarm State:  0
Tue May 17 16:52:47 PDT 2022 ON: 20.00 +20.0 20.05 -23.3 16.5 24.4 28.3 10 0 Alarm State:  0
Tue May 17 16:51:46 PDT 2022 ON: 19.99 +20.0 20.04 -23.2 16.6 24.3 28.3 10 1 Alarm State:  0
Tue May 17 16:50:44 PDT 2022 ON: 20.00 +20.0 20.05 -23.1 16.7 24.2 28.3 9 0 Alarm State:  0
Tue May 17 16:49:43 PDT 2022 ON: 20.00 +20.0 20.05 -23.3 16.5 24.4 28.3 10 0 Alarm State:  0
Tue May 17 16:48:41 PDT 2022 ON: 19.99 +20.0 20.04 -23.1 16.7 24.2 28.4 10 1 Alarm State:  0
Tue May 17 16:47:40 PDT 2022 ON: 20.00 +20.0 20.04 -23.3 16.5 24.4 28.3 10 1 Alarm State:  0
Tue May 17 16:46:38 PDT 2022 ON: 19.99 +20.0 20.05 -23.3 16.5 24.4 28.3 10 0 Alarm State:  0
Tue May 17 16:45:37 PDT 2022 ON: 19.99 +20.0 20.04 -23.3 16.5 24.4 28.3 9 1 Alarm State:  0
Tue May 17 16:44:35 PDT 2022 ON: 20.01 +20.0 20.05 -23.1 16.7 24.2 28.4 10 0 Alarm State:  0
Tue May 17 16:43:34 PDT 2022 ON: 19.99 +20.0 20.05 -23.2 16.6 24.3 28.3 10 1 Alarm State:  0
Tue May 17 16:42:32 PDT 2022 ON: 20.00 +20.0 20.05 -23.2 16.6 24.3 28.3 9 0 Alarm State:  0
Tue May 17 16:41:30 PDT 2022 ON: 19.99 +20.0 20.04 -23.3 16.5 24.4 28.3 10 1 Alarm State:  0
Tue May 17 16:40:29 PDT 2022 ON: 20.00 +20.0 20.06 -23.2 16.6 24.3 28.3 9 0 Alarm State:  0
Tue May 17 16:39:27 PDT 2022 ON: 19.99 +20.0 20.05 -23.3 16.4 24.5 28.3 10 1 Alarm State:  0
Tue May 17 16:38:26 PDT 2022 ON: 20.00 +20.0 20.05 -23.3 16.5 24.4 28.3 10 0 Alarm State:  0
Tue May 17 16:37:24 PDT 2022 ON: 19.99 +20.0 20.05 -23.2 16.6 24.3 28.3 9 1 Alarm State:  0
Tue May 17 16:36:23 PDT 2022 ON: 19.99 +20.0 20.03 -23.3 16.5 24.4 28.3 10 1 Alarm State:  0
Tue May 17 16:35:21 PDT 2022 ON: 20.00 +20.0 20.04 -23.1 16.7 24.2 28.3 10 1 Alarm State:  0
Tue May 17 16:34:20 PDT 2022 ON: 19.99 +20.0 20.04 -23.3 16.5 24.4 28.3 9 1 Alarm State:  0
Tue May 17 16:33:18 PDT 2022 ON: 20.00 +20.0 20.05 -23.3 16.4 24.5 28.3 9 0 Alarm State:  0
Tue May 17 16:32:17 PDT 2022 ON: 19.99 +20.0 20.03 -23.1 16.7 24.2 28.3 10 1 Alarm State:  0
Tue May 17 16:31:15 PDT 2022 ON: 20.00 +20.0 20.05 -23.2 16.6 24.3 28.3 9 0 Alarm State:  0
Tue May 17 16:30:14 PDT 2022 ON: 19.99 +20.0 20.04 -23.3 16.5 24.4 28.3 10 1 Alarm State:  0
Tue May 17 16:29:12 PDT 2022 ON: 19.99 +20.0 20.05 -23.2 16.6 24.3 28.3 9 0 Alarm State:  0
Tue May 17 16:28:11 PDT 2022 ON: 20.00 +20.0 20.05 -23.3 16.5 24.4 28.3 10 1 Alarm State:  0
Tue May 17 16:27:09 PDT 2022 ON: 19.98 +20.0 20.03 -23.1 16.7 24.2 28.3 10 2 Alarm State:  0
Tue May 17 16:26:08 PDT 2022 ON: 20.00 +20.0 20.06 -23.2 16.6 24.3 28.3 9 0 Alarm State:  0
Tue May 17 16:25:06 PDT 2022 ON: 20.00 +20.0 20.06 -23.3 16.4 24.5 28.3 10 0 Alarm State:  0
Tue May 17 16:24:05 PDT 2022 ON: 20.00 +20.0 20.04 -23.1 16.7 24.2 28.4 10 1 Alarm State:  0
Tue May 17 16:23:03 PDT 2022 ON: 19.99 +20.0 20.04 -23.2 16.6 24.3 28.3 10 1 Alarm State:  0
Tue May 17 16:22:02 PDT 2022 ON: 20.00 +20.0 20.05 -23.2 16.6 24.3 28.3 10 0 Alarm State:  0
Tue May 17 16:21:00 PDT 2022 ON: 19.99 +20.0 20.05 -23.2 16.6 24.3 28.3 9 1 Alarm State:  0
Tue May 17 16:19:59 PDT 2022 ON: 19.99 +20.0 20.03 -22.9 16.9 24.1 28.4 10 1 Alarm State:  0
Tue May 17 16:18:57 PDT 2022 ON: 20.00 +20.0 20.05 -23.4 16.3 24.6 28.3 10 0 Alarm State:  0
Tue May 17 16:17:56 PDT 2022 ON: 20.00 +20.0 20.06 -23.2 16.6 24.3 28.3 9 0 Alarm State:  0
Tue May 17 16:16:54 PDT 2022 ON: 19.99 +20.0 20.03 -23.2 16.6 24.3 28.3 10 1 Alarm State:  0
Tue May 17 16:15:53 PDT 2022 ON: 19.99 +20.0 20.03 -23.3 16.4 24.5 28.3 10 1 Alarm State:  0
Tue May 17 16:14:51 PDT 2022 ON: 20.00 +20.0 20.05 -23.2 16.6 24.3 28.3 10 0 Alarm State:  0
Tue May 17 16:13:50 PDT 2022 ON: 19.99 +20.0 20.04 -23.2 16.6 24.3 28.3 10 1 Alarm State:  0
Tue May 17 16:12:48 PDT 2022 ON: 19.99 +20.0 20.05 -23.3 16.5 24.4 28.3 9 0 Alarm State:  0
Tue May 17 16:11:47 PDT 2022 ON: 20.00 +20.0 20.05 -23.3 16.5 24.4 28.3 10 0 Alarm State:  0
Tue May 17 16:10:45 PDT 2022 ON: 19.99 +20.0 20.03 -23.1 16.7 24.2 28.3 10 1 Alarm State:  0
Tue May 17 16:09:44 PDT 2022 ON: 19.99 +20.0 20.02 -23.3 16.5 24.4 28.3 10 2 Alarm State:  0
Tue May 17 16:08:42 PDT 2022 ON: 20.00 +20.0 20.05 -23.3 16.5 24.4 28.3 10 0 Alarm State:  0
Tue May 17 16:07:41 PDT 2022 ON: 19.99 +20.0 20.04 -23.1 16.7 24.2 28.3 9 1 Alarm State:  0
Tue May 17 16:06:39 PDT 2022 ON: 20.00 +20.0 20.05 -23.3 16.5 24.4 28.3 10 0 Alarm State:  0
Tue May 17 16:05:38 PDT 2022 ON: 20.00 +20.0 20.05 -23.3 16.4 24.5 28.3 10 1 Alarm State:  0
Tue May 17 16:04:36 PDT 2022 ON: 19.99 +20.0 20.05 -23.2 16.6 24.3 28.3 9 0 Alarm State:  0
Tue May 17 16:03:35 PDT 2022 ON: 20.00 +20.0 20.06 -23.2 16.6 24.3 28.3 10 0 Alarm State:  0
Tue May 17 16:02:33 PDT 2022 ON: 19.99 +20.0 20.04 -23.2 16.6 24.3 28.3 10 1 Alarm State:  0
Tue May 17 16:01:32 PDT 2022 ON: 20.00 +20.0 20.03 -23.3 16.5 24.4 28.3 9 1 Alarm State:  0
Tue May 17 16:00:30 PDT 2022 ON: 19.99 +20.0 20.04 -23.2 16.6 24.3 28.3 10 1 Alarm State:  0
Tue May 17 15:59:29 PDT 2022 ON: 20.00 +20.0 20.05 -23.2 16.6 24.3 28.3 9 0 Alarm State:  0
Tue May 17 15:58:27 PDT 2022 ON: 20.00 +20.0 20.03 -23.1 16.7 24.2 28.3 9 1 Alarm State:  0
Tue May 17 15:57:26 PDT 2022 ON: 19.99 +20.0 20.04 -23.2 16.6 24.3 28.3 10 1 Alarm State:  0
Tue May 17 15:56:24 PDT 2022 ON: 19.99 +20.0 20.05 -23.3 16.5 24.4 28.3 9 0 Alarm State:  0
Tue May 17 15:55:23 PDT 2022 ON: 20.00 +20.0 20.04 -23.1 16.7 24.2 28.4 10 1 Alarm State:  0
Tue May 17 15:54:21 PDT 2022 ON: 20.00 +20.0 20.05 -23.2 16.6 24.3 28.3 10 0 Alarm State:  0
Tue May 17 15:53:20 PDT 2022 ON: 19.99 +20.0 20.03 -23.2 16.6 24.3 28.3 10 1 Alarm State:  0
Tue May 17 15:52:18 PDT 2022 ON: 20.00 +20.0 20.05 -23.2 16.6 24.3 28.3 10 0 Alarm State:  0
Tue May 17 15:51:17 PDT 2022 ON: 20.00 +20.0 20.05 -23.1 16.7 24.2 28.4 9 0 Alarm State:  0
Tue May 17 15:50:15 PDT 2022 ON: 19.99 +20.0 20.05 -23.2 16.6 24.3 28.3 10 1 Alarm State:  0
Tue May 17 15:49:14 PDT 2022 ON: 19.99 +20.0 20.04 -23.3 16.5 24.4 28.3 9 1 Alarm State:  0
Tue May 17 15:48:12 PDT 2022 ON: 20.00 +20.0 20.05 -23.2 16.6 24.3 28.3 9 0 Alarm State:  0
Tue May 17 15:47:11 PDT 2022 ON: 20.00 +20.0 20.04 -23.2 16.6 24.3 28.3 10 1 Alarm State:  0
Tue May 17 15:46:09 PDT 2022 ON: 20.00 +20.0 20.05 -23.2 16.6 24.3 28.3 9 1 Alarm State:  0